<?xml version="1.0" encoding="UTF-8" standalone="no" ?>
<gpx xmlns="http://www.topografix.com/GPX/1/1" xmlns:xsi="http://www.w3.org/2001/XMLSchema-instance" xsi:schemaLocation="http://www.topografix.com/GPX/1/1 http://www.topografix.com/GPX/1/1/gpx.xsd" version="1.1" creator="VisuGPX - https://www.visugpx.com">
  <metadata>
    <name>parcours 11</name>
    <desc><![CDATA[Encore et encore]]></desc>
  </metadata>
  <trk>
    <name><![CDATA[ACTIVE LOG133154]]></name>
    <trkseg>
      <trkpt lat="48.38278" lon="-4.50747">
        <ele>-2.748</ele>
        <time>2010-07-26T11:31:54Z</time>
      </trkpt>
    </trkseg>
  </trk>
  <trk>
    <name><![CDATA[ACTIVE LOG133405]]></name>
    <trkseg>
      <trkpt lat="48.38248" lon="-4.50639">
        <ele>-2.632</ele>
        <time>2010-07-26T11:34:05Z</time>
      </trkpt>
      <trkpt lat="48.3826" lon="-4.50627">
        <ele>-2.653</ele>
        <time>2010-07-26T11:34:20Z</time>
      </trkpt>
      <trkpt lat="48.38276" lon="-4.50617">
        <ele>-2.346</ele>
        <time>2010-07-26T11:34:38Z</time>
      </trkpt>
      <trkpt lat="48.3831" lon="-4.50601">
        <ele>-1.945</ele>
        <time>2010-07-26T11:35:01Z</time>
      </trkpt>
    </trkseg>
  </trk>
  <trk>
    <name><![CDATA[ACTIVE LOG133513]]></name>
    <trkseg>
      <trkpt lat="48.38285" lon="-4.50613">
        <ele>-2.637</ele>
        <time>2010-07-26T11:35:13Z</time>
      </trkpt>
      <trkpt lat="48.38285" lon="-4.50613">
        <ele>-1.21</ele>
        <time>2010-07-26T11:36:01Z</time>
      </trkpt>
      <trkpt lat="48.38273" lon="-4.50696">
        <ele>1.408</ele>
        <time>2010-07-26T11:36:12Z</time>
      </trkpt>
      <trkpt lat="48.38272" lon="-4.50715">
        <ele>2.029</ele>
        <time>2010-07-26T11:36:17Z</time>
      </trkpt>
      <trkpt lat="48.38278" lon="-4.50727">
        <ele>3.488</ele>
        <time>2010-07-26T11:36:21Z</time>
      </trkpt>
      <trkpt lat="48.38281" lon="-4.50767">
        <ele>6.368</ele>
        <time>2010-07-26T11:36:33Z</time>
      </trkpt>
      <trkpt lat="48.38281" lon="-4.50771">
        <ele>6.191</ele>
        <time>2010-07-26T11:36:34Z</time>
      </trkpt>
      <trkpt lat="48.38283" lon="-4.50785">
        <ele>7.295</ele>
        <time>2010-07-26T11:36:38Z</time>
      </trkpt>
      <trkpt lat="48.38283" lon="-4.508">
        <ele>8.228</ele>
        <time>2010-07-26T11:36:42Z</time>
      </trkpt>
      <trkpt lat="48.38284" lon="-4.50837">
        <ele>9.626</ele>
        <time>2010-07-26T11:36:53Z</time>
      </trkpt>
      <trkpt lat="48.38273" lon="-4.50852">
        <ele>2.056</ele>
        <time>2010-07-26T11:37:03Z</time>
      </trkpt>
      <trkpt lat="48.3827" lon="-4.50853">
        <ele>5.647</ele>
        <time>2010-07-26T11:37:04Z</time>
      </trkpt>
      <trkpt lat="48.38266" lon="-4.50855">
        <ele>13.671</ele>
        <time>2010-07-26T11:37:05Z</time>
      </trkpt>
      <trkpt lat="48.38217" lon="-4.50877">
        <ele>10.191</ele>
        <time>2010-07-26T11:37:17Z</time>
      </trkpt>
      <trkpt lat="48.38209" lon="-4.5088">
        <ele>13.633</ele>
        <time>2010-07-26T11:37:20Z</time>
      </trkpt>
      <trkpt lat="48.38204" lon="-4.50883">
        <ele>17.72</ele>
        <time>2010-07-26T11:37:22Z</time>
      </trkpt>
      <trkpt lat="48.38198" lon="-4.50887">
        <ele>22.04</ele>
        <time>2010-07-26T11:37:24Z</time>
      </trkpt>
      <trkpt lat="48.38191" lon="-4.5089">
        <ele>26.122</ele>
        <time>2010-07-26T11:37:26Z</time>
      </trkpt>
      <trkpt lat="48.38183" lon="-4.50894">
        <ele>29.496</ele>
        <time>2010-07-26T11:37:28Z</time>
      </trkpt>
      <trkpt lat="48.38176" lon="-4.509">
        <ele>33.026</ele>
        <time>2010-07-26T11:37:30Z</time>
      </trkpt>
      <trkpt lat="48.38166" lon="-4.50906">
        <ele>36.602</ele>
        <time>2010-07-26T11:37:33Z</time>
      </trkpt>
      <trkpt lat="48.38159" lon="-4.50909">
        <ele>39.928</ele>
        <time>2010-07-26T11:37:35Z</time>
      </trkpt>
      <trkpt lat="48.38155" lon="-4.50912">
        <ele>41.376</ele>
        <time>2010-07-26T11:37:36Z</time>
      </trkpt>
      <trkpt lat="48.38144" lon="-4.50927">
        <ele>46.343</ele>
        <time>2010-07-26T11:37:40Z</time>
      </trkpt>
      <trkpt lat="48.38141" lon="-4.50931">
        <ele>47.816</ele>
        <time>2010-07-26T11:37:41Z</time>
      </trkpt>
      <trkpt lat="48.38131" lon="-4.50948">
        <ele>51.264</ele>
        <time>2010-07-26T11:37:45Z</time>
      </trkpt>
      <trkpt lat="48.38124" lon="-4.50981">
        <ele>56.249</ele>
        <time>2010-07-26T11:37:51Z</time>
      </trkpt>
      <trkpt lat="48.38123" lon="-4.50987">
        <ele>56.208</ele>
        <time>2010-07-26T11:37:52Z</time>
      </trkpt>
      <trkpt lat="48.38124" lon="-4.51023">
        <ele>59.533</ele>
        <time>2010-07-26T11:37:58Z</time>
      </trkpt>
      <trkpt lat="48.38127" lon="-4.51046">
        <ele>61.299</ele>
        <time>2010-07-26T11:38:02Z</time>
      </trkpt>
      <trkpt lat="48.38131" lon="-4.51066">
        <ele>62.508</ele>
        <time>2010-07-26T11:38:05Z</time>
      </trkpt>
      <trkpt lat="48.38139" lon="-4.51119">
        <ele>63.955</ele>
        <time>2010-07-26T11:38:12Z</time>
      </trkpt>
      <trkpt lat="48.38135" lon="-4.51265">
        <ele>65.759</ele>
        <time>2010-07-26T11:38:30Z</time>
      </trkpt>
      <trkpt lat="48.38134" lon="-4.51406">
        <ele>69.172</ele>
        <time>2010-07-26T11:38:50Z</time>
      </trkpt>
      <trkpt lat="48.38134" lon="-4.51504">
        <ele>71.118</ele>
        <time>2010-07-26T11:39:06Z</time>
      </trkpt>
      <trkpt lat="48.38134" lon="-4.51524">
        <ele>70.945</ele>
        <time>2010-07-26T11:39:09Z</time>
      </trkpt>
      <trkpt lat="48.38152" lon="-4.51534">
        <ele>71.614</ele>
        <time>2010-07-26T11:39:13Z</time>
      </trkpt>
      <trkpt lat="48.38225" lon="-4.51531">
        <ele>75.228</ele>
        <time>2010-07-26T11:39:31Z</time>
      </trkpt>
      <trkpt lat="48.38257" lon="-4.51527">
        <ele>77.885</ele>
        <time>2010-07-26T11:39:42Z</time>
      </trkpt>
      <trkpt lat="48.38269" lon="-4.51526">
        <ele>77.933</ele>
        <time>2010-07-26T11:39:46Z</time>
      </trkpt>
      <trkpt lat="48.38277" lon="-4.51554">
        <ele>78.354</ele>
        <time>2010-07-26T11:39:52Z</time>
      </trkpt>
      <trkpt lat="48.38287" lon="-4.51689">
        <ele>80.121</ele>
        <time>2010-07-26T11:40:16Z</time>
      </trkpt>
      <trkpt lat="48.38292" lon="-4.51779">
        <ele>83.182</ele>
        <time>2010-07-26T11:40:33Z</time>
      </trkpt>
      <trkpt lat="48.38302" lon="-4.51889">
        <ele>86.026</ele>
        <time>2010-07-26T11:40:53Z</time>
      </trkpt>
      <trkpt lat="48.38305" lon="-4.51943">
        <ele>87.143</ele>
        <time>2010-07-26T11:41:02Z</time>
      </trkpt>
      <trkpt lat="48.38318" lon="-4.51989">
        <ele>87.878</ele>
        <time>2010-07-26T11:41:06Z</time>
      </trkpt>
      <trkpt lat="48.38324" lon="-4.51987">
        <ele>87.889</ele>
        <time>2010-07-26T11:41:08Z</time>
      </trkpt>
      <trkpt lat="48.38361" lon="-4.51978">
        <ele>91.124</ele>
        <time>2010-07-26T11:41:20Z</time>
      </trkpt>
      <trkpt lat="48.38396" lon="-4.5197">
        <ele>93.105</ele>
        <time>2010-07-26T11:41:30Z</time>
      </trkpt>
      <trkpt lat="48.38403" lon="-4.51968">
        <ele>93.021</ele>
        <time>2010-07-26T11:41:32Z</time>
      </trkpt>
      <trkpt lat="48.38402" lon="-4.51984">
        <ele>93.563</ele>
        <time>2010-07-26T11:41:37Z</time>
      </trkpt>
      <trkpt lat="48.38394" lon="-4.52031">
        <ele>94.864</ele>
        <time>2010-07-26T11:41:46Z</time>
      </trkpt>
      <trkpt lat="48.38363" lon="-4.52188">
        <ele>94.183</ele>
        <time>2010-07-26T11:42:11Z</time>
      </trkpt>
      <trkpt lat="48.38347" lon="-4.52267">
        <ele>93.379</ele>
        <time>2010-07-26T11:42:22Z</time>
      </trkpt>
      <trkpt lat="48.38332" lon="-4.52344">
        <ele>89.298</ele>
        <time>2010-07-26T11:42:31Z</time>
      </trkpt>
      <trkpt lat="48.38345" lon="-4.52373">
        <ele>89.214</ele>
        <time>2010-07-26T11:42:37Z</time>
      </trkpt>
      <trkpt lat="48.38356" lon="-4.52377">
        <ele>90.278</ele>
        <time>2010-07-26T11:42:40Z</time>
      </trkpt>
      <trkpt lat="48.38361" lon="-4.52379">
        <ele>90.937</ele>
        <time>2010-07-26T11:42:42Z</time>
      </trkpt>
      <trkpt lat="48.38359" lon="-4.52391">
        <ele>91.054</ele>
        <time>2010-07-26T11:42:45Z</time>
      </trkpt>
      <trkpt lat="48.38335" lon="-4.52497">
        <ele>93.869</ele>
        <time>2010-07-26T11:43:04Z</time>
      </trkpt>
      <trkpt lat="48.38332" lon="-4.52532">
        <ele>95.266</ele>
        <time>2010-07-26T11:43:10Z</time>
      </trkpt>
      <trkpt lat="48.38323" lon="-4.52625">
        <ele>96.82</ele>
        <time>2010-07-26T11:43:25Z</time>
      </trkpt>
      <trkpt lat="48.38313" lon="-4.5273">
        <ele>99.363</ele>
        <time>2010-07-26T11:43:41Z</time>
      </trkpt>
      <trkpt lat="48.3831" lon="-4.52766">
        <ele>99.808</ele>
        <time>2010-07-26T11:43:47Z</time>
      </trkpt>
      <trkpt lat="48.38306" lon="-4.52905">
        <ele>101.028</ele>
        <time>2010-07-26T11:44:08Z</time>
      </trkpt>
      <trkpt lat="48.38305" lon="-4.52945">
        <ele>100.915</ele>
        <time>2010-07-26T11:44:14Z</time>
      </trkpt>
      <trkpt lat="48.38302" lon="-4.531">
        <ele>99.394</ele>
        <time>2010-07-26T11:44:34Z</time>
      </trkpt>
      <trkpt lat="48.38315" lon="-4.53122">
        <ele>98.769</ele>
        <time>2010-07-26T11:44:42Z</time>
      </trkpt>
      <trkpt lat="48.38315" lon="-4.53122">
        <ele>99.128</ele>
        <time>2010-07-26T11:44:43Z</time>
      </trkpt>
      <trkpt lat="48.38327" lon="-4.53134">
        <ele>98.583</ele>
        <time>2010-07-26T11:44:48Z</time>
      </trkpt>
      <trkpt lat="48.38323" lon="-4.53139">
        <ele>98.537</ele>
        <time>2010-07-26T11:44:50Z</time>
      </trkpt>
      <trkpt lat="48.38323" lon="-4.53253">
        <ele>98.511</ele>
        <time>2010-07-26T11:45:07Z</time>
      </trkpt>
      <trkpt lat="48.38323" lon="-4.5339">
        <ele>97.883</ele>
        <time>2010-07-26T11:45:24Z</time>
      </trkpt>
      <trkpt lat="48.38323" lon="-4.53557">
        <ele>97.655</ele>
        <time>2010-07-26T11:45:45Z</time>
      </trkpt>
      <trkpt lat="48.38318" lon="-4.53605">
        <ele>98.62</ele>
        <time>2010-07-26T11:45:56Z</time>
      </trkpt>
      <trkpt lat="48.38317" lon="-4.5361">
        <ele>98.522</ele>
        <time>2010-07-26T11:45:59Z</time>
      </trkpt>
      <trkpt lat="48.38316" lon="-4.53623">
        <ele>98.342</ele>
        <time>2010-07-26T11:46:16Z</time>
      </trkpt>
      <trkpt lat="48.38314" lon="-4.53636">
        <ele>98.962</ele>
        <time>2010-07-26T11:46:19Z</time>
      </trkpt>
      <trkpt lat="48.38311" lon="-4.53655">
        <ele>98.19</ele>
        <time>2010-07-26T11:46:22Z</time>
      </trkpt>
      <trkpt lat="48.38306" lon="-4.53682">
        <ele>96.925</ele>
        <time>2010-07-26T11:46:26Z</time>
      </trkpt>
      <trkpt lat="48.38293" lon="-4.53803">
        <ele>96.425</ele>
        <time>2010-07-26T11:46:42Z</time>
      </trkpt>
      <trkpt lat="48.38293" lon="-4.53826">
        <ele>97.445</ele>
        <time>2010-07-26T11:46:49Z</time>
      </trkpt>
      <trkpt lat="48.38297" lon="-4.53851">
        <ele>97.448</ele>
        <time>2010-07-26T11:46:50Z</time>
      </trkpt>
      <trkpt lat="48.3828" lon="-4.53896">
        <ele>97.216</ele>
        <time>2010-07-26T11:46:56Z</time>
      </trkpt>
      <trkpt lat="48.38278" lon="-4.54073">
        <ele>94.248</ele>
        <time>2010-07-26T11:47:17Z</time>
      </trkpt>
      <trkpt lat="48.38275" lon="-4.54112">
        <ele>92.123</ele>
        <time>2010-07-26T11:47:21Z</time>
      </trkpt>
      <trkpt lat="48.38272" lon="-4.54165">
        <ele>90.781</ele>
        <time>2010-07-26T11:47:26Z</time>
      </trkpt>
      <trkpt lat="48.38255" lon="-4.54225">
        <ele>90.285</ele>
        <time>2010-07-26T11:47:32Z</time>
      </trkpt>
      <trkpt lat="48.38207" lon="-4.54308">
        <ele>89.478</ele>
        <time>2010-07-26T11:47:42Z</time>
      </trkpt>
      <trkpt lat="48.38202" lon="-4.54331">
        <ele>88.271</ele>
        <time>2010-07-26T11:47:44Z</time>
      </trkpt>
      <trkpt lat="48.38201" lon="-4.54354">
        <ele>87.454</ele>
        <time>2010-07-26T11:47:46Z</time>
      </trkpt>
      <trkpt lat="48.38199" lon="-4.54376">
        <ele>86.727</ele>
        <time>2010-07-26T11:47:48Z</time>
      </trkpt>
      <trkpt lat="48.38184" lon="-4.54556">
        <ele>85.469</ele>
        <time>2010-07-26T11:48:05Z</time>
      </trkpt>
      <trkpt lat="48.38178" lon="-4.54622">
        <ele>83.048</ele>
        <time>2010-07-26T11:48:11Z</time>
      </trkpt>
      <trkpt lat="48.38158" lon="-4.54655">
        <ele>83.869</ele>
        <time>2010-07-26T11:48:15Z</time>
      </trkpt>
      <trkpt lat="48.3807" lon="-4.54808">
        <ele>81.824</ele>
        <time>2010-07-26T11:48:33Z</time>
      </trkpt>
      <trkpt lat="48.38051" lon="-4.54846">
        <ele>80.602</ele>
        <time>2010-07-26T11:48:37Z</time>
      </trkpt>
      <trkpt lat="48.38001" lon="-4.54956">
        <ele>79.209</ele>
        <time>2010-07-26T11:48:49Z</time>
      </trkpt>
      <trkpt lat="48.3791" lon="-4.55132">
        <ele>81.795</ele>
        <time>2010-07-26T11:49:11Z</time>
      </trkpt>
      <trkpt lat="48.37863" lon="-4.55218">
        <ele>84.938</ele>
        <time>2010-07-26T11:49:25Z</time>
      </trkpt>
      <trkpt lat="48.37824" lon="-4.55342">
        <ele>85.619</ele>
        <time>2010-07-26T11:49:42Z</time>
      </trkpt>
      <trkpt lat="48.37783" lon="-4.55454">
        <ele>86.364</ele>
        <time>2010-07-26T11:49:57Z</time>
      </trkpt>
      <trkpt lat="48.37747" lon="-4.55607">
        <ele>86.673</ele>
        <time>2010-07-26T11:50:17Z</time>
      </trkpt>
      <trkpt lat="48.3774" lon="-4.55645">
        <ele>87.114</ele>
        <time>2010-07-26T11:50:22Z</time>
      </trkpt>
      <trkpt lat="48.37726" lon="-4.55677">
        <ele>87.889</ele>
        <time>2010-07-26T11:50:28Z</time>
      </trkpt>
      <trkpt lat="48.3771" lon="-4.55688">
        <ele>88.557</ele>
        <time>2010-07-26T11:50:32Z</time>
      </trkpt>
      <trkpt lat="48.37679" lon="-4.55731">
        <ele>86.85</ele>
        <time>2010-07-26T11:50:40Z</time>
      </trkpt>
      <trkpt lat="48.37681" lon="-4.55768">
        <ele>86.271</ele>
        <time>2010-07-26T11:50:44Z</time>
      </trkpt>
      <trkpt lat="48.37685" lon="-4.55785">
        <ele>85.599</ele>
        <time>2010-07-26T11:50:46Z</time>
      </trkpt>
      <trkpt lat="48.37693" lon="-4.55829">
        <ele>85.724</ele>
        <time>2010-07-26T11:50:51Z</time>
      </trkpt>
      <trkpt lat="48.37697" lon="-4.55867">
        <ele>84.691</ele>
        <time>2010-07-26T11:50:55Z</time>
      </trkpt>
      <trkpt lat="48.37697" lon="-4.55907">
        <ele>81.241</ele>
        <time>2010-07-26T11:51:02Z</time>
      </trkpt>
      <trkpt lat="48.3769" lon="-4.55955">
        <ele>81.689</ele>
        <time>2010-07-26T11:51:03Z</time>
      </trkpt>
      <trkpt lat="48.37685" lon="-4.55988">
        <ele>81.068</ele>
        <time>2010-07-26T11:51:06Z</time>
      </trkpt>
      <trkpt lat="48.37679" lon="-4.56023">
        <ele>82.746</ele>
        <time>2010-07-26T11:51:10Z</time>
      </trkpt>
      <trkpt lat="48.37679" lon="-4.56023">
        <ele>84.051</ele>
        <time>2010-07-26T11:51:12Z</time>
      </trkpt>
      <trkpt lat="48.37672" lon="-4.5606">
        <ele>84.791</ele>
        <time>2010-07-26T11:51:14Z</time>
      </trkpt>
      <trkpt lat="48.37644" lon="-4.56197">
        <ele>87.849</ele>
        <time>2010-07-26T11:51:32Z</time>
      </trkpt>
      <trkpt lat="48.37598" lon="-4.56325">
        <ele>89.719</ele>
        <time>2010-07-26T11:51:50Z</time>
      </trkpt>
      <trkpt lat="48.37549" lon="-4.56456">
        <ele>91.167</ele>
        <time>2010-07-26T11:52:09Z</time>
      </trkpt>
      <trkpt lat="48.37542" lon="-4.56482">
        <ele>91.452</ele>
        <time>2010-07-26T11:52:13Z</time>
      </trkpt>
      <trkpt lat="48.37539" lon="-4.56503">
        <ele>90.603</ele>
        <time>2010-07-26T11:52:16Z</time>
      </trkpt>
      <trkpt lat="48.37514" lon="-4.56643">
        <ele>90.412</ele>
        <time>2010-07-26T11:52:33Z</time>
      </trkpt>
      <trkpt lat="48.37513" lon="-4.56692">
        <ele>91.497</ele>
        <time>2010-07-26T11:52:40Z</time>
      </trkpt>
      <trkpt lat="48.37512" lon="-4.56709">
        <ele>90.999</ele>
        <time>2010-07-26T11:52:46Z</time>
      </trkpt>
      <trkpt lat="48.3755" lon="-4.56721">
        <ele>90.475</ele>
        <time>2010-07-26T11:52:54Z</time>
      </trkpt>
      <trkpt lat="48.37554" lon="-4.56722">
        <ele>90.255</ele>
        <time>2010-07-26T11:52:55Z</time>
      </trkpt>
      <trkpt lat="48.37576" lon="-4.56735">
        <ele>90.175</ele>
        <time>2010-07-26T11:53:00Z</time>
      </trkpt>
      <trkpt lat="48.37608" lon="-4.56758">
        <ele>88.846</ele>
        <time>2010-07-26T11:53:06Z</time>
      </trkpt>
      <trkpt lat="48.37682" lon="-4.56758">
        <ele>87.677</ele>
        <time>2010-07-26T11:53:17Z</time>
      </trkpt>
      <trkpt lat="48.37702" lon="-4.56754">
        <ele>86.431</ele>
        <time>2010-07-26T11:53:20Z</time>
      </trkpt>
      <trkpt lat="48.3779" lon="-4.56748">
        <ele>82.945</ele>
        <time>2010-07-26T11:53:32Z</time>
      </trkpt>
      <trkpt lat="48.37856" lon="-4.56746">
        <ele>78.533</ele>
        <time>2010-07-26T11:53:40Z</time>
      </trkpt>
      <trkpt lat="48.37898" lon="-4.5674">
        <ele>77.16</ele>
        <time>2010-07-26T11:53:45Z</time>
      </trkpt>
      <trkpt lat="48.3793" lon="-4.56784">
        <ele>77.133</ele>
        <time>2010-07-26T11:53:51Z</time>
      </trkpt>
      <trkpt lat="48.37934" lon="-4.56793">
        <ele>77.229</ele>
        <time>2010-07-26T11:53:52Z</time>
      </trkpt>
      <trkpt lat="48.37959" lon="-4.56948">
        <ele>78.375</ele>
        <time>2010-07-26T11:54:08Z</time>
      </trkpt>
      <trkpt lat="48.37969" lon="-4.56994">
        <ele>77.465</ele>
        <time>2010-07-26T11:54:13Z</time>
      </trkpt>
      <trkpt lat="48.37988" lon="-4.57063">
        <ele>76.096</ele>
        <time>2010-07-26T11:54:20Z</time>
      </trkpt>
      <trkpt lat="48.38019" lon="-4.5711">
        <ele>74.272</ele>
        <time>2010-07-26T11:54:26Z</time>
      </trkpt>
      <trkpt lat="48.38032" lon="-4.57124">
        <ele>72.834</ele>
        <time>2010-07-26T11:54:28Z</time>
      </trkpt>
      <trkpt lat="48.38055" lon="-4.57162">
        <ele>70.486</ele>
        <time>2010-07-26T11:54:32Z</time>
      </trkpt>
      <trkpt lat="48.38066" lon="-4.57197">
        <ele>70.197</ele>
        <time>2010-07-26T11:54:35Z</time>
      </trkpt>
      <trkpt lat="48.38072" lon="-4.57322">
        <ele>71.476</ele>
        <time>2010-07-26T11:54:46Z</time>
      </trkpt>
      <trkpt lat="48.38077" lon="-4.57486">
        <ele>71.612</ele>
        <time>2010-07-26T11:55:02Z</time>
      </trkpt>
      <trkpt lat="48.38085" lon="-4.57546">
        <ele>71.114</ele>
        <time>2010-07-26T11:55:08Z</time>
      </trkpt>
      <trkpt lat="48.3811" lon="-4.57607">
        <ele>68.976</ele>
        <time>2010-07-26T11:55:18Z</time>
      </trkpt>
      <trkpt lat="48.38115" lon="-4.57606">
        <ele>68.305</ele>
        <time>2010-07-26T11:55:19Z</time>
      </trkpt>
      <trkpt lat="48.38147" lon="-4.57595">
        <ele>64.801</ele>
        <time>2010-07-26T11:55:24Z</time>
      </trkpt>
      <trkpt lat="48.38194" lon="-4.57589">
        <ele>60.905</ele>
        <time>2010-07-26T11:55:30Z</time>
      </trkpt>
      <trkpt lat="48.38221" lon="-4.57589">
        <ele>59.261</ele>
        <time>2010-07-26T11:55:33Z</time>
      </trkpt>
      <trkpt lat="48.38304" lon="-4.57601">
        <ele>56.086</ele>
        <time>2010-07-26T11:55:42Z</time>
      </trkpt>
      <trkpt lat="48.38378" lon="-4.57613">
        <ele>54.603</ele>
        <time>2010-07-26T11:55:51Z</time>
      </trkpt>
      <trkpt lat="48.38478" lon="-4.57602">
        <ele>52.45</ele>
        <time>2010-07-26T11:56:07Z</time>
      </trkpt>
      <trkpt lat="48.386" lon="-4.57554">
        <ele>52.023</ele>
        <time>2010-07-26T11:56:21Z</time>
      </trkpt>
      <trkpt lat="48.38611" lon="-4.57551">
        <ele>50.173</ele>
        <time>2010-07-26T11:56:25Z</time>
      </trkpt>
      <trkpt lat="48.38718" lon="-4.57508">
        <ele>47.911</ele>
        <time>2010-07-26T11:56:37Z</time>
      </trkpt>
      <trkpt lat="48.3892" lon="-4.57429">
        <ele>46.921</ele>
        <time>2010-07-26T11:57:05Z</time>
      </trkpt>
      <trkpt lat="48.39046" lon="-4.5739">
        <ele>44.436</ele>
        <time>2010-07-26T11:57:23Z</time>
      </trkpt>
      <trkpt lat="48.39061" lon="-4.57387">
        <ele>46.458</ele>
        <time>2010-07-26T11:57:25Z</time>
      </trkpt>
      <trkpt lat="48.39082" lon="-4.57383">
        <ele>44.904</ele>
        <time>2010-07-26T11:57:28Z</time>
      </trkpt>
      <trkpt lat="48.39124" lon="-4.57374">
        <ele>43.751</ele>
        <time>2010-07-26T11:57:34Z</time>
      </trkpt>
      <trkpt lat="48.39327" lon="-4.57332">
        <ele>44.058</ele>
        <time>2010-07-26T11:58:03Z</time>
      </trkpt>
      <trkpt lat="48.39418" lon="-4.57293">
        <ele>42.914</ele>
        <time>2010-07-26T11:58:18Z</time>
      </trkpt>
      <trkpt lat="48.3953" lon="-4.57227">
        <ele>42.361</ele>
        <time>2010-07-26T11:58:34Z</time>
      </trkpt>
      <trkpt lat="48.39682" lon="-4.57205">
        <ele>41.823</ele>
        <time>2010-07-26T11:58:56Z</time>
      </trkpt>
      <trkpt lat="48.39781" lon="-4.57167">
        <ele>40.973</ele>
        <time>2010-07-26T11:59:11Z</time>
      </trkpt>
      <trkpt lat="48.39858" lon="-4.57133">
        <ele>44.7</ele>
        <time>2010-07-26T11:59:23Z</time>
      </trkpt>
      <trkpt lat="48.3998" lon="-4.57063">
        <ele>44.941</ele>
        <time>2010-07-26T11:59:43Z</time>
      </trkpt>
      <trkpt lat="48.40107" lon="-4.56968">
        <ele>46.655</ele>
        <time>2010-07-26T12:00:07Z</time>
      </trkpt>
      <trkpt lat="48.40152" lon="-4.56932">
        <ele>49.773</ele>
        <time>2010-07-26T12:00:19Z</time>
      </trkpt>
      <trkpt lat="48.4021" lon="-4.5687">
        <ele>52.881</ele>
        <time>2010-07-26T12:00:37Z</time>
      </trkpt>
      <trkpt lat="48.40261" lon="-4.56814">
        <ele>55.954</ele>
        <time>2010-07-26T12:00:53Z</time>
      </trkpt>
      <trkpt lat="48.40357" lon="-4.56724">
        <ele>57.547</ele>
        <time>2010-07-26T12:01:20Z</time>
      </trkpt>
      <trkpt lat="48.40425" lon="-4.56688">
        <ele>60.635</ele>
        <time>2010-07-26T12:01:38Z</time>
      </trkpt>
      <trkpt lat="48.40472" lon="-4.56658">
        <ele>63.745</ele>
        <time>2010-07-26T12:01:51Z</time>
      </trkpt>
      <trkpt lat="48.40523" lon="-4.56617">
        <ele>65.537</ele>
        <time>2010-07-26T12:02:05Z</time>
      </trkpt>
      <trkpt lat="48.40593" lon="-4.56522">
        <ele>65.18</ele>
        <time>2010-07-26T12:02:24Z</time>
      </trkpt>
      <trkpt lat="48.40722" lon="-4.56403">
        <ele>62.149</ele>
        <time>2010-07-26T12:02:47Z</time>
      </trkpt>
      <trkpt lat="48.40853" lon="-4.56282">
        <ele>63.448</ele>
        <time>2010-07-26T12:03:11Z</time>
      </trkpt>
      <trkpt lat="48.40983" lon="-4.56165">
        <ele>66.052</ele>
        <time>2010-07-26T12:03:39Z</time>
      </trkpt>
      <trkpt lat="48.40999" lon="-4.56151">
        <ele>67.817</ele>
        <time>2010-07-26T12:03:43Z</time>
      </trkpt>
      <trkpt lat="48.41056" lon="-4.56103">
        <ele>70.795</ele>
        <time>2010-07-26T12:03:58Z</time>
      </trkpt>
      <trkpt lat="48.41109" lon="-4.5607">
        <ele>73.873</ele>
        <time>2010-07-26T12:04:13Z</time>
      </trkpt>
      <trkpt lat="48.41138" lon="-4.56068">
        <ele>75.339</ele>
        <time>2010-07-26T12:04:21Z</time>
      </trkpt>
      <trkpt lat="48.41186" lon="-4.56045">
        <ele>77.967</ele>
        <time>2010-07-26T12:04:36Z</time>
      </trkpt>
      <trkpt lat="48.4119" lon="-4.5604">
        <ele>78.007</ele>
        <time>2010-07-26T12:04:37Z</time>
      </trkpt>
      <trkpt lat="48.41206" lon="-4.56049">
        <ele>77.838</ele>
        <time>2010-07-26T12:04:42Z</time>
      </trkpt>
      <trkpt lat="48.41213" lon="-4.56054">
        <ele>77.526</ele>
        <time>2010-07-26T12:04:44Z</time>
      </trkpt>
      <trkpt lat="48.41234" lon="-4.56066">
        <ele>77.816</ele>
        <time>2010-07-26T12:04:49Z</time>
      </trkpt>
      <trkpt lat="48.41243" lon="-4.56069">
        <ele>79.019</ele>
        <time>2010-07-26T12:04:51Z</time>
      </trkpt>
      <trkpt lat="48.41269" lon="-4.56072">
        <ele>79.49</ele>
        <time>2010-07-26T12:04:57Z</time>
      </trkpt>
      <trkpt lat="48.41363" lon="-4.56035">
        <ele>78.513</ele>
        <time>2010-07-26T12:05:16Z</time>
      </trkpt>
      <trkpt lat="48.41417" lon="-4.56011">
        <ele>75.429</ele>
        <time>2010-07-26T12:05:25Z</time>
      </trkpt>
      <trkpt lat="48.41439" lon="-4.56002">
        <ele>73.414</ele>
        <time>2010-07-26T12:05:28Z</time>
      </trkpt>
      <trkpt lat="48.41512" lon="-4.55979">
        <ele>69.804</ele>
        <time>2010-07-26T12:05:37Z</time>
      </trkpt>
      <trkpt lat="48.416" lon="-4.55952">
        <ele>67.312</ele>
        <time>2010-07-26T12:05:47Z</time>
      </trkpt>
      <trkpt lat="48.41688" lon="-4.55922">
        <ele>68.441</ele>
        <time>2010-07-26T12:06:00Z</time>
      </trkpt>
      <trkpt lat="48.41702" lon="-4.5592">
        <ele>69.374</ele>
        <time>2010-07-26T12:06:03Z</time>
      </trkpt>
      <trkpt lat="48.41759" lon="-4.55929">
        <ele>71.271</ele>
        <time>2010-07-26T12:06:15Z</time>
      </trkpt>
      <trkpt lat="48.41777" lon="-4.55932">
        <ele>72.105</ele>
        <time>2010-07-26T12:06:19Z</time>
      </trkpt>
      <trkpt lat="48.41782" lon="-4.55933">
        <ele>72.34</ele>
        <time>2010-07-26T12:06:23Z</time>
      </trkpt>
      <trkpt lat="48.41832" lon="-4.55936">
        <ele>75.756</ele>
        <time>2010-07-26T12:06:34Z</time>
      </trkpt>
      <trkpt lat="48.41875" lon="-4.55931">
        <ele>78.828</ele>
        <time>2010-07-26T12:06:47Z</time>
      </trkpt>
      <trkpt lat="48.41913" lon="-4.55925">
        <ele>82.231</ele>
        <time>2010-07-26T12:06:59Z</time>
      </trkpt>
      <trkpt lat="48.41968" lon="-4.55903">
        <ele>85.392</ele>
        <time>2010-07-26T12:07:13Z</time>
      </trkpt>
      <trkpt lat="48.42016" lon="-4.55887">
        <ele>85.627</ele>
        <time>2010-07-26T12:07:28Z</time>
      </trkpt>
      <trkpt lat="48.42094" lon="-4.55855">
        <ele>86.828</ele>
        <time>2010-07-26T12:07:48Z</time>
      </trkpt>
      <trkpt lat="48.42094" lon="-4.55855">
        <ele>87.449</ele>
        <time>2010-07-26T12:08:00Z</time>
      </trkpt>
      <trkpt lat="48.42116" lon="-4.55848">
        <ele>87.056</ele>
        <time>2010-07-26T12:08:16Z</time>
      </trkpt>
      <trkpt lat="48.42198" lon="-4.55838">
        <ele>85.266</ele>
        <time>2010-07-26T12:08:32Z</time>
      </trkpt>
      <trkpt lat="48.42316" lon="-4.55861">
        <ele>85.664</ele>
        <time>2010-07-26T12:08:54Z</time>
      </trkpt>
      <trkpt lat="48.42349" lon="-4.55868">
        <ele>87.89</ele>
        <time>2010-07-26T12:09:01Z</time>
      </trkpt>
      <trkpt lat="48.42407" lon="-4.55877">
        <ele>88.482</ele>
        <time>2010-07-26T12:09:14Z</time>
      </trkpt>
      <trkpt lat="48.42425" lon="-4.55879">
        <ele>90.204</ele>
        <time>2010-07-26T12:09:18Z</time>
      </trkpt>
      <trkpt lat="48.42435" lon="-4.55881">
        <ele>89.553</ele>
        <time>2010-07-26T12:09:20Z</time>
      </trkpt>
      <trkpt lat="48.42452" lon="-4.55868">
        <ele>90.525</ele>
        <time>2010-07-26T12:09:27Z</time>
      </trkpt>
      <trkpt lat="48.42447" lon="-4.55833">
        <ele>91.043</ele>
        <time>2010-07-26T12:09:31Z</time>
      </trkpt>
      <trkpt lat="48.42466" lon="-4.5584">
        <ele>89.036</ele>
        <time>2010-07-26T12:09:36Z</time>
      </trkpt>
      <trkpt lat="48.4248" lon="-4.55857">
        <ele>89.681</ele>
        <time>2010-07-26T12:09:40Z</time>
      </trkpt>
      <trkpt lat="48.42507" lon="-4.55894">
        <ele>88.961</ele>
        <time>2010-07-26T12:09:49Z</time>
      </trkpt>
      <trkpt lat="48.42534" lon="-4.55913">
        <ele>88.714</ele>
        <time>2010-07-26T12:09:53Z</time>
      </trkpt>
      <trkpt lat="48.42555" lon="-4.55915">
        <ele>89.524</ele>
        <time>2010-07-26T12:09:57Z</time>
      </trkpt>
      <trkpt lat="48.42582" lon="-4.55937">
        <ele>88.055</ele>
        <time>2010-07-26T12:10:02Z</time>
      </trkpt>
      <trkpt lat="48.42646" lon="-4.55953">
        <ele>88.392</ele>
        <time>2010-07-26T12:10:12Z</time>
      </trkpt>
      <trkpt lat="48.42753" lon="-4.56007">
        <ele>86.897</ele>
        <time>2010-07-26T12:10:29Z</time>
      </trkpt>
      <trkpt lat="48.42779" lon="-4.5605">
        <ele>86.547</ele>
        <time>2010-07-26T12:10:35Z</time>
      </trkpt>
      <trkpt lat="48.42791" lon="-4.56114">
        <ele>87.376</ele>
        <time>2010-07-26T12:10:42Z</time>
      </trkpt>
      <trkpt lat="48.42809" lon="-4.56144">
        <ele>87.625</ele>
        <time>2010-07-26T12:10:47Z</time>
      </trkpt>
      <trkpt lat="48.42825" lon="-4.56152">
        <ele>87.986</ele>
        <time>2010-07-26T12:10:50Z</time>
      </trkpt>
      <trkpt lat="48.42884" lon="-4.56182">
        <ele>88.634</ele>
        <time>2010-07-26T12:11:01Z</time>
      </trkpt>
      <trkpt lat="48.42921" lon="-4.56154">
        <ele>88.524</ele>
        <time>2010-07-26T12:11:09Z</time>
      </trkpt>
      <trkpt lat="48.42969" lon="-4.56015">
        <ele>87.023</ele>
        <time>2010-07-26T12:11:25Z</time>
      </trkpt>
      <trkpt lat="48.42992" lon="-4.56018">
        <ele>86.996</ele>
        <time>2010-07-26T12:11:31Z</time>
      </trkpt>
      <trkpt lat="48.43022" lon="-4.55998">
        <ele>86.788</ele>
        <time>2010-07-26T12:11:34Z</time>
      </trkpt>
      <trkpt lat="48.43062" lon="-4.55971">
        <ele>86.104</ele>
        <time>2010-07-26T12:11:41Z</time>
      </trkpt>
      <trkpt lat="48.43175" lon="-4.55957">
        <ele>86.616</ele>
        <time>2010-07-26T12:12:00Z</time>
      </trkpt>
      <trkpt lat="48.43186" lon="-4.55958">
        <ele>87.326</ele>
        <time>2010-07-26T12:12:02Z</time>
      </trkpt>
      <trkpt lat="48.43287" lon="-4.55986">
        <ele>88.144</ele>
        <time>2010-07-26T12:12:20Z</time>
      </trkpt>
      <trkpt lat="48.43326" lon="-4.55984">
        <ele>88.09</ele>
        <time>2010-07-26T12:12:27Z</time>
      </trkpt>
      <trkpt lat="48.43408" lon="-4.55935">
        <ele>88.289</ele>
        <time>2010-07-26T12:12:41Z</time>
      </trkpt>
      <trkpt lat="48.43466" lon="-4.55886">
        <ele>87.474</ele>
        <time>2010-07-26T12:12:51Z</time>
      </trkpt>
      <trkpt lat="48.43537" lon="-4.55791">
        <ele>84.253</ele>
        <time>2010-07-26T12:13:06Z</time>
      </trkpt>
      <trkpt lat="48.43622" lon="-4.55631">
        <ele>85.203</ele>
        <time>2010-07-26T12:13:26Z</time>
      </trkpt>
      <trkpt lat="48.43698" lon="-4.55433">
        <ele>83.878</ele>
        <time>2010-07-26T12:13:49Z</time>
      </trkpt>
      <trkpt lat="48.43748" lon="-4.55163">
        <ele>83.88</ele>
        <time>2010-07-26T12:14:16Z</time>
      </trkpt>
      <trkpt lat="48.43765" lon="-4.5506">
        <ele>82.096</ele>
        <time>2010-07-26T12:14:26Z</time>
      </trkpt>
      <trkpt lat="48.4377" lon="-4.55016">
        <ele>80.31</ele>
        <time>2010-07-26T12:14:30Z</time>
      </trkpt>
      <trkpt lat="48.43762" lon="-4.54887">
        <ele>79.928</ele>
        <time>2010-07-26T12:14:42Z</time>
      </trkpt>
      <trkpt lat="48.43733" lon="-4.54774">
        <ele>78.071</ele>
        <time>2010-07-26T12:14:54Z</time>
      </trkpt>
      <trkpt lat="48.43743" lon="-4.54729">
        <ele>77.016</ele>
        <time>2010-07-26T12:15:00Z</time>
      </trkpt>
      <trkpt lat="48.43775" lon="-4.54675">
        <ele>79.869</ele>
        <time>2010-07-26T12:15:09Z</time>
      </trkpt>
      <trkpt lat="48.4378" lon="-4.54664">
        <ele>80.881</ele>
        <time>2010-07-26T12:15:11Z</time>
      </trkpt>
      <trkpt lat="48.43784" lon="-4.54653">
        <ele>81.92</ele>
        <time>2010-07-26T12:15:13Z</time>
      </trkpt>
      <trkpt lat="48.43804" lon="-4.54591">
        <ele>85.005</ele>
        <time>2010-07-26T12:15:23Z</time>
      </trkpt>
      <trkpt lat="48.43829" lon="-4.54544">
        <ele>87.567</ele>
        <time>2010-07-26T12:15:36Z</time>
      </trkpt>
      <trkpt lat="48.43831" lon="-4.54541">
        <ele>87.712</ele>
        <time>2010-07-26T12:15:41Z</time>
      </trkpt>
      <trkpt lat="48.43851" lon="-4.54568">
        <ele>86.303</ele>
        <time>2010-07-26T12:15:51Z</time>
      </trkpt>
      <trkpt lat="48.43851" lon="-4.54568">
        <ele>85.272</ele>
        <time>2010-07-26T12:15:53Z</time>
      </trkpt>
      <trkpt lat="48.43934" lon="-4.54674">
        <ele>83.119</ele>
        <time>2010-07-26T12:16:11Z</time>
      </trkpt>
      <trkpt lat="48.44049" lon="-4.54777">
        <ele>80.405</ele>
        <time>2010-07-26T12:16:33Z</time>
      </trkpt>
      <trkpt lat="48.44118" lon="-4.54835">
        <ele>81.166</ele>
        <time>2010-07-26T12:16:45Z</time>
      </trkpt>
      <trkpt lat="48.44238" lon="-4.54935">
        <ele>82.167</ele>
        <time>2010-07-26T12:17:09Z</time>
      </trkpt>
      <trkpt lat="48.44332" lon="-4.55014">
        <ele>85.458</ele>
        <time>2010-07-26T12:17:32Z</time>
      </trkpt>
      <trkpt lat="48.44336" lon="-4.55017">
        <ele>85.427</ele>
        <time>2010-07-26T12:17:33Z</time>
      </trkpt>
      <trkpt lat="48.44464" lon="-4.55119">
        <ele>88.36</ele>
        <time>2010-07-26T12:18:06Z</time>
      </trkpt>
      <trkpt lat="48.4455" lon="-4.55183">
        <ele>91.502</ele>
        <time>2010-07-26T12:18:29Z</time>
      </trkpt>
      <trkpt lat="48.4466" lon="-4.55256">
        <ele>94.812</ele>
        <time>2010-07-26T12:18:59Z</time>
      </trkpt>
      <trkpt lat="48.44664" lon="-4.55257">
        <ele>94.728</ele>
        <time>2010-07-26T12:19:00Z</time>
      </trkpt>
      <trkpt lat="48.4467" lon="-4.55259">
        <ele>95.316</ele>
        <time>2010-07-26T12:19:04Z</time>
      </trkpt>
      <trkpt lat="48.44688" lon="-4.55246">
        <ele>94.425</ele>
        <time>2010-07-26T12:19:06Z</time>
      </trkpt>
      <trkpt lat="48.44713" lon="-4.55285">
        <ele>95.302</ele>
        <time>2010-07-26T12:19:15Z</time>
      </trkpt>
      <trkpt lat="48.44712" lon="-4.55297">
        <ele>95.139</ele>
        <time>2010-07-26T12:19:17Z</time>
      </trkpt>
      <trkpt lat="48.44787" lon="-4.55412">
        <ele>92.476</ele>
        <time>2010-07-26T12:19:35Z</time>
      </trkpt>
      <trkpt lat="48.4488" lon="-4.55509">
        <ele>89.162</ele>
        <time>2010-07-26T12:19:52Z</time>
      </trkpt>
      <trkpt lat="48.45002" lon="-4.55589">
        <ele>90.245</ele>
        <time>2010-07-26T12:20:12Z</time>
      </trkpt>
      <trkpt lat="48.45159" lon="-4.55667">
        <ele>88.841</ele>
        <time>2010-07-26T12:20:38Z</time>
      </trkpt>
      <trkpt lat="48.45357" lon="-4.55762">
        <ele>88.12</ele>
        <time>2010-07-26T12:21:10Z</time>
      </trkpt>
      <trkpt lat="48.45521" lon="-4.55822">
        <ele>90.719</ele>
        <time>2010-07-26T12:21:40Z</time>
      </trkpt>
      <trkpt lat="48.4569" lon="-4.55863">
        <ele>91.268</ele>
        <time>2010-07-26T12:22:12Z</time>
      </trkpt>
      <trkpt lat="48.45815" lon="-4.5588">
        <ele>92.399</ele>
        <time>2010-07-26T12:22:33Z</time>
      </trkpt>
      <trkpt lat="48.45973" lon="-4.55877">
        <ele>90.133</ele>
        <time>2010-07-26T12:22:57Z</time>
      </trkpt>
      <trkpt lat="48.46099" lon="-4.55908">
        <ele>87.813</ele>
        <time>2010-07-26T12:23:16Z</time>
      </trkpt>
      <trkpt lat="48.46128" lon="-4.55928">
        <ele>88.483</ele>
        <time>2010-07-26T12:23:21Z</time>
      </trkpt>
      <trkpt lat="48.46227" lon="-4.56032">
        <ele>87.441</ele>
        <time>2010-07-26T12:23:39Z</time>
      </trkpt>
      <trkpt lat="48.46266" lon="-4.56091">
        <ele>84.682</ele>
        <time>2010-07-26T12:23:47Z</time>
      </trkpt>
      <trkpt lat="48.46308" lon="-4.56167">
        <ele>82.59</ele>
        <time>2010-07-26T12:23:56Z</time>
      </trkpt>
      <trkpt lat="48.46349" lon="-4.56236">
        <ele>79.494</ele>
        <time>2010-07-26T12:24:04Z</time>
      </trkpt>
      <trkpt lat="48.46371" lon="-4.56272">
        <ele>78.566</ele>
        <time>2010-07-26T12:24:08Z</time>
      </trkpt>
      <trkpt lat="48.46464" lon="-4.56363">
        <ele>78.166</ele>
        <time>2010-07-26T12:24:22Z</time>
      </trkpt>
      <trkpt lat="48.46514" lon="-4.56391">
        <ele>80.086</ele>
        <time>2010-07-26T12:24:30Z</time>
      </trkpt>
      <trkpt lat="48.46537" lon="-4.56399">
        <ele>81.484</ele>
        <time>2010-07-26T12:24:34Z</time>
      </trkpt>
      <trkpt lat="48.46583" lon="-4.56416">
        <ele>82.574</ele>
        <time>2010-07-26T12:24:42Z</time>
      </trkpt>
      <trkpt lat="48.46665" lon="-4.56446">
        <ele>82.942</ele>
        <time>2010-07-26T12:24:57Z</time>
      </trkpt>
      <trkpt lat="48.46693" lon="-4.56488">
        <ele>80.682</ele>
        <time>2010-07-26T12:25:04Z</time>
      </trkpt>
      <trkpt lat="48.46706" lon="-4.56502">
        <ele>82.017</ele>
        <time>2010-07-26T12:25:07Z</time>
      </trkpt>
      <trkpt lat="48.46705" lon="-4.56549">
        <ele>83.76</ele>
        <time>2010-07-26T12:25:14Z</time>
      </trkpt>
      <trkpt lat="48.46652" lon="-4.56636">
        <ele>84.966</ele>
        <time>2010-07-26T12:25:27Z</time>
      </trkpt>
      <trkpt lat="48.46591" lon="-4.56784">
        <ele>85.18</ele>
        <time>2010-07-26T12:25:46Z</time>
      </trkpt>
      <trkpt lat="48.46585" lon="-4.568">
        <ele>85.986</ele>
        <time>2010-07-26T12:25:48Z</time>
      </trkpt>
      <trkpt lat="48.46576" lon="-4.56823">
        <ele>86.522</ele>
        <time>2010-07-26T12:25:51Z</time>
      </trkpt>
      <trkpt lat="48.46535" lon="-4.56909">
        <ele>87.784</ele>
        <time>2010-07-26T12:26:05Z</time>
      </trkpt>
      <trkpt lat="48.46524" lon="-4.56933">
        <ele>87.681</ele>
        <time>2010-07-26T12:26:10Z</time>
      </trkpt>
      <trkpt lat="48.46519" lon="-4.5696">
        <ele>87.934</ele>
        <time>2010-07-26T12:26:14Z</time>
      </trkpt>
      <trkpt lat="48.46495" lon="-4.57113">
        <ele>86.398</ele>
        <time>2010-07-26T12:26:31Z</time>
      </trkpt>
      <trkpt lat="48.46477" lon="-4.57203">
        <ele>86.491</ele>
        <time>2010-07-26T12:26:41Z</time>
      </trkpt>
      <trkpt lat="48.46394" lon="-4.57332">
        <ele>84.139</ele>
        <time>2010-07-26T12:26:58Z</time>
      </trkpt>
      <trkpt lat="48.4635" lon="-4.57437">
        <ele>83.801</ele>
        <time>2010-07-26T12:27:09Z</time>
      </trkpt>
      <trkpt lat="48.46331" lon="-4.57484">
        <ele>82.957</ele>
        <time>2010-07-26T12:27:14Z</time>
      </trkpt>
      <trkpt lat="48.46256" lon="-4.57662">
        <ele>85.234</ele>
        <time>2010-07-26T12:27:35Z</time>
      </trkpt>
      <trkpt lat="48.46249" lon="-4.57677">
        <ele>86.439</ele>
        <time>2010-07-26T12:27:37Z</time>
      </trkpt>
      <trkpt lat="48.46194" lon="-4.57813">
        <ele>85.202</ele>
        <time>2010-07-26T12:27:53Z</time>
      </trkpt>
      <trkpt lat="48.46181" lon="-4.57847">
        <ele>84.039</ele>
        <time>2010-07-26T12:27:57Z</time>
      </trkpt>
      <trkpt lat="48.46162" lon="-4.58013">
        <ele>84.994</ele>
        <time>2010-07-26T12:28:13Z</time>
      </trkpt>
      <trkpt lat="48.46149" lon="-4.58141">
        <ele>86.66</ele>
        <time>2010-07-26T12:28:28Z</time>
      </trkpt>
      <trkpt lat="48.46149" lon="-4.58156">
        <ele>87.29</ele>
        <time>2010-07-26T12:28:30Z</time>
      </trkpt>
      <trkpt lat="48.46147" lon="-4.5821">
        <ele>88.18</ele>
        <time>2010-07-26T12:28:37Z</time>
      </trkpt>
      <trkpt lat="48.46147" lon="-4.58237">
        <ele>88.247</ele>
        <time>2010-07-26T12:28:41Z</time>
      </trkpt>
      <trkpt lat="48.46223" lon="-4.58338">
        <ele>85.711</ele>
        <time>2010-07-26T12:28:56Z</time>
      </trkpt>
      <trkpt lat="48.46233" lon="-4.58351">
        <ele>85.058</ele>
        <time>2010-07-26T12:28:58Z</time>
      </trkpt>
      <trkpt lat="48.46349" lon="-4.58522">
        <ele>84.144</ele>
        <time>2010-07-26T12:29:21Z</time>
      </trkpt>
      <trkpt lat="48.46491" lon="-4.58759">
        <ele>84.969</ele>
        <time>2010-07-26T12:29:55Z</time>
      </trkpt>
      <trkpt lat="48.46619" lon="-4.58973">
        <ele>84.034</ele>
        <time>2010-07-26T12:30:23Z</time>
      </trkpt>
      <trkpt lat="48.46696" lon="-4.59104">
        <ele>85.512</ele>
        <time>2010-07-26T12:30:44Z</time>
      </trkpt>
      <trkpt lat="48.46788" lon="-4.59268">
        <ele>84.009</ele>
        <time>2010-07-26T12:31:06Z</time>
      </trkpt>
      <trkpt lat="48.46875" lon="-4.59459">
        <ele>83.272</ele>
        <time>2010-07-26T12:31:29Z</time>
      </trkpt>
      <trkpt lat="48.4697" lon="-4.59672">
        <ele>84.871</ele>
        <time>2010-07-26T12:31:56Z</time>
      </trkpt>
      <trkpt lat="48.47012" lon="-4.59843">
        <ele>85.905</ele>
        <time>2010-07-26T12:32:18Z</time>
      </trkpt>
      <trkpt lat="48.47029" lon="-4.60018">
        <ele>87.661</ele>
        <time>2010-07-26T12:32:39Z</time>
      </trkpt>
      <trkpt lat="48.47054" lon="-4.60199">
        <ele>88.429</ele>
        <time>2010-07-26T12:33:00Z</time>
      </trkpt>
      <trkpt lat="48.47065" lon="-4.60337">
        <ele>91.739</ele>
        <time>2010-07-26T12:33:18Z</time>
      </trkpt>
      <trkpt lat="48.47068" lon="-4.60492">
        <ele>91.077</ele>
        <time>2010-07-26T12:33:37Z</time>
      </trkpt>
      <trkpt lat="48.47108" lon="-4.6063">
        <ele>88.857</ele>
        <time>2010-07-26T12:33:52Z</time>
      </trkpt>
      <trkpt lat="48.47144" lon="-4.60715">
        <ele>85.655</ele>
        <time>2010-07-26T12:34:01Z</time>
      </trkpt>
      <trkpt lat="48.47173" lon="-4.60786">
        <ele>84.207</ele>
        <time>2010-07-26T12:34:08Z</time>
      </trkpt>
      <trkpt lat="48.4721" lon="-4.60934">
        <ele>87.259</ele>
        <time>2010-07-26T12:34:23Z</time>
      </trkpt>
      <trkpt lat="48.47236" lon="-4.61103">
        <ele>89.573</ele>
        <time>2010-07-26T12:34:43Z</time>
      </trkpt>
      <trkpt lat="48.47254" lon="-4.61295">
        <ele>89.32</ele>
        <time>2010-07-26T12:35:05Z</time>
      </trkpt>
      <trkpt lat="48.47257" lon="-4.61453">
        <ele>87.588</ele>
        <time>2010-07-26T12:35:21Z</time>
      </trkpt>
      <trkpt lat="48.47211" lon="-4.61553">
        <ele>88.068</ele>
        <time>2010-07-26T12:35:33Z</time>
      </trkpt>
      <trkpt lat="48.47121" lon="-4.61691">
        <ele>89.109</ele>
        <time>2010-07-26T12:35:53Z</time>
      </trkpt>
      <trkpt lat="48.47088" lon="-4.61804">
        <ele>90.657</ele>
        <time>2010-07-26T12:36:07Z</time>
      </trkpt>
      <trkpt lat="48.47095" lon="-4.61936">
        <ele>91.66</ele>
        <time>2010-07-26T12:36:23Z</time>
      </trkpt>
      <trkpt lat="48.47096" lon="-4.61952">
        <ele>92.401</ele>
        <time>2010-07-26T12:36:25Z</time>
      </trkpt>
      <trkpt lat="48.47103" lon="-4.62136">
        <ele>93.027</ele>
        <time>2010-07-26T12:36:47Z</time>
      </trkpt>
      <trkpt lat="48.47127" lon="-4.62322">
        <ele>92.772</ele>
        <time>2010-07-26T12:37:07Z</time>
      </trkpt>
      <trkpt lat="48.47152" lon="-4.62487">
        <ele>95.634</ele>
        <time>2010-07-26T12:37:27Z</time>
      </trkpt>
      <trkpt lat="48.47171" lon="-4.62622">
        <ele>97.037</ele>
        <time>2010-07-26T12:37:46Z</time>
      </trkpt>
      <trkpt lat="48.47168" lon="-4.62681">
        <ele>96.403</ele>
        <time>2010-07-26T12:37:53Z</time>
      </trkpt>
      <trkpt lat="48.47119" lon="-4.62805">
        <ele>96.335</ele>
        <time>2010-07-26T12:38:08Z</time>
      </trkpt>
      <trkpt lat="48.47107" lon="-4.62945">
        <ele>94.921</ele>
        <time>2010-07-26T12:38:22Z</time>
      </trkpt>
      <trkpt lat="48.47101" lon="-4.6309">
        <ele>91.91</ele>
        <time>2010-07-26T12:38:36Z</time>
      </trkpt>
      <trkpt lat="48.47097" lon="-4.63184">
        <ele>91.388</ele>
        <time>2010-07-26T12:38:45Z</time>
      </trkpt>
      <trkpt lat="48.47094" lon="-4.63354">
        <ele>90.882</ele>
        <time>2010-07-26T12:39:01Z</time>
      </trkpt>
      <trkpt lat="48.47113" lon="-4.63547">
        <ele>89.973</ele>
        <time>2010-07-26T12:39:20Z</time>
      </trkpt>
      <trkpt lat="48.47119" lon="-4.63594">
        <ele>89.781</ele>
        <time>2010-07-26T12:39:25Z</time>
      </trkpt>
      <trkpt lat="48.47136" lon="-4.63635">
        <ele>89.174</ele>
        <time>2010-07-26T12:39:30Z</time>
      </trkpt>
      <trkpt lat="48.47157" lon="-4.63665">
        <ele>88.823</ele>
        <time>2010-07-26T12:39:35Z</time>
      </trkpt>
      <trkpt lat="48.47175" lon="-4.63674">
        <ele>88.227</ele>
        <time>2010-07-26T12:39:38Z</time>
      </trkpt>
      <trkpt lat="48.4721" lon="-4.63688">
        <ele>86.689</ele>
        <time>2010-07-26T12:39:44Z</time>
      </trkpt>
      <trkpt lat="48.47233" lon="-4.63702">
        <ele>85.548</ele>
        <time>2010-07-26T12:39:48Z</time>
      </trkpt>
      <trkpt lat="48.47302" lon="-4.63762">
        <ele>85.696</ele>
        <time>2010-07-26T12:40:02Z</time>
      </trkpt>
      <trkpt lat="48.47316" lon="-4.63784">
        <ele>86.11</ele>
        <time>2010-07-26T12:40:06Z</time>
      </trkpt>
      <trkpt lat="48.47319" lon="-4.63797">
        <ele>86.513</ele>
        <time>2010-07-26T12:40:08Z</time>
      </trkpt>
      <trkpt lat="48.47323" lon="-4.63816">
        <ele>87.943</ele>
        <time>2010-07-26T12:40:12Z</time>
      </trkpt>
      <trkpt lat="48.47323" lon="-4.63953">
        <ele>88.113</ele>
        <time>2010-07-26T12:40:27Z</time>
      </trkpt>
      <trkpt lat="48.47348" lon="-4.63975">
        <ele>85.839</ele>
        <time>2010-07-26T12:40:34Z</time>
      </trkpt>
      <trkpt lat="48.47371" lon="-4.63995">
        <ele>84.382</ele>
        <time>2010-07-26T12:40:37Z</time>
      </trkpt>
      <trkpt lat="48.47397" lon="-4.64018">
        <ele>84.568</ele>
        <time>2010-07-26T12:40:42Z</time>
      </trkpt>
      <trkpt lat="48.47481" lon="-4.64038">
        <ele>84.467</ele>
        <time>2010-07-26T12:40:56Z</time>
      </trkpt>
      <trkpt lat="48.47619" lon="-4.64016">
        <ele>82.359</ele>
        <time>2010-07-26T12:41:16Z</time>
      </trkpt>
      <trkpt lat="48.4774" lon="-4.64018">
        <ele>80.167</ele>
        <time>2010-07-26T12:41:33Z</time>
      </trkpt>
      <trkpt lat="48.47834" lon="-4.64054">
        <ele>80.865</ele>
        <time>2010-07-26T12:41:48Z</time>
      </trkpt>
      <trkpt lat="48.4793" lon="-4.64129">
        <ele>80.973</ele>
        <time>2010-07-26T12:42:06Z</time>
      </trkpt>
      <trkpt lat="48.48047" lon="-4.64196">
        <ele>78.726</ele>
        <time>2010-07-26T12:42:24Z</time>
      </trkpt>
      <trkpt lat="48.48176" lon="-4.64268">
        <ele>75.815</ele>
        <time>2010-07-26T12:42:43Z</time>
      </trkpt>
      <trkpt lat="48.48316" lon="-4.64349">
        <ele>78.847</ele>
        <time>2010-07-26T12:43:06Z</time>
      </trkpt>
      <trkpt lat="48.48417" lon="-4.64408">
        <ele>81.99</ele>
        <time>2010-07-26T12:43:26Z</time>
      </trkpt>
      <trkpt lat="48.48543" lon="-4.64468">
        <ele>81.93</ele>
        <time>2010-07-26T12:43:51Z</time>
      </trkpt>
      <trkpt lat="48.4868" lon="-4.64494">
        <ele>81.049</ele>
        <time>2010-07-26T12:44:12Z</time>
      </trkpt>
      <trkpt lat="48.48767" lon="-4.6451">
        <ele>77.49</ele>
        <time>2010-07-26T12:44:24Z</time>
      </trkpt>
      <trkpt lat="48.48892" lon="-4.64534">
        <ele>78.677</ele>
        <time>2010-07-26T12:44:41Z</time>
      </trkpt>
      <trkpt lat="48.49054" lon="-4.64569">
        <ele>77.439</ele>
        <time>2010-07-26T12:45:05Z</time>
      </trkpt>
      <trkpt lat="48.49242" lon="-4.64626">
        <ele>76.663</ele>
        <time>2010-07-26T12:45:35Z</time>
      </trkpt>
      <trkpt lat="48.49279" lon="-4.6464">
        <ele>74.703</ele>
        <time>2010-07-26T12:45:41Z</time>
      </trkpt>
      <trkpt lat="48.49431" lon="-4.6472">
        <ele>73.543</ele>
        <time>2010-07-26T12:46:05Z</time>
      </trkpt>
      <trkpt lat="48.49552" lon="-4.64813">
        <ele>75.072</ele>
        <time>2010-07-26T12:46:28Z</time>
      </trkpt>
      <trkpt lat="48.49662" lon="-4.64879">
        <ele>74.024</ele>
        <time>2010-07-26T12:46:48Z</time>
      </trkpt>
      <trkpt lat="48.49719" lon="-4.64892">
        <ele>72.828</ele>
        <time>2010-07-26T12:46:57Z</time>
      </trkpt>
      <trkpt lat="48.49739" lon="-4.64893">
        <ele>71.495</ele>
        <time>2010-07-26T12:47:00Z</time>
      </trkpt>
      <trkpt lat="48.49884" lon="-4.64901">
        <ele>68.298</ele>
        <time>2010-07-26T12:47:21Z</time>
      </trkpt>
      <trkpt lat="48.50031" lon="-4.64951">
        <ele>69.493</ele>
        <time>2010-07-26T12:47:44Z</time>
      </trkpt>
      <trkpt lat="48.50049" lon="-4.64964">
        <ele>68.11</ele>
        <time>2010-07-26T12:47:47Z</time>
      </trkpt>
      <trkpt lat="48.50131" lon="-4.65047">
        <ele>66.603</ele>
        <time>2010-07-26T12:48:01Z</time>
      </trkpt>
      <trkpt lat="48.50227" lon="-4.65226">
        <ele>64.884</ele>
        <time>2010-07-26T12:48:23Z</time>
      </trkpt>
      <trkpt lat="48.50308" lon="-4.65352">
        <ele>62.168</ele>
        <time>2010-07-26T12:48:39Z</time>
      </trkpt>
      <trkpt lat="48.50403" lon="-4.65387">
        <ele>61.187</ele>
        <time>2010-07-26T12:48:52Z</time>
      </trkpt>
      <trkpt lat="48.50495" lon="-4.65382">
        <ele>65.484</ele>
        <time>2010-07-26T12:49:06Z</time>
      </trkpt>
      <trkpt lat="48.505" lon="-4.65382">
        <ele>65.499</ele>
        <time>2010-07-26T12:49:07Z</time>
      </trkpt>
      <trkpt lat="48.50558" lon="-4.65379">
        <ele>68.835</ele>
        <time>2010-07-26T12:49:19Z</time>
      </trkpt>
      <trkpt lat="48.50641" lon="-4.65373">
        <ele>72.022</ele>
        <time>2010-07-26T12:49:37Z</time>
      </trkpt>
      <trkpt lat="48.50676" lon="-4.65371">
        <ele>75.086</ele>
        <time>2010-07-26T12:49:45Z</time>
      </trkpt>
      <trkpt lat="48.5068" lon="-4.65371">
        <ele>75.121</ele>
        <time>2010-07-26T12:49:46Z</time>
      </trkpt>
      <trkpt lat="48.50778" lon="-4.65365">
        <ele>76.747</ele>
        <time>2010-07-26T12:50:07Z</time>
      </trkpt>
      <trkpt lat="48.50901" lon="-4.65369">
        <ele>76.791</ele>
        <time>2010-07-26T12:50:30Z</time>
      </trkpt>
      <trkpt lat="48.50952" lon="-4.65391">
        <ele>73.539</ele>
        <time>2010-07-26T12:50:38Z</time>
      </trkpt>
      <trkpt lat="48.50996" lon="-4.65417">
        <ele>72.063</ele>
        <time>2010-07-26T12:50:45Z</time>
      </trkpt>
      <trkpt lat="48.51125" lon="-4.6552">
        <ele>68.805</ele>
        <time>2010-07-26T12:51:06Z</time>
      </trkpt>
      <trkpt lat="48.51125" lon="-4.6552">
        <ele>67.744</ele>
        <time>2010-07-26T12:51:08Z</time>
      </trkpt>
      <trkpt lat="48.5123" lon="-4.656">
        <ele>64.526</ele>
        <time>2010-07-26T12:51:20Z</time>
      </trkpt>
      <trkpt lat="48.51318" lon="-4.65692">
        <ele>66.33</ele>
        <time>2010-07-26T12:51:35Z</time>
      </trkpt>
      <trkpt lat="48.51416" lon="-4.65811">
        <ele>68.231</ele>
        <time>2010-07-26T12:51:55Z</time>
      </trkpt>
      <trkpt lat="48.5154" lon="-4.65985">
        <ele>66.697</ele>
        <time>2010-07-26T12:52:20Z</time>
      </trkpt>
      <trkpt lat="48.51628" lon="-4.66058">
        <ele>64.275</ele>
        <time>2010-07-26T12:52:34Z</time>
      </trkpt>
      <trkpt lat="48.51719" lon="-4.66097">
        <ele>60.761</ele>
        <time>2010-07-26T12:52:46Z</time>
      </trkpt>
      <trkpt lat="48.51726" lon="-4.661">
        <ele>60.748</ele>
        <time>2010-07-26T12:52:47Z</time>
      </trkpt>
      <trkpt lat="48.51848" lon="-4.66152">
        <ele>57.207</ele>
        <time>2010-07-26T12:53:03Z</time>
      </trkpt>
      <trkpt lat="48.52015" lon="-4.66224">
        <ele>56.748</ele>
        <time>2010-07-26T12:53:27Z</time>
      </trkpt>
      <trkpt lat="48.52176" lon="-4.66293">
        <ele>59.248</ele>
        <time>2010-07-26T12:53:52Z</time>
      </trkpt>
      <trkpt lat="48.52261" lon="-4.66321">
        <ele>62.268</ele>
        <time>2010-07-26T12:54:08Z</time>
      </trkpt>
      <trkpt lat="48.52315" lon="-4.66329">
        <ele>65.31</ele>
        <time>2010-07-26T12:54:19Z</time>
      </trkpt>
      <trkpt lat="48.52346" lon="-4.66331">
        <ele>66.204</ele>
        <time>2010-07-26T12:54:25Z</time>
      </trkpt>
      <trkpt lat="48.52453" lon="-4.66296">
        <ele>65.723</ele>
        <time>2010-07-26T12:54:45Z</time>
      </trkpt>
      <trkpt lat="48.52537" lon="-4.66263">
        <ele>62.703</ele>
        <time>2010-07-26T12:54:59Z</time>
      </trkpt>
      <trkpt lat="48.52661" lon="-4.66198">
        <ele>63.716</ele>
        <time>2010-07-26T12:55:22Z</time>
      </trkpt>
      <trkpt lat="48.52781" lon="-4.66138">
        <ele>64.103</ele>
        <time>2010-07-26T12:55:39Z</time>
      </trkpt>
      <trkpt lat="48.52853" lon="-4.6611">
        <ele>64.447</ele>
        <time>2010-07-26T12:55:51Z</time>
      </trkpt>
      <trkpt lat="48.52859" lon="-4.66108">
        <ele>65.119</ele>
        <time>2010-07-26T12:55:53Z</time>
      </trkpt>
      <trkpt lat="48.52859" lon="-4.66108">
        <ele>64.609</ele>
        <time>2010-07-26T12:55:55Z</time>
      </trkpt>
      <trkpt lat="48.52905" lon="-4.66093">
        <ele>63.761</ele>
        <time>2010-07-26T12:56:00Z</time>
      </trkpt>
      <trkpt lat="48.53039" lon="-4.66048">
        <ele>62.589</ele>
        <time>2010-07-26T12:56:20Z</time>
      </trkpt>
      <trkpt lat="48.53189" lon="-4.65973">
        <ele>59.327</ele>
        <time>2010-07-26T12:56:41Z</time>
      </trkpt>
      <trkpt lat="48.53257" lon="-4.65935">
        <ele>57.829</ele>
        <time>2010-07-26T12:56:50Z</time>
      </trkpt>
      <trkpt lat="48.53292" lon="-4.65921">
        <ele>55.641</ele>
        <time>2010-07-26T12:56:54Z</time>
      </trkpt>
      <trkpt lat="48.53356" lon="-4.6591">
        <ele>53.388</ele>
        <time>2010-07-26T12:57:01Z</time>
      </trkpt>
      <trkpt lat="48.5348" lon="-4.65887">
        <ele>51.748</ele>
        <time>2010-07-26T12:57:15Z</time>
      </trkpt>
      <trkpt lat="48.53558" lon="-4.65877">
        <ele>50.345</ele>
        <time>2010-07-26T12:57:25Z</time>
      </trkpt>
      <trkpt lat="48.53567" lon="-4.65876">
        <ele>52.001</ele>
        <time>2010-07-26T12:57:29Z</time>
      </trkpt>
      <trkpt lat="48.53608" lon="-4.65868">
        <ele>51.021</ele>
        <time>2010-07-26T12:57:34Z</time>
      </trkpt>
      <trkpt lat="48.53748" lon="-4.6584">
        <ele>48.44</ele>
        <time>2010-07-26T12:57:54Z</time>
      </trkpt>
      <trkpt lat="48.53755" lon="-4.65838">
        <ele>48.581</ele>
        <time>2010-07-26T12:57:55Z</time>
      </trkpt>
      <trkpt lat="48.53792" lon="-4.65834">
        <ele>46.869</ele>
        <time>2010-07-26T12:58:00Z</time>
      </trkpt>
      <trkpt lat="48.53813" lon="-4.65829">
        <ele>48.153</ele>
        <time>2010-07-26T12:58:03Z</time>
      </trkpt>
      <trkpt lat="48.53836" lon="-4.65825">
        <ele>46.777</ele>
        <time>2010-07-26T12:58:06Z</time>
      </trkpt>
      <trkpt lat="48.53863" lon="-4.6582">
        <ele>47.801</ele>
        <time>2010-07-26T12:58:10Z</time>
      </trkpt>
      <trkpt lat="48.53895" lon="-4.65813">
        <ele>47.79</ele>
        <time>2010-07-26T12:58:15Z</time>
      </trkpt>
      <trkpt lat="48.54037" lon="-4.65787">
        <ele>48.667</ele>
        <time>2010-07-26T12:58:39Z</time>
      </trkpt>
      <trkpt lat="48.54099" lon="-4.65778">
        <ele>49.517</ele>
        <time>2010-07-26T12:58:52Z</time>
      </trkpt>
      <trkpt lat="48.54142" lon="-4.65773">
        <ele>49.528</ele>
        <time>2010-07-26T12:59:05Z</time>
      </trkpt>
      <trkpt lat="48.54147" lon="-4.65824">
        <ele>48.245</ele>
        <time>2010-07-26T12:59:13Z</time>
      </trkpt>
      <trkpt lat="48.5415" lon="-4.65847">
        <ele>47.033</ele>
        <time>2010-07-26T12:59:16Z</time>
      </trkpt>
      <trkpt lat="48.54154" lon="-4.65898">
        <ele>46.229</ele>
        <time>2010-07-26T12:59:21Z</time>
      </trkpt>
      <trkpt lat="48.54139" lon="-4.6597">
        <ele>47.304</ele>
        <time>2010-07-26T12:59:30Z</time>
      </trkpt>
      <trkpt lat="48.54149" lon="-4.65992">
        <ele>47.724</ele>
        <time>2010-07-26T12:59:34Z</time>
      </trkpt>
      <trkpt lat="48.5417" lon="-4.6603">
        <ele>47.767</ele>
        <time>2010-07-26T12:59:41Z</time>
      </trkpt>
      <trkpt lat="48.54209" lon="-4.66192">
        <ele>48.198</ele>
        <time>2010-07-26T13:00:01Z</time>
      </trkpt>
      <trkpt lat="48.54255" lon="-4.66398">
        <ele>45.196</ele>
        <time>2010-07-26T13:00:23Z</time>
      </trkpt>
      <trkpt lat="48.54276" lon="-4.66493">
        <ele>43.743</ele>
        <time>2010-07-26T13:00:32Z</time>
      </trkpt>
      <trkpt lat="48.54308" lon="-4.66638">
        <ele>40.641</ele>
        <time>2010-07-26T13:00:45Z</time>
      </trkpt>
      <trkpt lat="48.54313" lon="-4.66659">
        <ele>39.422</ele>
        <time>2010-07-26T13:00:47Z</time>
      </trkpt>
      <trkpt lat="48.5432" lon="-4.66689">
        <ele>40.166</ele>
        <time>2010-07-26T13:00:50Z</time>
      </trkpt>
      <trkpt lat="48.54326" lon="-4.66713">
        <ele>39.926</ele>
        <time>2010-07-26T13:00:54Z</time>
      </trkpt>
      <trkpt lat="48.54339" lon="-4.66743">
        <ele>39.691</ele>
        <time>2010-07-26T13:00:59Z</time>
      </trkpt>
      <trkpt lat="48.54344" lon="-4.66798">
        <ele>38.005</ele>
        <time>2010-07-26T13:01:02Z</time>
      </trkpt>
      <trkpt lat="48.54368" lon="-4.67035">
        <ele>35.907</ele>
        <time>2010-07-26T13:01:23Z</time>
      </trkpt>
      <trkpt lat="48.54397" lon="-4.67199">
        <ele>32.325</ele>
        <time>2010-07-26T13:01:37Z</time>
      </trkpt>
      <trkpt lat="48.54423" lon="-4.67339">
        <ele>30.262</ele>
        <time>2010-07-26T13:01:49Z</time>
      </trkpt>
      <trkpt lat="48.54465" lon="-4.6756">
        <ele>31.677</ele>
        <time>2010-07-26T13:02:10Z</time>
      </trkpt>
      <trkpt lat="48.54496" lon="-4.67739">
        <ele>32.887</ele>
        <time>2010-07-26T13:02:29Z</time>
      </trkpt>
      <trkpt lat="48.54498" lon="-4.67747">
        <ele>32.453</ele>
        <time>2010-07-26T13:02:32Z</time>
      </trkpt>
      <trkpt lat="48.54512" lon="-4.67809">
        <ele>31.499</ele>
        <time>2010-07-26T13:02:37Z</time>
      </trkpt>
      <trkpt lat="48.54563" lon="-4.68054">
        <ele>30.415</ele>
        <time>2010-07-26T13:03:01Z</time>
      </trkpt>
      <trkpt lat="48.54591" lon="-4.68185">
        <ele>27.02</ele>
        <time>2010-07-26T13:03:13Z</time>
      </trkpt>
      <trkpt lat="48.54654" lon="-4.68476">
        <ele>23.579</ele>
        <time>2010-07-26T13:03:39Z</time>
      </trkpt>
      <trkpt lat="48.54711" lon="-4.68753">
        <ele>24.199</ele>
        <time>2010-07-26T13:04:04Z</time>
      </trkpt>
      <trkpt lat="48.5476" lon="-4.68981">
        <ele>21.758</ele>
        <time>2010-07-26T13:04:26Z</time>
      </trkpt>
      <trkpt lat="48.54811" lon="-4.69116">
        <ele>21.88</ele>
        <time>2010-07-26T13:04:44Z</time>
      </trkpt>
      <trkpt lat="48.54888" lon="-4.69236">
        <ele>22.768</ele>
        <time>2010-07-26T13:04:59Z</time>
      </trkpt>
      <trkpt lat="48.54973" lon="-4.6935">
        <ele>24.228</ele>
        <time>2010-07-26T13:05:17Z</time>
      </trkpt>
      <trkpt lat="48.54988" lon="-4.6938">
        <ele>23.842</ele>
        <time>2010-07-26T13:05:21Z</time>
      </trkpt>
      <trkpt lat="48.55009" lon="-4.69421">
        <ele>23.068</ele>
        <time>2010-07-26T13:05:29Z</time>
      </trkpt>
      <trkpt lat="48.55076" lon="-4.69598">
        <ele>21.133</ele>
        <time>2010-07-26T13:05:48Z</time>
      </trkpt>
      <trkpt lat="48.55121" lon="-4.69759">
        <ele>19.801</ele>
        <time>2010-07-26T13:06:05Z</time>
      </trkpt>
      <trkpt lat="48.55178" lon="-4.69889">
        <ele>19.3</ele>
        <time>2010-07-26T13:06:23Z</time>
      </trkpt>
      <trkpt lat="48.55197" lon="-4.69923">
        <ele>18.703</ele>
        <time>2010-07-26T13:06:29Z</time>
      </trkpt>
      <trkpt lat="48.5521" lon="-4.69949">
        <ele>18.935</ele>
        <time>2010-07-26T13:06:34Z</time>
      </trkpt>
      <trkpt lat="48.55208" lon="-4.69983">
        <ele>18.504</ele>
        <time>2010-07-26T13:06:38Z</time>
      </trkpt>
      <trkpt lat="48.55187" lon="-4.70132">
        <ele>17.434</ele>
        <time>2010-07-26T13:06:53Z</time>
      </trkpt>
      <trkpt lat="48.5514" lon="-4.70261">
        <ele>14.752</ele>
        <time>2010-07-26T13:07:07Z</time>
      </trkpt>
      <trkpt lat="48.55116" lon="-4.7031">
        <ele>10.916</ele>
        <time>2010-07-26T13:07:12Z</time>
      </trkpt>
      <trkpt lat="48.55104" lon="-4.7033">
        <ele>10.039</ele>
        <time>2010-07-26T13:07:14Z</time>
      </trkpt>
      <trkpt lat="48.5504" lon="-4.70377">
        <ele>6</ele>
        <time>2010-07-26T13:07:22Z</time>
      </trkpt>
      <trkpt lat="48.55021" lon="-4.70374">
        <ele>6.741</ele>
        <time>2010-07-26T13:07:24Z</time>
      </trkpt>
      <trkpt lat="48.54958" lon="-4.70367">
        <ele>6.239</ele>
        <time>2010-07-26T13:07:31Z</time>
      </trkpt>
      <trkpt lat="48.54923" lon="-4.70387">
        <ele>6.199</ele>
        <time>2010-07-26T13:07:37Z</time>
      </trkpt>
      <trkpt lat="48.54922" lon="-4.70461">
        <ele>9.903</ele>
        <time>2010-07-26T13:07:43Z</time>
      </trkpt>
      <trkpt lat="48.54935" lon="-4.70476">
        <ele>11.093</ele>
        <time>2010-07-26T13:07:46Z</time>
      </trkpt>
      <trkpt lat="48.54961" lon="-4.70502">
        <ele>13.839</ele>
        <time>2010-07-26T13:07:52Z</time>
      </trkpt>
      <trkpt lat="48.5497" lon="-4.70558">
        <ele>16.916</ele>
        <time>2010-07-26T13:08:01Z</time>
      </trkpt>
      <trkpt lat="48.54968" lon="-4.70564">
        <ele>17.333</ele>
        <time>2010-07-26T13:08:02Z</time>
      </trkpt>
      <trkpt lat="48.54951" lon="-4.70607">
        <ele>19.655</ele>
        <time>2010-07-26T13:08:09Z</time>
      </trkpt>
      <trkpt lat="48.54943" lon="-4.70634">
        <ele>19.932</ele>
        <time>2010-07-26T13:08:13Z</time>
      </trkpt>
      <trkpt lat="48.54957" lon="-4.70691">
        <ele>19.896</ele>
        <time>2010-07-26T13:08:21Z</time>
      </trkpt>
      <trkpt lat="48.54986" lon="-4.70794">
        <ele>18.236</ele>
        <time>2010-07-26T13:08:32Z</time>
      </trkpt>
      <trkpt lat="48.54993" lon="-4.70822">
        <ele>17.644</ele>
        <time>2010-07-26T13:08:35Z</time>
      </trkpt>
      <trkpt lat="48.55011" lon="-4.70904">
        <ele>13.666</ele>
        <time>2010-07-26T13:08:43Z</time>
      </trkpt>
      <trkpt lat="48.55019" lon="-4.70925">
        <ele>12.002</ele>
        <time>2010-07-26T13:08:45Z</time>
      </trkpt>
      <trkpt lat="48.5503" lon="-4.70949">
        <ele>10.153</ele>
        <time>2010-07-26T13:08:49Z</time>
      </trkpt>
      <trkpt lat="48.55139" lon="-4.71034">
        <ele>6.454</ele>
        <time>2010-07-26T13:09:01Z</time>
      </trkpt>
      <trkpt lat="48.55155" lon="-4.71043">
        <ele>5.388</ele>
        <time>2010-07-26T13:09:04Z</time>
      </trkpt>
      <trkpt lat="48.55248" lon="-4.71143">
        <ele>3.323</ele>
        <time>2010-07-26T13:09:17Z</time>
      </trkpt>
      <trkpt lat="48.55306" lon="-4.71213">
        <ele>-0.094</ele>
        <time>2010-07-26T13:09:26Z</time>
      </trkpt>
      <trkpt lat="48.55322" lon="-4.71245">
        <ele>-1.762</ele>
        <time>2010-07-26T13:09:29Z</time>
      </trkpt>
      <trkpt lat="48.55356" lon="-4.71314">
        <ele>0.931</ele>
        <time>2010-07-26T13:09:36Z</time>
      </trkpt>
      <trkpt lat="48.55365" lon="-4.7133">
        <ele>1.774</ele>
        <time>2010-07-26T13:09:38Z</time>
      </trkpt>
      <trkpt lat="48.55374" lon="-4.71341">
        <ele>2.699</ele>
        <time>2010-07-26T13:09:40Z</time>
      </trkpt>
      <trkpt lat="48.55419" lon="-4.71388">
        <ele>6.434</ele>
        <time>2010-07-26T13:09:50Z</time>
      </trkpt>
      <trkpt lat="48.55431" lon="-4.71402">
        <ele>6.558</ele>
        <time>2010-07-26T13:09:53Z</time>
      </trkpt>
      <trkpt lat="48.55448" lon="-4.71443">
        <ele>8.28</ele>
        <time>2010-07-26T13:09:59Z</time>
      </trkpt>
      <trkpt lat="48.55466" lon="-4.71515">
        <ele>7.053</ele>
        <time>2010-07-26T13:10:07Z</time>
      </trkpt>
      <trkpt lat="48.55505" lon="-4.71583">
        <ele>8.617</ele>
        <time>2010-07-26T13:10:17Z</time>
      </trkpt>
      <trkpt lat="48.55512" lon="-4.71604">
        <ele>8.005</ele>
        <time>2010-07-26T13:10:20Z</time>
      </trkpt>
      <trkpt lat="48.55518" lon="-4.71642">
        <ele>7.088</ele>
        <time>2010-07-26T13:10:24Z</time>
      </trkpt>
      <trkpt lat="48.55519" lon="-4.71759">
        <ele>10.441</ele>
        <time>2010-07-26T13:10:38Z</time>
      </trkpt>
      <trkpt lat="48.55519" lon="-4.71786">
        <ele>10.813</ele>
        <time>2010-07-26T13:10:43Z</time>
      </trkpt>
      <trkpt lat="48.55527" lon="-4.71812">
        <ele>11.772</ele>
        <time>2010-07-26T13:10:46Z</time>
      </trkpt>
      <trkpt lat="48.55565" lon="-4.7189">
        <ele>14.342</ele>
        <time>2010-07-26T13:11:00Z</time>
      </trkpt>
      <trkpt lat="48.55567" lon="-4.71896">
        <ele>14.418</ele>
        <time>2010-07-26T13:11:01Z</time>
      </trkpt>
      <trkpt lat="48.55571" lon="-4.71933">
        <ele>15.78</ele>
        <time>2010-07-26T13:11:07Z</time>
      </trkpt>
      <trkpt lat="48.55581" lon="-4.71974">
        <ele>18.452</ele>
        <time>2010-07-26T13:11:14Z</time>
      </trkpt>
      <trkpt lat="48.55605" lon="-4.71968">
        <ele>17.166</ele>
        <time>2010-07-26T13:11:20Z</time>
      </trkpt>
      <trkpt lat="48.55632" lon="-4.71965">
        <ele>15.553</ele>
        <time>2010-07-26T13:11:25Z</time>
      </trkpt>
      <trkpt lat="48.55707" lon="-4.72003">
        <ele>15.107</ele>
        <time>2010-07-26T13:11:37Z</time>
      </trkpt>
      <trkpt lat="48.5578" lon="-4.72046">
        <ele>13.77</ele>
        <time>2010-07-26T13:11:51Z</time>
      </trkpt>
      <trkpt lat="48.55793" lon="-4.72112">
        <ele>13.472</ele>
        <time>2010-07-26T13:11:59Z</time>
      </trkpt>
      <trkpt lat="48.55784" lon="-4.72225">
        <ele>13.311</ele>
        <time>2010-07-26T13:12:11Z</time>
      </trkpt>
      <trkpt lat="48.5576" lon="-4.72313">
        <ele>9.985</ele>
        <time>2010-07-26T13:12:20Z</time>
      </trkpt>
      <trkpt lat="48.55748" lon="-4.72359">
        <ele>8.015</ele>
        <time>2010-07-26T13:12:24Z</time>
      </trkpt>
      <trkpt lat="48.55696" lon="-4.72553">
        <ele>9.966</ele>
        <time>2010-07-26T13:12:42Z</time>
      </trkpt>
      <trkpt lat="48.55651" lon="-4.7272">
        <ele>12.338</ele>
        <time>2010-07-26T13:13:00Z</time>
      </trkpt>
      <trkpt lat="48.55604" lon="-4.72883">
        <ele>12.675</ele>
        <time>2010-07-26T13:13:20Z</time>
      </trkpt>
      <trkpt lat="48.55595" lon="-4.72915">
        <ele>11.651</ele>
        <time>2010-07-26T13:13:24Z</time>
      </trkpt>
      <trkpt lat="48.55583" lon="-4.72945">
        <ele>12.229</ele>
        <time>2010-07-26T13:13:28Z</time>
      </trkpt>
      <trkpt lat="48.55553" lon="-4.73003">
        <ele>12.237</ele>
        <time>2010-07-26T13:13:37Z</time>
      </trkpt>
      <trkpt lat="48.55456" lon="-4.73102">
        <ele>11.352</ele>
        <time>2010-07-26T13:13:57Z</time>
      </trkpt>
      <trkpt lat="48.55318" lon="-4.7323">
        <ele>12.261</ele>
        <time>2010-07-26T13:14:24Z</time>
      </trkpt>
      <trkpt lat="48.55205" lon="-4.73316">
        <ele>9.701</ele>
        <time>2010-07-26T13:14:45Z</time>
      </trkpt>
      <trkpt lat="48.55089" lon="-4.73372">
        <ele>11.966</ele>
        <time>2010-07-26T13:15:04Z</time>
      </trkpt>
      <trkpt lat="48.54952" lon="-4.73439">
        <ele>14.402</ele>
        <time>2010-07-26T13:15:28Z</time>
      </trkpt>
      <trkpt lat="48.54918" lon="-4.7346">
        <ele>14.997</ele>
        <time>2010-07-26T13:15:34Z</time>
      </trkpt>
      <trkpt lat="48.54897" lon="-4.73486">
        <ele>13.444</ele>
        <time>2010-07-26T13:15:38Z</time>
      </trkpt>
      <trkpt lat="48.54884" lon="-4.73534">
        <ele>12.936</ele>
        <time>2010-07-26T13:15:43Z</time>
      </trkpt>
      <trkpt lat="48.54872" lon="-4.7358">
        <ele>14.201</ele>
        <time>2010-07-26T13:15:48Z</time>
      </trkpt>
      <trkpt lat="48.54864" lon="-4.73614">
        <ele>17.057</ele>
        <time>2010-07-26T13:15:53Z</time>
      </trkpt>
      <trkpt lat="48.5482" lon="-4.73704">
        <ele>17.447</ele>
        <time>2010-07-26T13:16:07Z</time>
      </trkpt>
      <trkpt lat="48.54768" lon="-4.73807">
        <ele>14.24</ele>
        <time>2010-07-26T13:16:21Z</time>
      </trkpt>
      <trkpt lat="48.54759" lon="-4.73826">
        <ele>12.893</ele>
        <time>2010-07-26T13:16:23Z</time>
      </trkpt>
      <trkpt lat="48.54732" lon="-4.7392">
        <ele>16.125</ele>
        <time>2010-07-26T13:16:33Z</time>
      </trkpt>
      <trkpt lat="48.54706" lon="-4.74011">
        <ele>16.869</ele>
        <time>2010-07-26T13:16:45Z</time>
      </trkpt>
      <trkpt lat="48.54667" lon="-4.7411">
        <ele>13.633</ele>
        <time>2010-07-26T13:16:56Z</time>
      </trkpt>
      <trkpt lat="48.54632" lon="-4.74225">
        <ele>15.465</ele>
        <time>2010-07-26T13:17:10Z</time>
      </trkpt>
      <trkpt lat="48.54598" lon="-4.74361">
        <ele>13.186</ele>
        <time>2010-07-26T13:17:25Z</time>
      </trkpt>
      <trkpt lat="48.54547" lon="-4.74494">
        <ele>10.089</ele>
        <time>2010-07-26T13:17:39Z</time>
      </trkpt>
      <trkpt lat="48.54526" lon="-4.7453">
        <ele>8.444</ele>
        <time>2010-07-26T13:17:43Z</time>
      </trkpt>
      <trkpt lat="48.54493" lon="-4.74571">
        <ele>5.383</ele>
        <time>2010-07-26T13:17:48Z</time>
      </trkpt>
      <trkpt lat="48.54457" lon="-4.74613">
        <ele>2.671</ele>
        <time>2010-07-26T13:17:53Z</time>
      </trkpt>
      <trkpt lat="48.54382" lon="-4.74725">
        <ele>4.805</ele>
        <time>2010-07-26T13:18:06Z</time>
      </trkpt>
      <trkpt lat="48.54346" lon="-4.7478">
        <ele>7.879</ele>
        <time>2010-07-26T13:18:14Z</time>
      </trkpt>
      <trkpt lat="48.54343" lon="-4.74786">
        <ele>8.172</ele>
        <time>2010-07-26T13:18:15Z</time>
      </trkpt>
      <trkpt lat="48.54312" lon="-4.74827">
        <ele>11.596</ele>
        <time>2010-07-26T13:18:24Z</time>
      </trkpt>
      <trkpt lat="48.5429" lon="-4.74847">
        <ele>14.601</ele>
        <time>2010-07-26T13:18:31Z</time>
      </trkpt>
      <trkpt lat="48.54266" lon="-4.74861">
        <ele>17.757</ele>
        <time>2010-07-26T13:18:39Z</time>
      </trkpt>
      <trkpt lat="48.54233" lon="-4.74876">
        <ele>20.883</ele>
        <time>2010-07-26T13:18:51Z</time>
      </trkpt>
      <trkpt lat="48.54189" lon="-4.74879">
        <ele>23.123</ele>
        <time>2010-07-26T13:19:04Z</time>
      </trkpt>
      <trkpt lat="48.54082" lon="-4.74869">
        <ele>23.245</ele>
        <time>2010-07-26T13:19:28Z</time>
      </trkpt>
      <trkpt lat="48.53965" lon="-4.74854">
        <ele>21.169</ele>
        <time>2010-07-26T13:19:48Z</time>
      </trkpt>
      <trkpt lat="48.53907" lon="-4.74841">
        <ele>18.009</ele>
        <time>2010-07-26T13:19:56Z</time>
      </trkpt>
      <trkpt lat="48.53807" lon="-4.74832">
        <ele>14.748</ele>
        <time>2010-07-26T13:20:08Z</time>
      </trkpt>
      <trkpt lat="48.53677" lon="-4.74824">
        <ele>12.026</ele>
        <time>2010-07-26T13:20:24Z</time>
      </trkpt>
      <trkpt lat="48.53571" lon="-4.74866">
        <ele>10.646</ele>
        <time>2010-07-26T13:20:38Z</time>
      </trkpt>
      <trkpt lat="48.53528" lon="-4.7489">
        <ele>7.678</ele>
        <time>2010-07-26T13:20:43Z</time>
      </trkpt>
      <trkpt lat="48.5338" lon="-4.74976">
        <ele>8.103</ele>
        <time>2010-07-26T13:21:02Z</time>
      </trkpt>
      <trkpt lat="48.53276" lon="-4.75022">
        <ele>4.874</ele>
        <time>2010-07-26T13:21:17Z</time>
      </trkpt>
      <trkpt lat="48.53251" lon="-4.75025">
        <ele>3.978</ele>
        <time>2010-07-26T13:21:20Z</time>
      </trkpt>
      <trkpt lat="48.53204" lon="-4.75">
        <ele>5.163</ele>
        <time>2010-07-26T13:21:26Z</time>
      </trkpt>
      <trkpt lat="48.53187" lon="-4.74979">
        <ele>6.922</ele>
        <time>2010-07-26T13:21:29Z</time>
      </trkpt>
      <trkpt lat="48.53127" lon="-4.74902">
        <ele>9.199</ele>
        <time>2010-07-26T13:21:43Z</time>
      </trkpt>
      <trkpt lat="48.53098" lon="-4.74855">
        <ele>8.552</ele>
        <time>2010-07-26T13:21:51Z</time>
      </trkpt>
      <trkpt lat="48.53073" lon="-4.74807">
        <ele>9.38</ele>
        <time>2010-07-26T13:22:02Z</time>
      </trkpt>
      <trkpt lat="48.53039" lon="-4.74748">
        <ele>10.531</ele>
        <time>2010-07-26T13:22:11Z</time>
      </trkpt>
      <trkpt lat="48.52997" lon="-4.74684">
        <ele>8.804</ele>
        <time>2010-07-26T13:22:21Z</time>
      </trkpt>
      <trkpt lat="48.52996" lon="-4.74682">
        <ele>8.119</ele>
        <time>2010-07-26T13:22:22Z</time>
      </trkpt>
      <trkpt lat="48.52955" lon="-4.74638">
        <ele>3.245</ele>
        <time>2010-07-26T13:22:27Z</time>
      </trkpt>
      <trkpt lat="48.52939" lon="-4.74621">
        <ele>1.993</ele>
        <time>2010-07-26T13:22:29Z</time>
      </trkpt>
      <trkpt lat="48.52929" lon="-4.74615">
        <ele>0.753</ele>
        <time>2010-07-26T13:22:30Z</time>
      </trkpt>
      <trkpt lat="48.52882" lon="-4.74601">
        <ele>3.528</ele>
        <time>2010-07-26T13:22:36Z</time>
      </trkpt>
      <trkpt lat="48.52874" lon="-4.74601">
        <ele>3.901</ele>
        <time>2010-07-26T13:22:38Z</time>
      </trkpt>
      <trkpt lat="48.52846" lon="-4.74678">
        <ele>4.897</ele>
        <time>2010-07-26T13:22:50Z</time>
      </trkpt>
      <trkpt lat="48.52785" lon="-4.7481">
        <ele>7.416</ele>
        <time>2010-07-26T13:23:07Z</time>
      </trkpt>
      <trkpt lat="48.52732" lon="-4.74962">
        <ele>8.049</ele>
        <time>2010-07-26T13:23:27Z</time>
      </trkpt>
      <trkpt lat="48.52684" lon="-4.75119">
        <ele>7.68</ele>
        <time>2010-07-26T13:23:47Z</time>
      </trkpt>
      <trkpt lat="48.52664" lon="-4.75259">
        <ele>4.889</ele>
        <time>2010-07-26T13:24:01Z</time>
      </trkpt>
      <trkpt lat="48.52658" lon="-4.75353">
        <ele>3.995</ele>
        <time>2010-07-26T13:24:10Z</time>
      </trkpt>
      <trkpt lat="48.52625" lon="-4.75517">
        <ele>4.232</ele>
        <time>2010-07-26T13:24:26Z</time>
      </trkpt>
      <trkpt lat="48.52575" lon="-4.75652">
        <ele>3.337</ele>
        <time>2010-07-26T13:24:40Z</time>
      </trkpt>
      <trkpt lat="48.5249" lon="-4.75777">
        <ele>3.088</ele>
        <time>2010-07-26T13:24:54Z</time>
      </trkpt>
      <trkpt lat="48.52456" lon="-4.7581">
        <ele>3.742</ele>
        <time>2010-07-26T13:24:59Z</time>
      </trkpt>
      <trkpt lat="48.52439" lon="-4.75834">
        <ele>2.969</ele>
        <time>2010-07-26T13:25:02Z</time>
      </trkpt>
      <trkpt lat="48.52393" lon="-4.75863">
        <ele>2.226</ele>
        <time>2010-07-26T13:25:09Z</time>
      </trkpt>
      <trkpt lat="48.52353" lon="-4.7586">
        <ele>0.665</ele>
        <time>2010-07-26T13:25:14Z</time>
      </trkpt>
      <trkpt lat="48.52337" lon="-4.75862">
        <ele>-0.97</ele>
        <time>2010-07-26T13:25:16Z</time>
      </trkpt>
      <trkpt lat="48.52312" lon="-4.75858">
        <ele>-1.303</ele>
        <time>2010-07-26T13:25:19Z</time>
      </trkpt>
      <trkpt lat="48.52184" lon="-4.75803">
        <ele>1.935</ele>
        <time>2010-07-26T13:25:36Z</time>
      </trkpt>
      <trkpt lat="48.52104" lon="-4.75783">
        <ele>0.415</ele>
        <time>2010-07-26T13:25:46Z</time>
      </trkpt>
      <trkpt lat="48.52057" lon="-4.75822">
        <ele>-0.844</ele>
        <time>2010-07-26T13:25:53Z</time>
      </trkpt>
      <trkpt lat="48.52017" lon="-4.75872">
        <ele>3.654</ele>
        <time>2010-07-26T13:26:01Z</time>
      </trkpt>
      <trkpt lat="48.51982" lon="-4.75915">
        <ele>4.324</ele>
        <time>2010-07-26T13:26:09Z</time>
      </trkpt>
      <trkpt lat="48.51917" lon="-4.75995">
        <ele>4.848</ele>
        <time>2010-07-26T13:26:23Z</time>
      </trkpt>
      <trkpt lat="48.5191" lon="-4.76004">
        <ele>5.347</ele>
        <time>2010-07-26T13:26:26Z</time>
      </trkpt>
      <trkpt lat="48.51874" lon="-4.76099">
        <ele>3.798</ele>
        <time>2010-07-26T13:26:36Z</time>
      </trkpt>
      <trkpt lat="48.51832" lon="-4.7616">
        <ele>3.264</ele>
        <time>2010-07-26T13:26:45Z</time>
      </trkpt>
      <trkpt lat="48.51826" lon="-4.76164">
        <ele>3.085</ele>
        <time>2010-07-26T13:26:46Z</time>
      </trkpt>
      <trkpt lat="48.51752" lon="-4.7621">
        <ele>1.418</ele>
        <time>2010-07-26T13:26:57Z</time>
      </trkpt>
      <trkpt lat="48.5166" lon="-4.76284">
        <ele>2.221</ele>
        <time>2010-07-26T13:27:11Z</time>
      </trkpt>
      <trkpt lat="48.5158" lon="-4.76326">
        <ele>3.543</ele>
        <time>2010-07-26T13:27:23Z</time>
      </trkpt>
      <trkpt lat="48.51539" lon="-4.76348">
        <ele>5.183</ele>
        <time>2010-07-26T13:27:30Z</time>
      </trkpt>
      <trkpt lat="48.51427" lon="-4.76388">
        <ele>5.105</ele>
        <time>2010-07-26T13:27:48Z</time>
      </trkpt>
      <trkpt lat="48.51311" lon="-4.76429">
        <ele>4.552</ele>
        <time>2010-07-26T13:28:05Z</time>
      </trkpt>
      <trkpt lat="48.51214" lon="-4.7648">
        <ele>5.21</ele>
        <time>2010-07-26T13:28:20Z</time>
      </trkpt>
      <trkpt lat="48.51193" lon="-4.7647">
        <ele>5.447</ele>
        <time>2010-07-26T13:28:24Z</time>
      </trkpt>
      <trkpt lat="48.51167" lon="-4.76463">
        <ele>6.279</ele>
        <time>2010-07-26T13:28:28Z</time>
      </trkpt>
      <trkpt lat="48.51092" lon="-4.7648">
        <ele>9.76</ele>
        <time>2010-07-26T13:28:41Z</time>
      </trkpt>
      <trkpt lat="48.5109" lon="-4.76481">
        <ele>10.009</ele>
        <time>2010-07-26T13:28:43Z</time>
      </trkpt>
      <trkpt lat="48.51063" lon="-4.76483">
        <ele>11.754</ele>
        <time>2010-07-26T13:28:47Z</time>
      </trkpt>
      <trkpt lat="48.51014" lon="-4.76493">
        <ele>15.467</ele>
        <time>2010-07-26T13:28:58Z</time>
      </trkpt>
      <trkpt lat="48.50966" lon="-4.76502">
        <ele>14.867</ele>
        <time>2010-07-26T13:29:09Z</time>
      </trkpt>
      <trkpt lat="48.50873" lon="-4.76529">
        <ele>13.321</ele>
        <time>2010-07-26T13:29:22Z</time>
      </trkpt>
      <trkpt lat="48.50859" lon="-4.76533">
        <ele>13.723</ele>
        <time>2010-07-26T13:29:24Z</time>
      </trkpt>
      <trkpt lat="48.5085" lon="-4.76536">
        <ele>15.883</ele>
        <time>2010-07-26T13:29:28Z</time>
      </trkpt>
      <trkpt lat="48.50818" lon="-4.76552">
        <ele>18.064</ele>
        <time>2010-07-26T13:29:32Z</time>
      </trkpt>
      <trkpt lat="48.50761" lon="-4.76569">
        <ele>21.146</ele>
        <time>2010-07-26T13:29:45Z</time>
      </trkpt>
      <trkpt lat="48.50666" lon="-4.76595">
        <ele>23.376</ele>
        <time>2010-07-26T13:30:02Z</time>
      </trkpt>
      <trkpt lat="48.50547" lon="-4.76623">
        <ele>26.451</ele>
        <time>2010-07-26T13:30:24Z</time>
      </trkpt>
      <trkpt lat="48.50485" lon="-4.7663">
        <ele>27.533</ele>
        <time>2010-07-26T13:30:35Z</time>
      </trkpt>
      <trkpt lat="48.50388" lon="-4.76575">
        <ele>28.904</ele>
        <time>2010-07-26T13:30:52Z</time>
      </trkpt>
      <trkpt lat="48.50254" lon="-4.76475">
        <ele>28.48</ele>
        <time>2010-07-26T13:31:13Z</time>
      </trkpt>
      <trkpt lat="48.50119" lon="-4.76444">
        <ele>28.855</ele>
        <time>2010-07-26T13:31:31Z</time>
      </trkpt>
      <trkpt lat="48.49946" lon="-4.76416">
        <ele>31.467</ele>
        <time>2010-07-26T13:31:56Z</time>
      </trkpt>
      <trkpt lat="48.49877" lon="-4.76429">
        <ele>28.392</ele>
        <time>2010-07-26T13:32:05Z</time>
      </trkpt>
      <trkpt lat="48.498" lon="-4.76449">
        <ele>25.232</ele>
        <time>2010-07-26T13:32:14Z</time>
      </trkpt>
      <trkpt lat="48.49764" lon="-4.76463">
        <ele>24.413</ele>
        <time>2010-07-26T13:32:18Z</time>
      </trkpt>
      <trkpt lat="48.49635" lon="-4.76538">
        <ele>20.581</ele>
        <time>2010-07-26T13:32:33Z</time>
      </trkpt>
      <trkpt lat="48.49626" lon="-4.76541">
        <ele>20.319</ele>
        <time>2010-07-26T13:32:34Z</time>
      </trkpt>
      <trkpt lat="48.49586" lon="-4.76537">
        <ele>19.293</ele>
        <time>2010-07-26T13:32:38Z</time>
      </trkpt>
      <trkpt lat="48.49506" lon="-4.76503">
        <ele>20.262</ele>
        <time>2010-07-26T13:32:47Z</time>
      </trkpt>
      <trkpt lat="48.49351" lon="-4.76447">
        <ele>18.29</ele>
        <time>2010-07-26T13:33:05Z</time>
      </trkpt>
      <trkpt lat="48.4927" lon="-4.76482">
        <ele>17.435</ele>
        <time>2010-07-26T13:33:14Z</time>
      </trkpt>
      <trkpt lat="48.49193" lon="-4.76584">
        <ele>17.204</ele>
        <time>2010-07-26T13:33:26Z</time>
      </trkpt>
      <trkpt lat="48.49173" lon="-4.76604">
        <ele>17.624</ele>
        <time>2010-07-26T13:33:29Z</time>
      </trkpt>
      <trkpt lat="48.49133" lon="-4.76634">
        <ele>15.053</ele>
        <time>2010-07-26T13:33:34Z</time>
      </trkpt>
      <trkpt lat="48.49081" lon="-4.76672">
        <ele>12.197</ele>
        <time>2010-07-26T13:33:40Z</time>
      </trkpt>
      <trkpt lat="48.48997" lon="-4.76762">
        <ele>11.386</ele>
        <time>2010-07-26T13:33:52Z</time>
      </trkpt>
      <trkpt lat="48.48973" lon="-4.768">
        <ele>8.232</ele>
        <time>2010-07-26T13:33:56Z</time>
      </trkpt>
      <trkpt lat="48.48955" lon="-4.76828">
        <ele>9.497</ele>
        <time>2010-07-26T13:33:59Z</time>
      </trkpt>
      <trkpt lat="48.48924" lon="-4.76874">
        <ele>10.116</ele>
        <time>2010-07-26T13:34:04Z</time>
      </trkpt>
      <trkpt lat="48.48872" lon="-4.76944">
        <ele>6.979</ele>
        <time>2010-07-26T13:34:15Z</time>
      </trkpt>
      <trkpt lat="48.48823" lon="-4.77019">
        <ele>3.771</ele>
        <time>2010-07-26T13:34:20Z</time>
      </trkpt>
      <trkpt lat="48.4881" lon="-4.77039">
        <ele>3.183</ele>
        <time>2010-07-26T13:34:22Z</time>
      </trkpt>
      <trkpt lat="48.48779" lon="-4.77069">
        <ele>1.608</ele>
        <time>2010-07-26T13:34:26Z</time>
      </trkpt>
      <trkpt lat="48.48728" lon="-4.77098">
        <ele>-0.242</ele>
        <time>2010-07-26T13:34:32Z</time>
      </trkpt>
      <trkpt lat="48.48678" lon="-4.77125">
        <ele>-0.4</ele>
        <time>2010-07-26T13:34:38Z</time>
      </trkpt>
      <trkpt lat="48.48593" lon="-4.7712">
        <ele>-1.628</ele>
        <time>2010-07-26T13:34:49Z</time>
      </trkpt>
      <trkpt lat="48.48431" lon="-4.77099">
        <ele>-0.221</ele>
        <time>2010-07-26T13:35:08Z</time>
      </trkpt>
      <trkpt lat="48.48387" lon="-4.77088">
        <ele>2.898</ele>
        <time>2010-07-26T13:35:14Z</time>
      </trkpt>
      <trkpt lat="48.48356" lon="-4.77072">
        <ele>4.496</ele>
        <time>2010-07-26T13:35:19Z</time>
      </trkpt>
      <trkpt lat="48.48331" lon="-4.77056">
        <ele>5.388</ele>
        <time>2010-07-26T13:35:25Z</time>
      </trkpt>
      <trkpt lat="48.48304" lon="-4.77003">
        <ele>3.834</ele>
        <time>2010-07-26T13:35:30Z</time>
      </trkpt>
      <trkpt lat="48.483" lon="-4.76981">
        <ele>2.953</ele>
        <time>2010-07-26T13:35:32Z</time>
      </trkpt>
      <trkpt lat="48.48287" lon="-4.76896">
        <ele>1.668</ele>
        <time>2010-07-26T13:35:39Z</time>
      </trkpt>
      <trkpt lat="48.48245" lon="-4.76822">
        <ele>2.958</ele>
        <time>2010-07-26T13:35:47Z</time>
      </trkpt>
      <trkpt lat="48.48129" lon="-4.76709">
        <ele>3.826</ele>
        <time>2010-07-26T13:36:05Z</time>
      </trkpt>
      <trkpt lat="48.48123" lon="-4.76702">
        <ele>3.506</ele>
        <time>2010-07-26T13:36:06Z</time>
      </trkpt>
      <trkpt lat="48.48083" lon="-4.76664">
        <ele>2</ele>
        <time>2010-07-26T13:36:12Z</time>
      </trkpt>
      <trkpt lat="48.47987" lon="-4.76641">
        <ele>4.406</ele>
        <time>2010-07-26T13:36:24Z</time>
      </trkpt>
      <trkpt lat="48.4794" lon="-4.76618">
        <ele>7.434</ele>
        <time>2010-07-26T13:36:32Z</time>
      </trkpt>
      <trkpt lat="48.47922" lon="-4.76597">
        <ele>8.81</ele>
        <time>2010-07-26T13:36:36Z</time>
      </trkpt>
      <trkpt lat="48.47856" lon="-4.76486">
        <ele>9.823</ele>
        <time>2010-07-26T13:36:52Z</time>
      </trkpt>
      <trkpt lat="48.47795" lon="-4.76326">
        <ele>12.818</ele>
        <time>2010-07-26T13:37:10Z</time>
      </trkpt>
      <trkpt lat="48.47771" lon="-4.76165">
        <ele>15.669</ele>
        <time>2010-07-26T13:37:28Z</time>
      </trkpt>
      <trkpt lat="48.47729" lon="-4.76052">
        <ele>15.194</ele>
        <time>2010-07-26T13:37:42Z</time>
      </trkpt>
      <trkpt lat="48.47665" lon="-4.75948">
        <ele>14.186</ele>
        <time>2010-07-26T13:37:55Z</time>
      </trkpt>
      <trkpt lat="48.47544" lon="-4.75783">
        <ele>12.715</ele>
        <time>2010-07-26T13:38:17Z</time>
      </trkpt>
      <trkpt lat="48.4744" lon="-4.7564">
        <ele>9.616</ele>
        <time>2010-07-26T13:38:34Z</time>
      </trkpt>
      <trkpt lat="48.4734" lon="-4.75502">
        <ele>6.05</ele>
        <time>2010-07-26T13:38:50Z</time>
      </trkpt>
      <trkpt lat="48.47334" lon="-4.7549">
        <ele>5.079</ele>
        <time>2010-07-26T13:38:51Z</time>
      </trkpt>
      <trkpt lat="48.47323" lon="-4.75415">
        <ele>1.607</ele>
        <time>2010-07-26T13:38:56Z</time>
      </trkpt>
      <trkpt lat="48.47326" lon="-4.75399">
        <ele>0.994</ele>
        <time>2010-07-26T13:38:57Z</time>
      </trkpt>
      <trkpt lat="48.47333" lon="-4.75353">
        <ele>-0.289</ele>
        <time>2010-07-26T13:39:00Z</time>
      </trkpt>
      <trkpt lat="48.47342" lon="-4.75292">
        <ele>-1.609</ele>
        <time>2010-07-26T13:39:04Z</time>
      </trkpt>
      <trkpt lat="48.47361" lon="-4.75207">
        <ele>-2.425</ele>
        <time>2010-07-26T13:39:10Z</time>
      </trkpt>
      <trkpt lat="48.47404" lon="-4.75139">
        <ele>-0.799</ele>
        <time>2010-07-26T13:39:17Z</time>
      </trkpt>
      <trkpt lat="48.47429" lon="-4.75106">
        <ele>-1.638</ele>
        <time>2010-07-26T13:39:21Z</time>
      </trkpt>
      <trkpt lat="48.47432" lon="-4.75029">
        <ele>-0.668</ele>
        <time>2010-07-26T13:39:28Z</time>
      </trkpt>
      <trkpt lat="48.47415" lon="-4.75002">
        <ele>0.23</ele>
        <time>2010-07-26T13:39:32Z</time>
      </trkpt>
      <trkpt lat="48.47345" lon="-4.74932">
        <ele>3.425</ele>
        <time>2010-07-26T13:39:45Z</time>
      </trkpt>
      <trkpt lat="48.47312" lon="-4.74858">
        <ele>5.552</ele>
        <time>2010-07-26T13:39:54Z</time>
      </trkpt>
      <trkpt lat="48.47308" lon="-4.74734">
        <ele>8.525</ele>
        <time>2010-07-26T13:40:08Z</time>
      </trkpt>
      <trkpt lat="48.47308" lon="-4.74725">
        <ele>8.859</ele>
        <time>2010-07-26T13:40:09Z</time>
      </trkpt>
      <trkpt lat="48.4731" lon="-4.74697">
        <ele>10.116</ele>
        <time>2010-07-26T13:40:12Z</time>
      </trkpt>
      <trkpt lat="48.47343" lon="-4.74617">
        <ele>11.306</ele>
        <time>2010-07-26T13:40:22Z</time>
      </trkpt>
      <trkpt lat="48.47358" lon="-4.746">
        <ele>10.973</ele>
        <time>2010-07-26T13:40:25Z</time>
      </trkpt>
      <trkpt lat="48.47387" lon="-4.74571">
        <ele>10.165</ele>
        <time>2010-07-26T13:40:31Z</time>
      </trkpt>
      <trkpt lat="48.47427" lon="-4.74541">
        <ele>10.342</ele>
        <time>2010-07-26T13:40:37Z</time>
      </trkpt>
      <trkpt lat="48.47453" lon="-4.74499">
        <ele>11.359</ele>
        <time>2010-07-26T13:40:43Z</time>
      </trkpt>
      <trkpt lat="48.47458" lon="-4.74479">
        <ele>11.217</ele>
        <time>2010-07-26T13:40:45Z</time>
      </trkpt>
      <trkpt lat="48.47472" lon="-4.74424">
        <ele>12.493</ele>
        <time>2010-07-26T13:40:51Z</time>
      </trkpt>
      <trkpt lat="48.47481" lon="-4.74373">
        <ele>11.436</ele>
        <time>2010-07-26T13:40:59Z</time>
      </trkpt>
      <trkpt lat="48.47485" lon="-4.74301">
        <ele>10.574</ele>
        <time>2010-07-26T13:41:03Z</time>
      </trkpt>
      <trkpt lat="48.47504" lon="-4.74246">
        <ele>8.184</ele>
        <time>2010-07-26T13:41:08Z</time>
      </trkpt>
      <trkpt lat="48.47541" lon="-4.74172">
        <ele>6.492</ele>
        <time>2010-07-26T13:41:15Z</time>
      </trkpt>
      <trkpt lat="48.47551" lon="-4.74118">
        <ele>8.155</ele>
        <time>2010-07-26T13:41:19Z</time>
      </trkpt>
      <trkpt lat="48.47568" lon="-4.73979">
        <ele>11.844</ele>
        <time>2010-07-26T13:41:32Z</time>
      </trkpt>
      <trkpt lat="48.4758" lon="-4.73926">
        <ele>11.883</ele>
        <time>2010-07-26T13:41:38Z</time>
      </trkpt>
      <trkpt lat="48.47601" lon="-4.73893">
        <ele>12.668</ele>
        <time>2010-07-26T13:41:43Z</time>
      </trkpt>
      <trkpt lat="48.47654" lon="-4.73831">
        <ele>14.169</ele>
        <time>2010-07-26T13:41:54Z</time>
      </trkpt>
      <trkpt lat="48.47696" lon="-4.73725">
        <ele>11.592</ele>
        <time>2010-07-26T13:42:06Z</time>
      </trkpt>
      <trkpt lat="48.47694" lon="-4.73655">
        <ele>10.425</ele>
        <time>2010-07-26T13:42:12Z</time>
      </trkpt>
      <trkpt lat="48.47664" lon="-4.73573">
        <ele>12.858</ele>
        <time>2010-07-26T13:42:20Z</time>
      </trkpt>
      <trkpt lat="48.47656" lon="-4.73514">
        <ele>15.405</ele>
        <time>2010-07-26T13:42:26Z</time>
      </trkpt>
      <trkpt lat="48.47663" lon="-4.73317">
        <ele>17.776</ele>
        <time>2010-07-26T13:42:47Z</time>
      </trkpt>
      <trkpt lat="48.47689" lon="-4.73145">
        <ele>15.089</ele>
        <time>2010-07-26T13:43:04Z</time>
      </trkpt>
      <trkpt lat="48.47704" lon="-4.73024">
        <ele>12.067</ele>
        <time>2010-07-26T13:43:14Z</time>
      </trkpt>
      <trkpt lat="48.47703" lon="-4.72963">
        <ele>13.235</ele>
        <time>2010-07-26T13:43:19Z</time>
      </trkpt>
      <trkpt lat="48.477" lon="-4.72764">
        <ele>14.181</ele>
        <time>2010-07-26T13:43:36Z</time>
      </trkpt>
      <trkpt lat="48.47711" lon="-4.72631">
        <ele>11.146</ele>
        <time>2010-07-26T13:43:48Z</time>
      </trkpt>
      <trkpt lat="48.47713" lon="-4.72618">
        <ele>9.134</ele>
        <time>2010-07-26T13:43:51Z</time>
      </trkpt>
      <trkpt lat="48.47733" lon="-4.72531">
        <ele>5.407</ele>
        <time>2010-07-26T13:43:55Z</time>
      </trkpt>
      <trkpt lat="48.47735" lon="-4.72498">
        <ele>4.572</ele>
        <time>2010-07-26T13:43:57Z</time>
      </trkpt>
      <trkpt lat="48.47725" lon="-4.72451">
        <ele>2.568</ele>
        <time>2010-07-26T13:44:00Z</time>
      </trkpt>
      <trkpt lat="48.47714" lon="-4.72396">
        <ele>6.213</ele>
        <time>2010-07-26T13:44:04Z</time>
      </trkpt>
      <trkpt lat="48.47713" lon="-4.7233">
        <ele>9.919</ele>
        <time>2010-07-26T13:44:10Z</time>
      </trkpt>
      <trkpt lat="48.47713" lon="-4.72313">
        <ele>10.68</ele>
        <time>2010-07-26T13:44:12Z</time>
      </trkpt>
      <trkpt lat="48.47705" lon="-4.72194">
        <ele>13.803</ele>
        <time>2010-07-26T13:44:23Z</time>
      </trkpt>
      <trkpt lat="48.47701" lon="-4.72128">
        <ele>16.106</ele>
        <time>2010-07-26T13:44:30Z</time>
      </trkpt>
      <trkpt lat="48.47704" lon="-4.721">
        <ele>16.137</ele>
        <time>2010-07-26T13:44:33Z</time>
      </trkpt>
      <trkpt lat="48.47715" lon="-4.71976">
        <ele>19.01</ele>
        <time>2010-07-26T13:44:48Z</time>
      </trkpt>
      <trkpt lat="48.47723" lon="-4.7188">
        <ele>20.127</ele>
        <time>2010-07-26T13:45:05Z</time>
      </trkpt>
      <trkpt lat="48.47725" lon="-4.71835">
        <ele>20.837</ele>
        <time>2010-07-26T13:45:12Z</time>
      </trkpt>
      <trkpt lat="48.47721" lon="-4.71802">
        <ele>20.22</ele>
        <time>2010-07-26T13:45:17Z</time>
      </trkpt>
      <trkpt lat="48.47669" lon="-4.71711">
        <ele>17.28</ele>
        <time>2010-07-26T13:45:30Z</time>
      </trkpt>
      <trkpt lat="48.47586" lon="-4.71618">
        <ele>20.48</ele>
        <time>2010-07-26T13:45:46Z</time>
      </trkpt>
      <trkpt lat="48.47494" lon="-4.71531">
        <ele>22.353</ele>
        <time>2010-07-26T13:46:05Z</time>
      </trkpt>
      <trkpt lat="48.47415" lon="-4.71473">
        <ele>19.896</ele>
        <time>2010-07-26T13:46:18Z</time>
      </trkpt>
      <trkpt lat="48.47384" lon="-4.71455">
        <ele>16.855</ele>
        <time>2010-07-26T13:46:22Z</time>
      </trkpt>
      <trkpt lat="48.47367" lon="-4.71445">
        <ele>16.174</ele>
        <time>2010-07-26T13:46:24Z</time>
      </trkpt>
      <trkpt lat="48.47349" lon="-4.71434">
        <ele>14.768</ele>
        <time>2010-07-26T13:46:26Z</time>
      </trkpt>
      <trkpt lat="48.47321" lon="-4.71393">
        <ele>11.112</ele>
        <time>2010-07-26T13:46:30Z</time>
      </trkpt>
      <trkpt lat="48.47314" lon="-4.71381">
        <ele>10.877</ele>
        <time>2010-07-26T13:46:31Z</time>
      </trkpt>
      <trkpt lat="48.47299" lon="-4.71338">
        <ele>8.071</ele>
        <time>2010-07-26T13:46:34Z</time>
      </trkpt>
      <trkpt lat="48.47286" lon="-4.71287">
        <ele>7.026</ele>
        <time>2010-07-26T13:46:37Z</time>
      </trkpt>
      <trkpt lat="48.47266" lon="-4.71254">
        <ele>4.584</ele>
        <time>2010-07-26T13:46:40Z</time>
      </trkpt>
      <trkpt lat="48.47234" lon="-4.71284">
        <ele>7.545</ele>
        <time>2010-07-26T13:46:44Z</time>
      </trkpt>
      <trkpt lat="48.47195" lon="-4.71461">
        <ele>9.03</ele>
        <time>2010-07-26T13:47:00Z</time>
      </trkpt>
      <trkpt lat="48.4714" lon="-4.71575">
        <ele>10.149</ele>
        <time>2010-07-26T13:47:13Z</time>
      </trkpt>
      <trkpt lat="48.47087" lon="-4.71634">
        <ele>9.217</ele>
        <time>2010-07-26T13:47:22Z</time>
      </trkpt>
      <trkpt lat="48.47041" lon="-4.71642">
        <ele>7.253</ele>
        <time>2010-07-26T13:47:28Z</time>
      </trkpt>
      <trkpt lat="48.47" lon="-4.71644">
        <ele>5.196</ele>
        <time>2010-07-26T13:47:33Z</time>
      </trkpt>
      <trkpt lat="48.46984" lon="-4.7165">
        <ele>4.148</ele>
        <time>2010-07-26T13:47:35Z</time>
      </trkpt>
      <trkpt lat="48.46942" lon="-4.71666">
        <ele>3.009</ele>
        <time>2010-07-26T13:47:40Z</time>
      </trkpt>
      <trkpt lat="48.46924" lon="-4.71668">
        <ele>1.298</ele>
        <time>2010-07-26T13:47:42Z</time>
      </trkpt>
      <trkpt lat="48.46885" lon="-4.7167">
        <ele>-1.78</ele>
        <time>2010-07-26T13:47:46Z</time>
      </trkpt>
      <trkpt lat="48.46876" lon="-4.7167">
        <ele>-1.961</ele>
        <time>2010-07-26T13:47:47Z</time>
      </trkpt>
      <trkpt lat="48.4684" lon="-4.71681">
        <ele>-0.046</ele>
        <time>2010-07-26T13:47:51Z</time>
      </trkpt>
      <trkpt lat="48.46825" lon="-4.71731">
        <ele>3.614</ele>
        <time>2010-07-26T13:47:56Z</time>
      </trkpt>
      <trkpt lat="48.46825" lon="-4.71738">
        <ele>4.785</ele>
        <time>2010-07-26T13:47:58Z</time>
      </trkpt>
      <trkpt lat="48.46837" lon="-4.7181">
        <ele>8.274</ele>
        <time>2010-07-26T13:48:07Z</time>
      </trkpt>
      <trkpt lat="48.46855" lon="-4.71914">
        <ele>11.68</ele>
        <time>2010-07-26T13:48:24Z</time>
      </trkpt>
      <trkpt lat="48.4687" lon="-4.72">
        <ele>14.963</ele>
        <time>2010-07-26T13:48:39Z</time>
      </trkpt>
      <trkpt lat="48.46868" lon="-4.72083">
        <ele>18.036</ele>
        <time>2010-07-26T13:48:54Z</time>
      </trkpt>
      <trkpt lat="48.46841" lon="-4.72223">
        <ele>21.235</ele>
        <time>2010-07-26T13:49:19Z</time>
      </trkpt>
      <trkpt lat="48.46819" lon="-4.72337">
        <ele>24.583</ele>
        <time>2010-07-26T13:49:39Z</time>
      </trkpt>
      <trkpt lat="48.46815" lon="-4.72362">
        <ele>25.384</ele>
        <time>2010-07-26T13:49:43Z</time>
      </trkpt>
      <trkpt lat="48.46779" lon="-4.7246">
        <ele>28.711</ele>
        <time>2010-07-26T13:50:01Z</time>
      </trkpt>
      <trkpt lat="48.46755" lon="-4.72522">
        <ele>30.96</ele>
        <time>2010-07-26T13:50:12Z</time>
      </trkpt>
      <trkpt lat="48.46722" lon="-4.72626">
        <ele>33.487</ele>
        <time>2010-07-26T13:50:29Z</time>
      </trkpt>
      <trkpt lat="48.46707" lon="-4.72706">
        <ele>34.483</ele>
        <time>2010-07-26T13:50:41Z</time>
      </trkpt>
      <trkpt lat="48.46678" lon="-4.72753">
        <ele>34.387</ele>
        <time>2010-07-26T13:50:50Z</time>
      </trkpt>
      <trkpt lat="48.46618" lon="-4.72774">
        <ele>36.583</ele>
        <time>2010-07-26T13:51:02Z</time>
      </trkpt>
      <trkpt lat="48.46529" lon="-4.72777">
        <ele>37.893</ele>
        <time>2010-07-26T13:51:22Z</time>
      </trkpt>
      <trkpt lat="48.4645" lon="-4.72814">
        <ele>39.716</ele>
        <time>2010-07-26T13:51:36Z</time>
      </trkpt>
      <trkpt lat="48.46407" lon="-4.72856">
        <ele>42.852</ele>
        <time>2010-07-26T13:51:47Z</time>
      </trkpt>
      <trkpt lat="48.46359" lon="-4.72909">
        <ele>46.132</ele>
        <time>2010-07-26T13:52:00Z</time>
      </trkpt>
      <trkpt lat="48.46311" lon="-4.72977">
        <ele>49.195</ele>
        <time>2010-07-26T13:52:15Z</time>
      </trkpt>
      <trkpt lat="48.46259" lon="-4.7305">
        <ele>52.439</ele>
        <time>2010-07-26T13:52:31Z</time>
      </trkpt>
      <trkpt lat="48.4619" lon="-4.73133">
        <ele>55.656</ele>
        <time>2010-07-26T13:52:51Z</time>
      </trkpt>
      <trkpt lat="48.46099" lon="-4.7327">
        <ele>57.842</ele>
        <time>2010-07-26T13:53:17Z</time>
      </trkpt>
      <trkpt lat="48.45996" lon="-4.73424">
        <ele>60.109</ele>
        <time>2010-07-26T13:53:43Z</time>
      </trkpt>
      <trkpt lat="48.45888" lon="-4.73549">
        <ele>61.224</ele>
        <time>2010-07-26T13:54:05Z</time>
      </trkpt>
      <trkpt lat="48.45757" lon="-4.73648">
        <ele>63.657</ele>
        <time>2010-07-26T13:54:29Z</time>
      </trkpt>
      <trkpt lat="48.45707" lon="-4.73697">
        <ele>66.746</ele>
        <time>2010-07-26T13:54:40Z</time>
      </trkpt>
      <trkpt lat="48.45684" lon="-4.73721">
        <ele>68.062</ele>
        <time>2010-07-26T13:54:45Z</time>
      </trkpt>
      <trkpt lat="48.45553" lon="-4.73837">
        <ele>67.335</ele>
        <time>2010-07-26T13:55:11Z</time>
      </trkpt>
      <trkpt lat="48.45472" lon="-4.73857">
        <ele>64.693</ele>
        <time>2010-07-26T13:55:22Z</time>
      </trkpt>
      <trkpt lat="48.45379" lon="-4.73875">
        <ele>61.502</ele>
        <time>2010-07-26T13:55:33Z</time>
      </trkpt>
      <trkpt lat="48.45238" lon="-4.73929">
        <ele>59.179</ele>
        <time>2010-07-26T13:55:49Z</time>
      </trkpt>
      <trkpt lat="48.4511" lon="-4.73947">
        <ele>61.369</ele>
        <time>2010-07-26T13:56:05Z</time>
      </trkpt>
      <trkpt lat="48.45037" lon="-4.73958">
        <ele>59.979</ele>
        <time>2010-07-26T13:56:14Z</time>
      </trkpt>
      <trkpt lat="48.44849" lon="-4.7402">
        <ele>59.219</ele>
        <time>2010-07-26T13:56:36Z</time>
      </trkpt>
      <trkpt lat="48.44732" lon="-4.74048">
        <ele>56.172</ele>
        <time>2010-07-26T13:56:50Z</time>
      </trkpt>
      <trkpt lat="48.44714" lon="-4.74052">
        <ele>55.453</ele>
        <time>2010-07-26T13:56:52Z</time>
      </trkpt>
      <trkpt lat="48.4462" lon="-4.74073">
        <ele>52.417</ele>
        <time>2010-07-26T13:57:02Z</time>
      </trkpt>
      <trkpt lat="48.44569" lon="-4.74082">
        <ele>49.42</ele>
        <time>2010-07-26T13:57:07Z</time>
      </trkpt>
      <trkpt lat="48.44365" lon="-4.74117">
        <ele>51.362</ele>
        <time>2010-07-26T13:57:29Z</time>
      </trkpt>
      <trkpt lat="48.44235" lon="-4.7411">
        <ele>51.256</ele>
        <time>2010-07-26T13:57:45Z</time>
      </trkpt>
      <trkpt lat="48.44091" lon="-4.74073">
        <ele>52.372</ele>
        <time>2010-07-26T13:58:05Z</time>
      </trkpt>
      <trkpt lat="48.44059" lon="-4.74076">
        <ele>52.451</ele>
        <time>2010-07-26T13:58:09Z</time>
      </trkpt>
      <trkpt lat="48.44031" lon="-4.74073">
        <ele>54.014</ele>
        <time>2010-07-26T13:58:15Z</time>
      </trkpt>
      <trkpt lat="48.43991" lon="-4.74055">
        <ele>53.567</ele>
        <time>2010-07-26T13:58:21Z</time>
      </trkpt>
      <trkpt lat="48.43867" lon="-4.74025">
        <ele>55.345</ele>
        <time>2010-07-26T13:58:39Z</time>
      </trkpt>
      <trkpt lat="48.43825" lon="-4.74009">
        <ele>54.638</ele>
        <time>2010-07-26T13:58:46Z</time>
      </trkpt>
      <trkpt lat="48.43731" lon="-4.73882">
        <ele>52.796</ele>
        <time>2010-07-26T13:59:01Z</time>
      </trkpt>
      <trkpt lat="48.43713" lon="-4.73858">
        <ele>51.286</ele>
        <time>2010-07-26T13:59:06Z</time>
      </trkpt>
      <trkpt lat="48.43651" lon="-4.73768">
        <ele>54.305</ele>
        <time>2010-07-26T13:59:15Z</time>
      </trkpt>
      <trkpt lat="48.43618" lon="-4.73721">
        <ele>56.163</ele>
        <time>2010-07-26T13:59:22Z</time>
      </trkpt>
      <trkpt lat="48.4353" lon="-4.73576">
        <ele>58.566</ele>
        <time>2010-07-26T13:59:44Z</time>
      </trkpt>
      <trkpt lat="48.43478" lon="-4.73441">
        <ele>61.034</ele>
        <time>2010-07-26T14:00:01Z</time>
      </trkpt>
      <trkpt lat="48.43444" lon="-4.7333">
        <ele>64.048</ele>
        <time>2010-07-26T14:00:16Z</time>
      </trkpt>
      <trkpt lat="48.43437" lon="-4.73291">
        <ele>65.16</ele>
        <time>2010-07-26T14:00:21Z</time>
      </trkpt>
      <trkpt lat="48.43423" lon="-4.7316">
        <ele>68.139</ele>
        <time>2010-07-26T14:00:39Z</time>
      </trkpt>
      <trkpt lat="48.43422" lon="-4.73137">
        <ele>68.743</ele>
        <time>2010-07-26T14:00:45Z</time>
      </trkpt>
      <trkpt lat="48.43388" lon="-4.73099">
        <ele>68.517</ele>
        <time>2010-07-26T14:00:52Z</time>
      </trkpt>
      <trkpt lat="48.43362" lon="-4.73111">
        <ele>66.61</ele>
        <time>2010-07-26T14:00:57Z</time>
      </trkpt>
      <trkpt lat="48.43271" lon="-4.7324">
        <ele>66.324</ele>
        <time>2010-07-26T14:01:16Z</time>
      </trkpt>
      <trkpt lat="48.43205" lon="-4.73296">
        <ele>63.83</ele>
        <time>2010-07-26T14:01:26Z</time>
      </trkpt>
      <trkpt lat="48.431" lon="-4.73378">
        <ele>64.606</ele>
        <time>2010-07-26T14:01:41Z</time>
      </trkpt>
      <trkpt lat="48.43051" lon="-4.73376">
        <ele>65.982</ele>
        <time>2010-07-26T14:01:48Z</time>
      </trkpt>
      <trkpt lat="48.42916" lon="-4.7328">
        <ele>69.158</ele>
        <time>2010-07-26T14:02:10Z</time>
      </trkpt>
      <trkpt lat="48.42824" lon="-4.732">
        <ele>72.27</ele>
        <time>2010-07-26T14:02:27Z</time>
      </trkpt>
      <trkpt lat="48.42764" lon="-4.73149">
        <ele>75.577</ele>
        <time>2010-07-26T14:02:39Z</time>
      </trkpt>
      <trkpt lat="48.42689" lon="-4.73119">
        <ele>78.613</ele>
        <time>2010-07-26T14:02:53Z</time>
      </trkpt>
      <trkpt lat="48.42572" lon="-4.73128">
        <ele>79.646</ele>
        <time>2010-07-26T14:03:13Z</time>
      </trkpt>
      <trkpt lat="48.42438" lon="-4.73124">
        <ele>78.308</ele>
        <time>2010-07-26T14:03:33Z</time>
      </trkpt>
      <trkpt lat="48.42343" lon="-4.73138">
        <ele>74.721</ele>
        <time>2010-07-26T14:03:45Z</time>
      </trkpt>
      <trkpt lat="48.422" lon="-4.7318">
        <ele>72.166</ele>
        <time>2010-07-26T14:04:01Z</time>
      </trkpt>
      <trkpt lat="48.42064" lon="-4.73168">
        <ele>71.081</ele>
        <time>2010-07-26T14:04:16Z</time>
      </trkpt>
      <trkpt lat="48.41895" lon="-4.73096">
        <ele>73.029</ele>
        <time>2010-07-26T14:04:36Z</time>
      </trkpt>
      <trkpt lat="48.41833" lon="-4.73053">
        <ele>76.033</ele>
        <time>2010-07-26T14:04:45Z</time>
      </trkpt>
      <trkpt lat="48.41694" lon="-4.72957">
        <ele>78.124</ele>
        <time>2010-07-26T14:05:06Z</time>
      </trkpt>
      <trkpt lat="48.41611" lon="-4.72917">
        <ele>75.476</ele>
        <time>2010-07-26T14:05:17Z</time>
      </trkpt>
      <trkpt lat="48.41567" lon="-4.72899">
        <ele>71.941</ele>
        <time>2010-07-26T14:05:22Z</time>
      </trkpt>
      <trkpt lat="48.41547" lon="-4.72891">
        <ele>70.44</ele>
        <time>2010-07-26T14:05:24Z</time>
      </trkpt>
      <trkpt lat="48.41493" lon="-4.72889">
        <ele>68.833</ele>
        <time>2010-07-26T14:05:29Z</time>
      </trkpt>
      <trkpt lat="48.4146" lon="-4.72889">
        <ele>67.425</ele>
        <time>2010-07-26T14:05:32Z</time>
      </trkpt>
      <trkpt lat="48.41327" lon="-4.72873">
        <ele>69.638</ele>
        <time>2010-07-26T14:05:46Z</time>
      </trkpt>
      <trkpt lat="48.41257" lon="-4.72844">
        <ele>72.629</ele>
        <time>2010-07-26T14:05:55Z</time>
      </trkpt>
      <trkpt lat="48.41112" lon="-4.72781">
        <ele>75.914</ele>
        <time>2010-07-26T14:06:15Z</time>
      </trkpt>
      <trkpt lat="48.41022" lon="-4.72737">
        <ele>78.947</ele>
        <time>2010-07-26T14:06:28Z</time>
      </trkpt>
      <trkpt lat="48.40922" lon="-4.7269">
        <ele>77.816</ele>
        <time>2010-07-26T14:06:43Z</time>
      </trkpt>
      <trkpt lat="48.40851" lon="-4.72665">
        <ele>75.032</ele>
        <time>2010-07-26T14:06:52Z</time>
      </trkpt>
      <trkpt lat="48.40825" lon="-4.72657">
        <ele>73.697</ele>
        <time>2010-07-26T14:06:55Z</time>
      </trkpt>
      <trkpt lat="48.40796" lon="-4.72657">
        <ele>71.952</ele>
        <time>2010-07-26T14:06:58Z</time>
      </trkpt>
      <trkpt lat="48.40745" lon="-4.72655">
        <ele>68.657</ele>
        <time>2010-07-26T14:07:03Z</time>
      </trkpt>
      <trkpt lat="48.40664" lon="-4.72623">
        <ele>71.837</ele>
        <time>2010-07-26T14:07:12Z</time>
      </trkpt>
      <trkpt lat="48.40623" lon="-4.72599">
        <ele>75.065</ele>
        <time>2010-07-26T14:07:18Z</time>
      </trkpt>
      <trkpt lat="48.40593" lon="-4.72578">
        <ele>76.999</ele>
        <time>2010-07-26T14:07:23Z</time>
      </trkpt>
      <trkpt lat="48.40492" lon="-4.72489">
        <ele>77.028</ele>
        <time>2010-07-26T14:07:40Z</time>
      </trkpt>
      <trkpt lat="48.40401" lon="-4.72382">
        <ele>77.722</ele>
        <time>2010-07-26T14:07:56Z</time>
      </trkpt>
      <trkpt lat="48.40362" lon="-4.72337">
        <ele>78.655</ele>
        <time>2010-07-26T14:08:04Z</time>
      </trkpt>
      <trkpt lat="48.40349" lon="-4.72322">
        <ele>78.094</ele>
        <time>2010-07-26T14:08:08Z</time>
      </trkpt>
      <trkpt lat="48.40321" lon="-4.72306">
        <ele>77.909</ele>
        <time>2010-07-26T14:08:11Z</time>
      </trkpt>
      <trkpt lat="48.4027" lon="-4.72294">
        <ele>78.549</ele>
        <time>2010-07-26T14:08:19Z</time>
      </trkpt>
      <trkpt lat="48.40258" lon="-4.72291">
        <ele>77.898</ele>
        <time>2010-07-26T14:08:21Z</time>
      </trkpt>
      <trkpt lat="48.40228" lon="-4.72309">
        <ele>76.016</ele>
        <time>2010-07-26T14:08:26Z</time>
      </trkpt>
      <trkpt lat="48.40166" lon="-4.72434">
        <ele>73.329</ele>
        <time>2010-07-26T14:08:41Z</time>
      </trkpt>
      <trkpt lat="48.40163" lon="-4.72486">
        <ele>71.973</ele>
        <time>2010-07-26T14:08:46Z</time>
      </trkpt>
      <trkpt lat="48.4018" lon="-4.72541">
        <ele>70.665</ele>
        <time>2010-07-26T14:08:51Z</time>
      </trkpt>
      <trkpt lat="48.40192" lon="-4.72575">
        <ele>67.921</ele>
        <time>2010-07-26T14:08:54Z</time>
      </trkpt>
      <trkpt lat="48.40204" lon="-4.72611">
        <ele>66.53</ele>
        <time>2010-07-26T14:08:57Z</time>
      </trkpt>
      <trkpt lat="48.40212" lon="-4.72635">
        <ele>64.542</ele>
        <time>2010-07-26T14:08:59Z</time>
      </trkpt>
      <trkpt lat="48.40215" lon="-4.72675">
        <ele>63.305</ele>
        <time>2010-07-26T14:09:02Z</time>
      </trkpt>
      <trkpt lat="48.40203" lon="-4.72725">
        <ele>61.534</ele>
        <time>2010-07-26T14:09:06Z</time>
      </trkpt>
      <trkpt lat="48.40178" lon="-4.72748">
        <ele>60.372</ele>
        <time>2010-07-26T14:09:09Z</time>
      </trkpt>
      <trkpt lat="48.40157" lon="-4.72754">
        <ele>59.243</ele>
        <time>2010-07-26T14:09:11Z</time>
      </trkpt>
      <trkpt lat="48.40114" lon="-4.72767">
        <ele>55.72</ele>
        <time>2010-07-26T14:09:15Z</time>
      </trkpt>
      <trkpt lat="48.40055" lon="-4.72785">
        <ele>52.011</ele>
        <time>2010-07-26T14:09:20Z</time>
      </trkpt>
      <trkpt lat="48.4002" lon="-4.72798">
        <ele>49.725</ele>
        <time>2010-07-26T14:09:23Z</time>
      </trkpt>
      <trkpt lat="48.39968" lon="-4.72834">
        <ele>46.724</ele>
        <time>2010-07-26T14:09:28Z</time>
      </trkpt>
      <trkpt lat="48.39963" lon="-4.72837">
        <ele>46.737</ele>
        <time>2010-07-26T14:09:29Z</time>
      </trkpt>
      <trkpt lat="48.399" lon="-4.72884">
        <ele>47.419</ele>
        <time>2010-07-26T14:09:35Z</time>
      </trkpt>
      <trkpt lat="48.39744" lon="-4.72993">
        <ele>45.163</ele>
        <time>2010-07-26T14:09:53Z</time>
      </trkpt>
      <trkpt lat="48.39609" lon="-4.73051">
        <ele>41.842</ele>
        <time>2010-07-26T14:10:08Z</time>
      </trkpt>
      <trkpt lat="48.39599" lon="-4.73054">
        <ele>41.713</ele>
        <time>2010-07-26T14:10:09Z</time>
      </trkpt>
      <trkpt lat="48.3953" lon="-4.7307">
        <ele>39.15</ele>
        <time>2010-07-26T14:10:16Z</time>
      </trkpt>
      <trkpt lat="48.39489" lon="-4.73077">
        <ele>37.795</ele>
        <time>2010-07-26T14:10:20Z</time>
      </trkpt>
      <trkpt lat="48.39468" lon="-4.73081">
        <ele>38.443</ele>
        <time>2010-07-26T14:10:22Z</time>
      </trkpt>
      <trkpt lat="48.39417" lon="-4.73136">
        <ele>38.83</ele>
        <time>2010-07-26T14:10:29Z</time>
      </trkpt>
      <trkpt lat="48.3935" lon="-4.73334">
        <ele>41.19</ele>
        <time>2010-07-26T14:10:48Z</time>
      </trkpt>
      <trkpt lat="48.39305" lon="-4.73466">
        <ele>39.517</ele>
        <time>2010-07-26T14:11:01Z</time>
      </trkpt>
      <trkpt lat="48.39281" lon="-4.73501">
        <ele>35.958</ele>
        <time>2010-07-26T14:11:05Z</time>
      </trkpt>
      <trkpt lat="48.39238" lon="-4.7354">
        <ele>32.718</ele>
        <time>2010-07-26T14:11:10Z</time>
      </trkpt>
      <trkpt lat="48.3922" lon="-4.73553">
        <ele>31.234</ele>
        <time>2010-07-26T14:11:12Z</time>
      </trkpt>
      <trkpt lat="48.39124" lon="-4.73613">
        <ele>31.314</ele>
        <time>2010-07-26T14:11:23Z</time>
      </trkpt>
      <trkpt lat="48.39086" lon="-4.73647">
        <ele>34.302</ele>
        <time>2010-07-26T14:11:29Z</time>
      </trkpt>
      <trkpt lat="48.39069" lon="-4.73662">
        <ele>35.494</ele>
        <time>2010-07-26T14:11:32Z</time>
      </trkpt>
      <trkpt lat="48.39058" lon="-4.7367">
        <ele>36.202</ele>
        <time>2010-07-26T14:11:34Z</time>
      </trkpt>
      <trkpt lat="48.3902" lon="-4.73688">
        <ele>39.925</ele>
        <time>2010-07-26T14:11:41Z</time>
      </trkpt>
      <trkpt lat="48.38991" lon="-4.737">
        <ele>41.252</ele>
        <time>2010-07-26T14:11:47Z</time>
      </trkpt>
      <trkpt lat="48.38974" lon="-4.73707">
        <ele>42.495</ele>
        <time>2010-07-26T14:11:50Z</time>
      </trkpt>
      <trkpt lat="48.38853" lon="-4.73756">
        <ele>44.263</ele>
        <time>2010-07-26T14:12:11Z</time>
      </trkpt>
      <trkpt lat="48.38732" lon="-4.73829">
        <ele>45.715</ele>
        <time>2010-07-26T14:12:32Z</time>
      </trkpt>
      <trkpt lat="48.38678" lon="-4.73857">
        <ele>47.542</ele>
        <time>2010-07-26T14:12:42Z</time>
      </trkpt>
      <trkpt lat="48.38662" lon="-4.73863">
        <ele>47.186</ele>
        <time>2010-07-26T14:12:46Z</time>
      </trkpt>
      <trkpt lat="48.38633" lon="-4.73879">
        <ele>47.436</ele>
        <time>2010-07-26T14:12:50Z</time>
      </trkpt>
      <trkpt lat="48.38617" lon="-4.73904">
        <ele>48.506</ele>
        <time>2010-07-26T14:12:54Z</time>
      </trkpt>
      <trkpt lat="48.38605" lon="-4.73923">
        <ele>48.813</ele>
        <time>2010-07-26T14:12:57Z</time>
      </trkpt>
      <trkpt lat="48.38575" lon="-4.73942">
        <ele>48.693</ele>
        <time>2010-07-26T14:13:03Z</time>
      </trkpt>
      <trkpt lat="48.38455" lon="-4.73991">
        <ele>46.196</ele>
        <time>2010-07-26T14:13:20Z</time>
      </trkpt>
      <trkpt lat="48.38439" lon="-4.73998">
        <ele>45.298</ele>
        <time>2010-07-26T14:13:22Z</time>
      </trkpt>
      <trkpt lat="48.38309" lon="-4.741">
        <ele>43.883</ele>
        <time>2010-07-26T14:13:40Z</time>
      </trkpt>
      <trkpt lat="48.38188" lon="-4.74228">
        <ele>40.418</ele>
        <time>2010-07-26T14:13:57Z</time>
      </trkpt>
      <trkpt lat="48.38116" lon="-4.74294">
        <ele>36.771</ele>
        <time>2010-07-26T14:14:06Z</time>
      </trkpt>
      <trkpt lat="48.38108" lon="-4.74301">
        <ele>36.473</ele>
        <time>2010-07-26T14:14:07Z</time>
      </trkpt>
      <trkpt lat="48.38085" lon="-4.74348">
        <ele>34.976</ele>
        <time>2010-07-26T14:14:11Z</time>
      </trkpt>
      <trkpt lat="48.38061" lon="-4.74412">
        <ele>32.869</ele>
        <time>2010-07-26T14:14:16Z</time>
      </trkpt>
      <trkpt lat="48.3801" lon="-4.74485">
        <ele>29.983</ele>
        <time>2010-07-26T14:14:23Z</time>
      </trkpt>
      <trkpt lat="48.37974" lon="-4.74511">
        <ele>30.164</ele>
        <time>2010-07-26T14:14:27Z</time>
      </trkpt>
      <trkpt lat="48.37954" lon="-4.74518">
        <ele>31.081</ele>
        <time>2010-07-26T14:14:29Z</time>
      </trkpt>
      <trkpt lat="48.37881" lon="-4.74564">
        <ele>34.087</ele>
        <time>2010-07-26T14:14:38Z</time>
      </trkpt>
      <trkpt lat="48.37867" lon="-4.74576">
        <ele>34.796</ele>
        <time>2010-07-26T14:14:40Z</time>
      </trkpt>
      <trkpt lat="48.37803" lon="-4.74635">
        <ele>36.039</ele>
        <time>2010-07-26T14:14:50Z</time>
      </trkpt>
      <trkpt lat="48.37649" lon="-4.74778">
        <ele>36.571</ele>
        <time>2010-07-26T14:15:15Z</time>
      </trkpt>
      <trkpt lat="48.37568" lon="-4.74795">
        <ele>36.326</ele>
        <time>2010-07-26T14:15:27Z</time>
      </trkpt>
      <trkpt lat="48.37516" lon="-4.74777">
        <ele>33.931</ele>
        <time>2010-07-26T14:15:36Z</time>
      </trkpt>
      <trkpt lat="48.37375" lon="-4.74727">
        <ele>30.454</ele>
        <time>2010-07-26T14:15:51Z</time>
      </trkpt>
      <trkpt lat="48.3737" lon="-4.74725">
        <ele>30.273</ele>
        <time>2010-07-26T14:15:52Z</time>
      </trkpt>
      <trkpt lat="48.37251" lon="-4.74661">
        <ele>29.586</ele>
        <time>2010-07-26T14:16:05Z</time>
      </trkpt>
      <trkpt lat="48.37211" lon="-4.7463">
        <ele>29.181</ele>
        <time>2010-07-26T14:16:10Z</time>
      </trkpt>
      <trkpt lat="48.37172" lon="-4.74598">
        <ele>26.996</ele>
        <time>2010-07-26T14:16:15Z</time>
      </trkpt>
      <trkpt lat="48.37135" lon="-4.74573">
        <ele>24.33</ele>
        <time>2010-07-26T14:16:19Z</time>
      </trkpt>
      <trkpt lat="48.3709" lon="-4.74563">
        <ele>20.432</ele>
        <time>2010-07-26T14:16:23Z</time>
      </trkpt>
      <trkpt lat="48.37078" lon="-4.74563">
        <ele>20.158</ele>
        <time>2010-07-26T14:16:24Z</time>
      </trkpt>
      <trkpt lat="48.37055" lon="-4.74566">
        <ele>17.887</ele>
        <time>2010-07-26T14:16:26Z</time>
      </trkpt>
      <trkpt lat="48.37025" lon="-4.74586">
        <ele>15.888</ele>
        <time>2010-07-26T14:16:29Z</time>
      </trkpt>
      <trkpt lat="48.37015" lon="-4.74595">
        <ele>15.283</ele>
        <time>2010-07-26T14:16:30Z</time>
      </trkpt>
      <trkpt lat="48.36947" lon="-4.7466">
        <ele>12.183</ele>
        <time>2010-07-26T14:16:37Z</time>
      </trkpt>
      <trkpt lat="48.36876" lon="-4.74716">
        <ele>9.17</ele>
        <time>2010-07-26T14:16:44Z</time>
      </trkpt>
      <trkpt lat="48.36843" lon="-4.74731">
        <ele>6.902</ele>
        <time>2010-07-26T14:16:47Z</time>
      </trkpt>
      <trkpt lat="48.36789" lon="-4.74727">
        <ele>3.464</ele>
        <time>2010-07-26T14:16:52Z</time>
      </trkpt>
      <trkpt lat="48.36758" lon="-4.74717">
        <ele>2.061</ele>
        <time>2010-07-26T14:16:55Z</time>
      </trkpt>
      <trkpt lat="48.36757" lon="-4.74717">
        <ele>1.009</ele>
        <time>2010-07-26T14:16:56Z</time>
      </trkpt>
      <trkpt lat="48.36721" lon="-4.74664">
        <ele>-0.227</ele>
        <time>2010-07-26T14:17:00Z</time>
      </trkpt>
      <trkpt lat="48.36712" lon="-4.74636">
        <ele>0.792</ele>
        <time>2010-07-26T14:17:02Z</time>
      </trkpt>
      <trkpt lat="48.36679" lon="-4.74605">
        <ele>3.141</ele>
        <time>2010-07-26T14:17:06Z</time>
      </trkpt>
      <trkpt lat="48.36646" lon="-4.74588">
        <ele>5.595</ele>
        <time>2010-07-26T14:17:11Z</time>
      </trkpt>
      <trkpt lat="48.36639" lon="-4.74585">
        <ele>6.117</ele>
        <time>2010-07-26T14:17:12Z</time>
      </trkpt>
      <trkpt lat="48.36623" lon="-4.74577">
        <ele>7.935</ele>
        <time>2010-07-26T14:17:15Z</time>
      </trkpt>
      <trkpt lat="48.36608" lon="-4.7457">
        <ele>9.045</ele>
        <time>2010-07-26T14:17:17Z</time>
      </trkpt>
      <trkpt lat="48.36602" lon="-4.74566">
        <ele>9.486</ele>
        <time>2010-07-26T14:17:18Z</time>
      </trkpt>
      <trkpt lat="48.36577" lon="-4.74558">
        <ele>10.476</ele>
        <time>2010-07-26T14:17:22Z</time>
      </trkpt>
      <trkpt lat="48.36546" lon="-4.74567">
        <ele>12.662</ele>
        <time>2010-07-26T14:17:28Z</time>
      </trkpt>
      <trkpt lat="48.36539" lon="-4.7458">
        <ele>13.074</ele>
        <time>2010-07-26T14:17:30Z</time>
      </trkpt>
      <trkpt lat="48.36526" lon="-4.74602">
        <ele>14.415</ele>
        <time>2010-07-26T14:17:34Z</time>
      </trkpt>
      <trkpt lat="48.36498" lon="-4.74651">
        <ele>17.05</ele>
        <time>2010-07-26T14:17:45Z</time>
      </trkpt>
      <trkpt lat="48.36474" lon="-4.74679">
        <ele>19.011</ele>
        <time>2010-07-26T14:17:54Z</time>
      </trkpt>
      <trkpt lat="48.36427" lon="-4.74729">
        <ele>22.029</ele>
        <time>2010-07-26T14:18:09Z</time>
      </trkpt>
      <trkpt lat="48.36389" lon="-4.74734">
        <ele>23.792</ele>
        <time>2010-07-26T14:18:21Z</time>
      </trkpt>
      <trkpt lat="48.36365" lon="-4.74757">
        <ele>24.121</ele>
        <time>2010-07-26T14:18:26Z</time>
      </trkpt>
      <trkpt lat="48.36293" lon="-4.74781">
        <ele>26.31</ele>
        <time>2010-07-26T14:18:42Z</time>
      </trkpt>
      <trkpt lat="48.36234" lon="-4.7479">
        <ele>23.37</ele>
        <time>2010-07-26T14:18:52Z</time>
      </trkpt>
      <trkpt lat="48.36219" lon="-4.74793">
        <ele>22.515</ele>
        <time>2010-07-26T14:18:54Z</time>
      </trkpt>
      <trkpt lat="48.36177" lon="-4.74799">
        <ele>18.668</ele>
        <time>2010-07-26T14:18:59Z</time>
      </trkpt>
      <trkpt lat="48.36117" lon="-4.74803">
        <ele>15.196</ele>
        <time>2010-07-26T14:19:05Z</time>
      </trkpt>
      <trkpt lat="48.36117" lon="-4.74803">
        <ele>13.601</ele>
        <time>2010-07-26T14:19:08Z</time>
      </trkpt>
      <trkpt lat="48.36047" lon="-4.74797">
        <ele>10.084</ele>
        <time>2010-07-26T14:19:12Z</time>
      </trkpt>
      <trkpt lat="48.36051" lon="-4.74871">
        <ele>6.927</ele>
        <time>2010-07-26T14:19:17Z</time>
      </trkpt>
      <trkpt lat="48.36068" lon="-4.7489">
        <ele>6.451</ele>
        <time>2010-07-26T14:19:19Z</time>
      </trkpt>
      <trkpt lat="48.36084" lon="-4.74899">
        <ele>5.778</ele>
        <time>2010-07-26T14:19:21Z</time>
      </trkpt>
      <trkpt lat="48.36103" lon="-4.74924">
        <ele>2.796</ele>
        <time>2010-07-26T14:19:24Z</time>
      </trkpt>
      <trkpt lat="48.36095" lon="-4.74975">
        <ele>0.84</ele>
        <time>2010-07-26T14:19:27Z</time>
      </trkpt>
      <trkpt lat="48.36086" lon="-4.74988">
        <ele>0.072</ele>
        <time>2010-07-26T14:19:28Z</time>
      </trkpt>
      <trkpt lat="48.36044" lon="-4.75027">
        <ele>-1.983</ele>
        <time>2010-07-26T14:19:32Z</time>
      </trkpt>
      <trkpt lat="48.3598" lon="-4.75086">
        <ele>-0.28</ele>
        <time>2010-07-26T14:19:40Z</time>
      </trkpt>
      <trkpt lat="48.3595" lon="-4.75099">
        <ele>4.115</ele>
        <time>2010-07-26T14:19:48Z</time>
      </trkpt>
      <trkpt lat="48.35935" lon="-4.75034">
        <ele>2.098</ele>
        <time>2010-07-26T14:19:57Z</time>
      </trkpt>
      <trkpt lat="48.3593" lon="-4.75013">
        <ele>0.915</ele>
        <time>2010-07-26T14:19:59Z</time>
      </trkpt>
      <trkpt lat="48.35863" lon="-4.74882">
        <ele>2.627</ele>
        <time>2010-07-26T14:20:13Z</time>
      </trkpt>
      <trkpt lat="48.35788" lon="-4.74736">
        <ele>2.425</ele>
        <time>2010-07-26T14:20:29Z</time>
      </trkpt>
      <trkpt lat="48.35775" lon="-4.7471">
        <ele>2.493</ele>
        <time>2010-07-26T14:20:32Z</time>
      </trkpt>
      <trkpt lat="48.35742" lon="-4.74667">
        <ele>2.677</ele>
        <time>2010-07-26T14:20:38Z</time>
      </trkpt>
      <trkpt lat="48.35678" lon="-4.74595">
        <ele>3.715</ele>
        <time>2010-07-26T14:20:49Z</time>
      </trkpt>
      <trkpt lat="48.35671" lon="-4.74589">
        <ele>3.576</ele>
        <time>2010-07-26T14:20:50Z</time>
      </trkpt>
      <trkpt lat="48.35621" lon="-4.7455">
        <ele>4.377</ele>
        <time>2010-07-26T14:20:58Z</time>
      </trkpt>
      <trkpt lat="48.35529" lon="-4.74498">
        <ele>4.882</ele>
        <time>2010-07-26T14:21:12Z</time>
      </trkpt>
      <trkpt lat="48.35458" lon="-4.7439">
        <ele>4.991</ele>
        <time>2010-07-26T14:21:26Z</time>
      </trkpt>
      <trkpt lat="48.35425" lon="-4.74242">
        <ele>6.766</ele>
        <time>2010-07-26T14:21:41Z</time>
      </trkpt>
      <trkpt lat="48.35402" lon="-4.74103">
        <ele>9.78</ele>
        <time>2010-07-26T14:21:56Z</time>
      </trkpt>
      <trkpt lat="48.3538" lon="-4.73931">
        <ele>13.153</ele>
        <time>2010-07-26T14:22:15Z</time>
      </trkpt>
      <trkpt lat="48.35392" lon="-4.73762">
        <ele>16.835</ele>
        <time>2010-07-26T14:22:34Z</time>
      </trkpt>
      <trkpt lat="48.35393" lon="-4.73753">
        <ele>17.051</ele>
        <time>2010-07-26T14:22:35Z</time>
      </trkpt>
      <trkpt lat="48.35415" lon="-4.73521">
        <ele>17.922</ele>
        <time>2010-07-26T14:23:00Z</time>
      </trkpt>
      <trkpt lat="48.35418" lon="-4.73279">
        <ele>19.74</ele>
        <time>2010-07-26T14:23:24Z</time>
      </trkpt>
      <trkpt lat="48.35418" lon="-4.73163">
        <ele>22.969</ele>
        <time>2010-07-26T14:23:38Z</time>
      </trkpt>
      <trkpt lat="48.35418" lon="-4.73163">
        <ele>23.846</ele>
        <time>2010-07-26T14:23:40Z</time>
      </trkpt>
      <trkpt lat="48.35405" lon="-4.72942">
        <ele>25.629</ele>
        <time>2010-07-26T14:24:01Z</time>
      </trkpt>
      <trkpt lat="48.35386" lon="-4.72619">
        <ele>26.108</ele>
        <time>2010-07-26T14:24:34Z</time>
      </trkpt>
      <trkpt lat="48.35379" lon="-4.72437">
        <ele>27.861</ele>
        <time>2010-07-26T14:24:53Z</time>
      </trkpt>
      <trkpt lat="48.35378" lon="-4.72399">
        <ele>30.34</ele>
        <time>2010-07-26T14:24:58Z</time>
      </trkpt>
      <trkpt lat="48.35376" lon="-4.72328">
        <ele>33.454</ele>
        <time>2010-07-26T14:25:08Z</time>
      </trkpt>
      <trkpt lat="48.35364" lon="-4.72196">
        <ele>36.556</ele>
        <time>2010-07-26T14:25:25Z</time>
      </trkpt>
      <trkpt lat="48.3535" lon="-4.72106">
        <ele>39.937</ele>
        <time>2010-07-26T14:25:38Z</time>
      </trkpt>
      <trkpt lat="48.35336" lon="-4.72016">
        <ele>42.965</ele>
        <time>2010-07-26T14:25:53Z</time>
      </trkpt>
      <trkpt lat="48.35316" lon="-4.71887">
        <ele>46.223</ele>
        <time>2010-07-26T14:26:15Z</time>
      </trkpt>
      <trkpt lat="48.35319" lon="-4.7185">
        <ele>46.867</ele>
        <time>2010-07-26T14:26:22Z</time>
      </trkpt>
      <trkpt lat="48.35318" lon="-4.71809">
        <ele>45.607</ele>
        <time>2010-07-26T14:26:28Z</time>
      </trkpt>
      <trkpt lat="48.35323" lon="-4.71807">
        <ele>46.889</ele>
        <time>2010-07-26T14:26:30Z</time>
      </trkpt>
      <trkpt lat="48.35361" lon="-4.7164">
        <ele>47.06</ele>
        <time>2010-07-26T14:26:48Z</time>
      </trkpt>
      <trkpt lat="48.35439" lon="-4.71436">
        <ele>45.988</ele>
        <time>2010-07-26T14:27:11Z</time>
      </trkpt>
      <trkpt lat="48.35507" lon="-4.71298">
        <ele>43.986</ele>
        <time>2010-07-26T14:27:26Z</time>
      </trkpt>
      <trkpt lat="48.35626" lon="-4.711">
        <ele>45.243</ele>
        <time>2010-07-26T14:27:51Z</time>
      </trkpt>
      <trkpt lat="48.35664" lon="-4.71039">
        <ele>46.239</ele>
        <time>2010-07-26T14:27:59Z</time>
      </trkpt>
      <trkpt lat="48.3579" lon="-4.70835">
        <ele>45.298</ele>
        <time>2010-07-26T14:28:26Z</time>
      </trkpt>
      <trkpt lat="48.35923" lon="-4.70647">
        <ele>46.682</ele>
        <time>2010-07-26T14:28:55Z</time>
      </trkpt>
      <trkpt lat="48.36036" lon="-4.7052">
        <ele>48.378</ele>
        <time>2010-07-26T14:29:20Z</time>
      </trkpt>
      <trkpt lat="48.36116" lon="-4.70369">
        <ele>48.486</ele>
        <time>2010-07-26T14:29:39Z</time>
      </trkpt>
      <trkpt lat="48.36145" lon="-4.70294">
        <ele>47.207</ele>
        <time>2010-07-26T14:29:48Z</time>
      </trkpt>
      <trkpt lat="48.36176" lon="-4.70212">
        <ele>50.856</ele>
        <time>2010-07-26T14:29:58Z</time>
      </trkpt>
      <trkpt lat="48.3618" lon="-4.70204">
        <ele>50.679</ele>
        <time>2010-07-26T14:29:59Z</time>
      </trkpt>
      <trkpt lat="48.36244" lon="-4.70073">
        <ele>50.945</ele>
        <time>2010-07-26T14:30:16Z</time>
      </trkpt>
      <trkpt lat="48.36336" lon="-4.69891">
        <ele>52.723</ele>
        <time>2010-07-26T14:30:40Z</time>
      </trkpt>
      <trkpt lat="48.36431" lon="-4.69704">
        <ele>55.514</ele>
        <time>2010-07-26T14:31:06Z</time>
      </trkpt>
      <trkpt lat="48.36449" lon="-4.69656">
        <ele>55.779</ele>
        <time>2010-07-26T14:31:12Z</time>
      </trkpt>
      <trkpt lat="48.3647" lon="-4.69554">
        <ele>57.785</ele>
        <time>2010-07-26T14:31:24Z</time>
      </trkpt>
      <trkpt lat="48.36489" lon="-4.69528">
        <ele>57.558</ele>
        <time>2010-07-26T14:31:29Z</time>
      </trkpt>
      <trkpt lat="48.365" lon="-4.69523">
        <ele>56.993</ele>
        <time>2010-07-26T14:31:31Z</time>
      </trkpt>
      <trkpt lat="48.36514" lon="-4.69501">
        <ele>57.21</ele>
        <time>2010-07-26T14:31:35Z</time>
      </trkpt>
      <trkpt lat="48.36566" lon="-4.69382">
        <ele>58.925</ele>
        <time>2010-07-26T14:31:54Z</time>
      </trkpt>
      <trkpt lat="48.36631" lon="-4.69232">
        <ele>59.325</ele>
        <time>2010-07-26T14:32:16Z</time>
      </trkpt>
      <trkpt lat="48.3671" lon="-4.69054">
        <ele>60.399</ele>
        <time>2010-07-26T14:32:39Z</time>
      </trkpt>
      <trkpt lat="48.36802" lon="-4.68869">
        <ele>61.501</ele>
        <time>2010-07-26T14:33:04Z</time>
      </trkpt>
      <trkpt lat="48.36829" lon="-4.68823">
        <ele>61.975</ele>
        <time>2010-07-26T14:33:13Z</time>
      </trkpt>
      <trkpt lat="48.36898" lon="-4.68709">
        <ele>63.243</ele>
        <time>2010-07-26T14:33:33Z</time>
      </trkpt>
      <trkpt lat="48.37003" lon="-4.68555">
        <ele>65.181</ele>
        <time>2010-07-26T14:34:00Z</time>
      </trkpt>
      <trkpt lat="48.37081" lon="-4.6844">
        <ele>66.778</ele>
        <time>2010-07-26T14:34:22Z</time>
      </trkpt>
      <trkpt lat="48.37147" lon="-4.68345">
        <ele>69.85</ele>
        <time>2010-07-26T14:34:41Z</time>
      </trkpt>
      <trkpt lat="48.37227" lon="-4.68229">
        <ele>71.39</ele>
        <time>2010-07-26T14:35:04Z</time>
      </trkpt>
      <trkpt lat="48.37316" lon="-4.68112">
        <ele>73.642</ele>
        <time>2010-07-26T14:35:28Z</time>
      </trkpt>
      <trkpt lat="48.37412" lon="-4.68018">
        <ele>73.196</ele>
        <time>2010-07-26T14:35:50Z</time>
      </trkpt>
      <trkpt lat="48.37495" lon="-4.67961">
        <ele>75.243</ele>
        <time>2010-07-26T14:36:08Z</time>
      </trkpt>
      <trkpt lat="48.37616" lon="-4.679">
        <ele>76.369</ele>
        <time>2010-07-26T14:36:34Z</time>
      </trkpt>
      <trkpt lat="48.3768" lon="-4.67873">
        <ele>79.416</ele>
        <time>2010-07-26T14:36:51Z</time>
      </trkpt>
      <trkpt lat="48.37773" lon="-4.6784">
        <ele>80.503</ele>
        <time>2010-07-26T14:37:14Z</time>
      </trkpt>
      <trkpt lat="48.37881" lon="-4.67797">
        <ele>81.355</ele>
        <time>2010-07-26T14:37:39Z</time>
      </trkpt>
      <trkpt lat="48.37893" lon="-4.67787">
        <ele>82.616</ele>
        <time>2010-07-26T14:37:42Z</time>
      </trkpt>
      <trkpt lat="48.37986" lon="-4.67703">
        <ele>83.202</ele>
        <time>2010-07-26T14:38:03Z</time>
      </trkpt>
      <trkpt lat="48.38089" lon="-4.67622">
        <ele>84.402</ele>
        <time>2010-07-26T14:38:23Z</time>
      </trkpt>
      <trkpt lat="48.38197" lon="-4.6754">
        <ele>86.14</ele>
        <time>2010-07-26T14:38:44Z</time>
      </trkpt>
      <trkpt lat="48.3828" lon="-4.67477">
        <ele>86.717</ele>
        <time>2010-07-26T14:39:02Z</time>
      </trkpt>
      <trkpt lat="48.3842" lon="-4.67361">
        <ele>88.095</ele>
        <time>2010-07-26T14:39:28Z</time>
      </trkpt>
      <trkpt lat="48.3854" lon="-4.67255">
        <ele>88.604</ele>
        <time>2010-07-26T14:39:52Z</time>
      </trkpt>
      <trkpt lat="48.38659" lon="-4.67179">
        <ele>86.9</ele>
        <time>2010-07-26T14:40:12Z</time>
      </trkpt>
      <trkpt lat="48.38808" lon="-4.67112">
        <ele>86.115</ele>
        <time>2010-07-26T14:40:34Z</time>
      </trkpt>
      <trkpt lat="48.38947" lon="-4.67072">
        <ele>86.869</ele>
        <time>2010-07-26T14:40:55Z</time>
      </trkpt>
      <trkpt lat="48.39074" lon="-4.67059">
        <ele>88.441</ele>
        <time>2010-07-26T14:41:16Z</time>
      </trkpt>
      <trkpt lat="48.39079" lon="-4.67058">
        <ele>89.126</ele>
        <time>2010-07-26T14:41:17Z</time>
      </trkpt>
      <trkpt lat="48.39093" lon="-4.67043">
        <ele>91.111</ele>
        <time>2010-07-26T14:41:21Z</time>
      </trkpt>
      <trkpt lat="48.39091" lon="-4.67029">
        <ele>91.552</ele>
        <time>2010-07-26T14:41:23Z</time>
      </trkpt>
      <trkpt lat="48.3909" lon="-4.66874">
        <ele>92.894</ele>
        <time>2010-07-26T14:41:39Z</time>
      </trkpt>
      <trkpt lat="48.39108" lon="-4.66729">
        <ele>94.431</ele>
        <time>2010-07-26T14:41:56Z</time>
      </trkpt>
      <trkpt lat="48.39094" lon="-4.66585">
        <ele>95.147</ele>
        <time>2010-07-26T14:42:13Z</time>
      </trkpt>
      <trkpt lat="48.39057" lon="-4.66339">
        <ele>96.659</ele>
        <time>2010-07-26T14:42:40Z</time>
      </trkpt>
      <trkpt lat="48.39027" lon="-4.66143">
        <ele>97.371</ele>
        <time>2010-07-26T14:43:01Z</time>
      </trkpt>
      <trkpt lat="48.3903" lon="-4.66114">
        <ele>96.952</ele>
        <time>2010-07-26T14:43:04Z</time>
      </trkpt>
      <trkpt lat="48.39031" lon="-4.66097">
        <ele>97.831</ele>
        <time>2010-07-26T14:43:06Z</time>
      </trkpt>
      <trkpt lat="48.39009" lon="-4.66077">
        <ele>97.625</ele>
        <time>2010-07-26T14:43:09Z</time>
      </trkpt>
      <trkpt lat="48.39002" lon="-4.66062">
        <ele>97.486</ele>
        <time>2010-07-26T14:43:11Z</time>
      </trkpt>
      <trkpt lat="48.38988" lon="-4.66035">
        <ele>97.454</ele>
        <time>2010-07-26T14:43:16Z</time>
      </trkpt>
      <trkpt lat="48.38963" lon="-4.65847">
        <ele>97.051</ele>
        <time>2010-07-26T14:43:34Z</time>
      </trkpt>
      <trkpt lat="48.38945" lon="-4.65728">
        <ele>93.857</ele>
        <time>2010-07-26T14:43:45Z</time>
      </trkpt>
      <trkpt lat="48.38925" lon="-4.65638">
        <ele>90.552</ele>
        <time>2010-07-26T14:43:52Z</time>
      </trkpt>
      <trkpt lat="48.38918" lon="-4.65577">
        <ele>88.357</ele>
        <time>2010-07-26T14:43:56Z</time>
      </trkpt>
      <trkpt lat="48.38918" lon="-4.65511">
        <ele>84.87</ele>
        <time>2010-07-26T14:44:00Z</time>
      </trkpt>
      <trkpt lat="48.3892" lon="-4.65493">
        <ele>84.67</ele>
        <time>2010-07-26T14:44:01Z</time>
      </trkpt>
      <trkpt lat="48.38928" lon="-4.65387">
        <ele>81.119</ele>
        <time>2010-07-26T14:44:07Z</time>
      </trkpt>
      <trkpt lat="48.38933" lon="-4.6532">
        <ele>79.795</ele>
        <time>2010-07-26T14:44:11Z</time>
      </trkpt>
      <trkpt lat="48.38919" lon="-4.65124">
        <ele>80.459</ele>
        <time>2010-07-26T14:44:24Z</time>
      </trkpt>
      <trkpt lat="48.38884" lon="-4.64886">
        <ele>78.659</ele>
        <time>2010-07-26T14:44:41Z</time>
      </trkpt>
      <trkpt lat="48.38838" lon="-4.64739">
        <ele>75.392</ele>
        <time>2010-07-26T14:44:52Z</time>
      </trkpt>
      <trkpt lat="48.38836" lon="-4.6471">
        <ele>74.65</ele>
        <time>2010-07-26T14:44:54Z</time>
      </trkpt>
      <trkpt lat="48.38835" lon="-4.64695">
        <ele>74.386</ele>
        <time>2010-07-26T14:44:55Z</time>
      </trkpt>
      <trkpt lat="48.38834" lon="-4.6462">
        <ele>72.537</ele>
        <time>2010-07-26T14:45:00Z</time>
      </trkpt>
      <trkpt lat="48.38854" lon="-4.6441">
        <ele>69.458</ele>
        <time>2010-07-26T14:45:15Z</time>
      </trkpt>
      <trkpt lat="48.38867" lon="-4.64329">
        <ele>65.526</ele>
        <time>2010-07-26T14:45:21Z</time>
      </trkpt>
      <trkpt lat="48.38871" lon="-4.64262">
        <ele>60.926</ele>
        <time>2010-07-26T14:45:25Z</time>
      </trkpt>
      <trkpt lat="48.38874" lon="-4.64194">
        <ele>57.589</ele>
        <time>2010-07-26T14:45:29Z</time>
      </trkpt>
      <trkpt lat="48.38882" lon="-4.64091">
        <ele>55.11</ele>
        <time>2010-07-26T14:45:35Z</time>
      </trkpt>
      <trkpt lat="48.38895" lon="-4.63949">
        <ele>54.284</ele>
        <time>2010-07-26T14:45:44Z</time>
      </trkpt>
      <trkpt lat="48.38898" lon="-4.63913">
        <ele>52.264</ele>
        <time>2010-07-26T14:45:47Z</time>
      </trkpt>
      <trkpt lat="48.38898" lon="-4.63901">
        <ele>52.662</ele>
        <time>2010-07-26T14:45:48Z</time>
      </trkpt>
      <trkpt lat="48.38898" lon="-4.63839">
        <ele>50.74</ele>
        <time>2010-07-26T14:45:53Z</time>
      </trkpt>
      <trkpt lat="48.3889" lon="-4.63756">
        <ele>48.761</ele>
        <time>2010-07-26T14:45:59Z</time>
      </trkpt>
      <trkpt lat="48.38891" lon="-4.6368">
        <ele>44.277</ele>
        <time>2010-07-26T14:46:04Z</time>
      </trkpt>
      <trkpt lat="48.38892" lon="-4.63666">
        <ele>44.365</ele>
        <time>2010-07-26T14:46:05Z</time>
      </trkpt>
      <trkpt lat="48.38889" lon="-4.63557">
        <ele>41.28</ele>
        <time>2010-07-26T14:46:12Z</time>
      </trkpt>
      <trkpt lat="48.38872" lon="-4.63355">
        <ele>40.612</ele>
        <time>2010-07-26T14:46:26Z</time>
      </trkpt>
      <trkpt lat="48.38868" lon="-4.63256">
        <ele>44.075</ele>
        <time>2010-07-26T14:46:35Z</time>
      </trkpt>
      <trkpt lat="48.38871" lon="-4.63122">
        <ele>47.021</ele>
        <time>2010-07-26T14:46:50Z</time>
      </trkpt>
      <trkpt lat="48.38872" lon="-4.63059">
        <ele>47.73</ele>
        <time>2010-07-26T14:46:57Z</time>
      </trkpt>
      <trkpt lat="48.38866" lon="-4.63027">
        <ele>49.585</ele>
        <time>2010-07-26T14:47:01Z</time>
      </trkpt>
      <trkpt lat="48.38802" lon="-4.6293">
        <ele>48.036</ele>
        <time>2010-07-26T14:47:16Z</time>
      </trkpt>
      <trkpt lat="48.38725" lon="-4.62835">
        <ele>47.57</ele>
        <time>2010-07-26T14:47:30Z</time>
      </trkpt>
      <trkpt lat="48.38664" lon="-4.62774">
        <ele>50.17</ele>
        <time>2010-07-26T14:47:42Z</time>
      </trkpt>
      <trkpt lat="48.38647" lon="-4.62755">
        <ele>51.378</ele>
        <time>2010-07-26T14:47:46Z</time>
      </trkpt>
      <trkpt lat="48.38628" lon="-4.62731">
        <ele>53.178</ele>
        <time>2010-07-26T14:47:51Z</time>
      </trkpt>
      <trkpt lat="48.38625" lon="-4.62726">
        <ele>53.592</ele>
        <time>2010-07-26T14:47:52Z</time>
      </trkpt>
      <trkpt lat="48.38589" lon="-4.62646">
        <ele>57.047</ele>
        <time>2010-07-26T14:48:05Z</time>
      </trkpt>
      <trkpt lat="48.38544" lon="-4.62535">
        <ele>59.759</ele>
        <time>2010-07-26T14:48:23Z</time>
      </trkpt>
      <trkpt lat="48.38478" lon="-4.6244">
        <ele>59.14</ele>
        <time>2010-07-26T14:48:40Z</time>
      </trkpt>
      <trkpt lat="48.38447" lon="-4.62396">
        <ele>60.156</ele>
        <time>2010-07-26T14:48:47Z</time>
      </trkpt>
      <trkpt lat="48.38416" lon="-4.62364">
        <ele>62.609</ele>
        <time>2010-07-26T14:48:54Z</time>
      </trkpt>
      <trkpt lat="48.38394" lon="-4.62346">
        <ele>65.169</ele>
        <time>2010-07-26T14:49:00Z</time>
      </trkpt>
      <trkpt lat="48.38364" lon="-4.62326">
        <ele>68.333</ele>
        <time>2010-07-26T14:49:10Z</time>
      </trkpt>
      <trkpt lat="48.38326" lon="-4.62307">
        <ele>70.011</ele>
        <time>2010-07-26T14:49:21Z</time>
      </trkpt>
      <trkpt lat="48.38288" lon="-4.6227">
        <ele>70.017</ele>
        <time>2010-07-26T14:49:32Z</time>
      </trkpt>
      <trkpt lat="48.38261" lon="-4.62233">
        <ele>70.437</ele>
        <time>2010-07-26T14:49:40Z</time>
      </trkpt>
      <trkpt lat="48.38246" lon="-4.62207">
        <ele>69.143</ele>
        <time>2010-07-26T14:49:44Z</time>
      </trkpt>
      <trkpt lat="48.38233" lon="-4.62228">
        <ele>68.791</ele>
        <time>2010-07-26T14:49:46Z</time>
      </trkpt>
      <trkpt lat="48.38187" lon="-4.62225">
        <ele>68.33</ele>
        <time>2010-07-26T14:49:53Z</time>
      </trkpt>
      <trkpt lat="48.38156" lon="-4.62194">
        <ele>65.178</ele>
        <time>2010-07-26T14:49:59Z</time>
      </trkpt>
      <trkpt lat="48.38136" lon="-4.62207">
        <ele>62.2</ele>
        <time>2010-07-26T14:50:01Z</time>
      </trkpt>
      <trkpt lat="48.38117" lon="-4.6222">
        <ele>58.035</ele>
        <time>2010-07-26T14:50:04Z</time>
      </trkpt>
      <trkpt lat="48.38067" lon="-4.62246">
        <ele>55.092</ele>
        <time>2010-07-26T14:50:08Z</time>
      </trkpt>
      <trkpt lat="48.38056" lon="-4.62252">
        <ele>54.184</ele>
        <time>2010-07-26T14:50:09Z</time>
      </trkpt>
      <trkpt lat="48.38027" lon="-4.62284">
        <ele>51.971</ele>
        <time>2010-07-26T14:50:12Z</time>
      </trkpt>
      <trkpt lat="48.38012" lon="-4.6231">
        <ele>51.268</ele>
        <time>2010-07-26T14:50:14Z</time>
      </trkpt>
      <trkpt lat="48.37964" lon="-4.62427">
        <ele>47.085</ele>
        <time>2010-07-26T14:50:22Z</time>
      </trkpt>
      <trkpt lat="48.37963" lon="-4.6243">
        <ele>46.239</ele>
        <time>2010-07-26T14:50:24Z</time>
      </trkpt>
      <trkpt lat="48.37941" lon="-4.62482">
        <ele>46.125</ele>
        <time>2010-07-26T14:50:26Z</time>
      </trkpt>
      <trkpt lat="48.37849" lon="-4.626">
        <ele>44.188</ele>
        <time>2010-07-26T14:50:38Z</time>
      </trkpt>
      <trkpt lat="48.37801" lon="-4.62669">
        <ele>42.742</ele>
        <time>2010-07-26T14:50:45Z</time>
      </trkpt>
      <trkpt lat="48.37782" lon="-4.627">
        <ele>43.416</ele>
        <time>2010-07-26T14:50:49Z</time>
      </trkpt>
      <trkpt lat="48.37772" lon="-4.62738">
        <ele>44.264</ele>
        <time>2010-07-26T14:50:51Z</time>
      </trkpt>
      <trkpt lat="48.37753" lon="-4.62864">
        <ele>46.05</ele>
        <time>2010-07-26T14:51:02Z</time>
      </trkpt>
      <trkpt lat="48.37758" lon="-4.62936">
        <ele>45.791</ele>
        <time>2010-07-26T14:51:09Z</time>
      </trkpt>
      <trkpt lat="48.37763" lon="-4.62977">
        <ele>47.01</ele>
        <time>2010-07-26T14:51:13Z</time>
      </trkpt>
      <trkpt lat="48.37817" lon="-4.63151">
        <ele>44.847</ele>
        <time>2010-07-26T14:51:34Z</time>
      </trkpt>
      <trkpt lat="48.37903" lon="-4.63386">
        <ele>42.658</ele>
        <time>2010-07-26T14:51:58Z</time>
      </trkpt>
      <trkpt lat="48.37914" lon="-4.63527">
        <ele>45.033</ele>
        <time>2010-07-26T14:52:13Z</time>
      </trkpt>
      <trkpt lat="48.37911" lon="-4.63553">
        <ele>46.506</ele>
        <time>2010-07-26T14:52:21Z</time>
      </trkpt>
    </trkseg>
  </trk>
  <trk>
    <name><![CDATA[ACTIVE LOG165228]]></name>
    <trkseg>
      <trkpt lat="48.37911" lon="-4.63553">
        <ele>45.157</ele>
        <time>2010-07-26T14:52:28Z</time>
      </trkpt>
      <trkpt lat="48.37911" lon="-4.63553">
        <ele>43.35</ele>
        <time>2010-07-26T14:52:29Z</time>
      </trkpt>
    </trkseg>
  </trk>
  <trk>
    <name><![CDATA[ACTIVE LOG165906]]></name>
    <trkseg>
      <trkpt lat="48.37911" lon="-4.63553">
        <ele>43.017</ele>
        <time>2010-07-26T14:59:06Z</time>
      </trkpt>
      <trkpt lat="48.37919" lon="-4.63554">
        <ele>43.035</ele>
        <time>2010-07-26T14:59:07Z</time>
      </trkpt>
      <trkpt lat="48.37896" lon="-4.63636">
        <ele>42.938</ele>
        <time>2010-07-26T14:59:14Z</time>
      </trkpt>
      <trkpt lat="48.37856" lon="-4.63731">
        <ele>43.868</ele>
        <time>2010-07-26T14:59:26Z</time>
      </trkpt>
      <trkpt lat="48.3778" lon="-4.63893">
        <ele>45.953</ele>
        <time>2010-07-26T14:59:46Z</time>
      </trkpt>
      <trkpt lat="48.37678" lon="-4.64109">
        <ele>46.969</ele>
        <time>2010-07-26T15:00:14Z</time>
      </trkpt>
      <trkpt lat="48.37657" lon="-4.64149">
        <ele>47.705</ele>
        <time>2010-07-26T15:00:20Z</time>
      </trkpt>
      <trkpt lat="48.37636" lon="-4.64176">
        <ele>48.519</ele>
        <time>2010-07-26T15:00:25Z</time>
      </trkpt>
      <trkpt lat="48.37584" lon="-4.64229">
        <ele>49.271</ele>
        <time>2010-07-26T15:00:37Z</time>
      </trkpt>
      <trkpt lat="48.37539" lon="-4.64309">
        <ele>49.921</ele>
        <time>2010-07-26T15:00:49Z</time>
      </trkpt>
      <trkpt lat="48.37517" lon="-4.64325">
        <ele>50.258</ele>
        <time>2010-07-26T15:00:54Z</time>
      </trkpt>
      <trkpt lat="48.37488" lon="-4.64338">
        <ele>51.64</ele>
        <time>2010-07-26T15:01:00Z</time>
      </trkpt>
      <trkpt lat="48.37483" lon="-4.6434">
        <ele>51.698</ele>
        <time>2010-07-26T15:01:01Z</time>
      </trkpt>
      <trkpt lat="48.37465" lon="-4.64374">
        <ele>51.331</ele>
        <time>2010-07-26T15:01:07Z</time>
      </trkpt>
      <trkpt lat="48.37469" lon="-4.64417">
        <ele>54.209</ele>
        <time>2010-07-26T15:01:14Z</time>
      </trkpt>
      <trkpt lat="48.37456" lon="-4.64493">
        <ele>56.521</ele>
        <time>2010-07-26T15:01:27Z</time>
      </trkpt>
      <trkpt lat="48.37455" lon="-4.64496">
        <ele>56.554</ele>
        <time>2010-07-26T15:01:28Z</time>
      </trkpt>
      <trkpt lat="48.37453" lon="-4.64502">
        <ele>56.508</ele>
        <time>2010-07-26T15:01:30Z</time>
      </trkpt>
      <trkpt lat="48.37437" lon="-4.64494">
        <ele>56.51</ele>
        <time>2010-07-26T15:01:36Z</time>
      </trkpt>
      <trkpt lat="48.37383" lon="-4.6446">
        <ele>54.752</ele>
        <time>2010-07-26T15:01:46Z</time>
      </trkpt>
      <trkpt lat="48.37344" lon="-4.6442">
        <ele>51.488</ele>
        <time>2010-07-26T15:01:52Z</time>
      </trkpt>
      <trkpt lat="48.37332" lon="-4.64408">
        <ele>50.602</ele>
        <time>2010-07-26T15:01:54Z</time>
      </trkpt>
      <trkpt lat="48.37308" lon="-4.644">
        <ele>49.696</ele>
        <time>2010-07-26T15:01:56Z</time>
      </trkpt>
      <trkpt lat="48.37224" lon="-4.6438">
        <ele>53.075</ele>
        <time>2010-07-26T15:02:07Z</time>
      </trkpt>
      <trkpt lat="48.37174" lon="-4.64362">
        <ele>55.005</ele>
        <time>2010-07-26T15:02:15Z</time>
      </trkpt>
      <trkpt lat="48.37134" lon="-4.64344">
        <ele>56.254</ele>
        <time>2010-07-26T15:02:24Z</time>
      </trkpt>
      <trkpt lat="48.37033" lon="-4.64305">
        <ele>56.889</ele>
        <time>2010-07-26T15:02:40Z</time>
      </trkpt>
      <trkpt lat="48.36915" lon="-4.64287">
        <ele>59.316</ele>
        <time>2010-07-26T15:03:00Z</time>
      </trkpt>
      <trkpt lat="48.36872" lon="-4.64287">
        <ele>62.63</ele>
        <time>2010-07-26T15:03:09Z</time>
      </trkpt>
      <trkpt lat="48.36812" lon="-4.64277">
        <ele>65.656</ele>
        <time>2010-07-26T15:03:22Z</time>
      </trkpt>
      <trkpt lat="48.36698" lon="-4.64239">
        <ele>66.789</ele>
        <time>2010-07-26T15:03:43Z</time>
      </trkpt>
      <trkpt lat="48.36649" lon="-4.64222">
        <ele>65.274</ele>
        <time>2010-07-26T15:03:50Z</time>
      </trkpt>
      <trkpt lat="48.365" lon="-4.64149">
        <ele>62.513</ele>
        <time>2010-07-26T15:04:10Z</time>
      </trkpt>
      <trkpt lat="48.36413" lon="-4.64135">
        <ele>64.336</ele>
        <time>2010-07-26T15:04:21Z</time>
      </trkpt>
      <trkpt lat="48.36257" lon="-4.64121">
        <ele>67.383</ele>
        <time>2010-07-26T15:04:43Z</time>
      </trkpt>
      <trkpt lat="48.36106" lon="-4.64156">
        <ele>68.908</ele>
        <time>2010-07-26T15:05:06Z</time>
      </trkpt>
      <trkpt lat="48.36044" lon="-4.64219">
        <ele>67.07</ele>
        <time>2010-07-26T15:05:17Z</time>
      </trkpt>
      <trkpt lat="48.36034" lon="-4.64233">
        <ele>67.481</ele>
        <time>2010-07-26T15:05:19Z</time>
      </trkpt>
      <trkpt lat="48.36001" lon="-4.64263">
        <ele>68.417</ele>
        <time>2010-07-26T15:05:25Z</time>
      </trkpt>
      <trkpt lat="48.35942" lon="-4.6429">
        <ele>69.139</ele>
        <time>2010-07-26T15:05:34Z</time>
      </trkpt>
      <trkpt lat="48.35916" lon="-4.64298">
        <ele>70.079</ele>
        <time>2010-07-26T15:05:38Z</time>
      </trkpt>
      <trkpt lat="48.35877" lon="-4.64328">
        <ele>71.329</ele>
        <time>2010-07-26T15:05:45Z</time>
      </trkpt>
      <trkpt lat="48.35884" lon="-4.64287">
        <ele>69.591</ele>
        <time>2010-07-26T15:05:50Z</time>
      </trkpt>
      <trkpt lat="48.35894" lon="-4.64284">
        <ele>66.961</ele>
        <time>2010-07-26T15:05:52Z</time>
      </trkpt>
      <trkpt lat="48.35909" lon="-4.64236">
        <ele>69.623</ele>
        <time>2010-07-26T15:05:56Z</time>
      </trkpt>
      <trkpt lat="48.35912" lon="-4.64217">
        <ele>70.591</ele>
        <time>2010-07-26T15:05:58Z</time>
      </trkpt>
      <trkpt lat="48.35914" lon="-4.64085">
        <ele>71.64</ele>
        <time>2010-07-26T15:06:11Z</time>
      </trkpt>
      <trkpt lat="48.35882" lon="-4.63848">
        <ele>70.083</ele>
        <time>2010-07-26T15:06:32Z</time>
      </trkpt>
      <trkpt lat="48.35877" lon="-4.63573">
        <ele>70.712</ele>
        <time>2010-07-26T15:06:55Z</time>
      </trkpt>
      <trkpt lat="48.35877" lon="-4.63364">
        <ele>73.745</ele>
        <time>2010-07-26T15:07:15Z</time>
      </trkpt>
      <trkpt lat="48.35875" lon="-4.63052">
        <ele>76.066</ele>
        <time>2010-07-26T15:07:47Z</time>
      </trkpt>
      <trkpt lat="48.35887" lon="-4.62778">
        <ele>78.094</ele>
        <time>2010-07-26T15:08:14Z</time>
      </trkpt>
      <trkpt lat="48.3591" lon="-4.62526">
        <ele>79.354</ele>
        <time>2010-07-26T15:08:40Z</time>
      </trkpt>
      <trkpt lat="48.35966" lon="-4.62304">
        <ele>80.787</ele>
        <time>2010-07-26T15:09:05Z</time>
      </trkpt>
      <trkpt lat="48.35973" lon="-4.62289">
        <ele>81.857</ele>
        <time>2010-07-26T15:09:07Z</time>
      </trkpt>
      <trkpt lat="48.36022" lon="-4.6219">
        <ele>82.997</ele>
        <time>2010-07-26T15:09:22Z</time>
      </trkpt>
      <trkpt lat="48.36105" lon="-4.62079">
        <ele>84.699</ele>
        <time>2010-07-26T15:09:41Z</time>
      </trkpt>
      <trkpt lat="48.36141" lon="-4.62021">
        <ele>85.016</ele>
        <time>2010-07-26T15:09:50Z</time>
      </trkpt>
      <trkpt lat="48.36187" lon="-4.61873">
        <ele>85.517</ele>
        <time>2010-07-26T15:10:08Z</time>
      </trkpt>
      <trkpt lat="48.36185" lon="-4.61712">
        <ele>87.044</ele>
        <time>2010-07-26T15:10:25Z</time>
      </trkpt>
      <trkpt lat="48.36171" lon="-4.61506">
        <ele>86.398</ele>
        <time>2010-07-26T15:10:45Z</time>
      </trkpt>
      <trkpt lat="48.36163" lon="-4.61241">
        <ele>85.495</ele>
        <time>2010-07-26T15:11:09Z</time>
      </trkpt>
      <trkpt lat="48.36174" lon="-4.61063">
        <ele>84.078</ele>
        <time>2010-07-26T15:11:24Z</time>
      </trkpt>
      <trkpt lat="48.36186" lon="-4.60876">
        <ele>83.551</ele>
        <time>2010-07-26T15:11:40Z</time>
      </trkpt>
      <trkpt lat="48.36199" lon="-4.60666">
        <ele>82.334</ele>
        <time>2010-07-26T15:11:58Z</time>
      </trkpt>
      <trkpt lat="48.36234" lon="-4.60377">
        <ele>81.488</ele>
        <time>2010-07-26T15:12:22Z</time>
      </trkpt>
      <trkpt lat="48.36271" lon="-4.60099">
        <ele>81.571</ele>
        <time>2010-07-26T15:12:45Z</time>
      </trkpt>
      <trkpt lat="48.36276" lon="-4.60061">
        <ele>82.122</ele>
        <time>2010-07-26T15:12:49Z</time>
      </trkpt>
      <trkpt lat="48.36285" lon="-4.60018">
        <ele>80.706</ele>
        <time>2010-07-26T15:12:55Z</time>
      </trkpt>
      <trkpt lat="48.36308" lon="-4.60048">
        <ele>79.302</ele>
        <time>2010-07-26T15:12:57Z</time>
      </trkpt>
      <trkpt lat="48.36361" lon="-4.60033">
        <ele>81.503</ele>
        <time>2010-07-26T15:13:05Z</time>
      </trkpt>
      <trkpt lat="48.36368" lon="-4.60015">
        <ele>81.07</ele>
        <time>2010-07-26T15:13:07Z</time>
      </trkpt>
      <trkpt lat="48.36409" lon="-4.59923">
        <ele>80.842</ele>
        <time>2010-07-26T15:13:18Z</time>
      </trkpt>
      <trkpt lat="48.36472" lon="-4.5977">
        <ele>84.123</ele>
        <time>2010-07-26T15:13:37Z</time>
      </trkpt>
      <trkpt lat="48.36528" lon="-4.59618">
        <ele>87.026</ele>
        <time>2010-07-26T15:13:57Z</time>
      </trkpt>
      <trkpt lat="48.36573" lon="-4.59467">
        <ele>87.867</ele>
        <time>2010-07-26T15:14:16Z</time>
      </trkpt>
      <trkpt lat="48.36616" lon="-4.59328">
        <ele>88.69</ele>
        <time>2010-07-26T15:14:33Z</time>
      </trkpt>
      <trkpt lat="48.36664" lon="-4.59188">
        <ele>89.389</ele>
        <time>2010-07-26T15:14:51Z</time>
      </trkpt>
      <trkpt lat="48.36688" lon="-4.59191">
        <ele>86.141</ele>
        <time>2010-07-26T15:14:57Z</time>
      </trkpt>
      <trkpt lat="48.36691" lon="-4.59199">
        <ele>86.569</ele>
        <time>2010-07-26T15:14:58Z</time>
      </trkpt>
      <trkpt lat="48.3674" lon="-4.59353">
        <ele>86.113</ele>
        <time>2010-07-26T15:15:14Z</time>
      </trkpt>
      <trkpt lat="48.36758" lon="-4.59413">
        <ele>84.549</ele>
        <time>2010-07-26T15:15:20Z</time>
      </trkpt>
      <trkpt lat="48.36818" lon="-4.59511">
        <ele>83.218</ele>
        <time>2010-07-26T15:15:32Z</time>
      </trkpt>
      <trkpt lat="48.36901" lon="-4.59554">
        <ele>83.495</ele>
        <time>2010-07-26T15:15:44Z</time>
      </trkpt>
      <trkpt lat="48.37015" lon="-4.59625">
        <ele>82.957</ele>
        <time>2010-07-26T15:16:02Z</time>
      </trkpt>
      <trkpt lat="48.37114" lon="-4.59714">
        <ele>84.197</ele>
        <time>2010-07-26T15:16:21Z</time>
      </trkpt>
      <trkpt lat="48.37139" lon="-4.59737">
        <ele>83.018</ele>
        <time>2010-07-26T15:16:26Z</time>
      </trkpt>
      <trkpt lat="48.37157" lon="-4.59727">
        <ele>85.707</ele>
        <time>2010-07-26T15:16:31Z</time>
      </trkpt>
      <trkpt lat="48.3716" lon="-4.59702">
        <ele>85.693</ele>
        <time>2010-07-26T15:16:34Z</time>
      </trkpt>
      <trkpt lat="48.37152" lon="-4.59537">
        <ele>86.601</ele>
        <time>2010-07-26T15:16:51Z</time>
      </trkpt>
      <trkpt lat="48.37149" lon="-4.5945">
        <ele>87.653</ele>
        <time>2010-07-26T15:17:00Z</time>
      </trkpt>
      <trkpt lat="48.37167" lon="-4.593">
        <ele>87.819</ele>
        <time>2010-07-26T15:17:16Z</time>
      </trkpt>
      <trkpt lat="48.37181" lon="-4.59226">
        <ele>89.001</ele>
        <time>2010-07-26T15:17:25Z</time>
      </trkpt>
      <trkpt lat="48.37195" lon="-4.59171">
        <ele>89.616</ele>
        <time>2010-07-26T15:17:33Z</time>
      </trkpt>
      <trkpt lat="48.37199" lon="-4.5916">
        <ele>89.891</ele>
        <time>2010-07-26T15:17:37Z</time>
      </trkpt>
      <trkpt lat="48.37216" lon="-4.5911">
        <ele>88.932</ele>
        <time>2010-07-26T15:17:42Z</time>
      </trkpt>
      <trkpt lat="48.3722" lon="-4.59079">
        <ele>89.319</ele>
        <time>2010-07-26T15:17:47Z</time>
      </trkpt>
      <trkpt lat="48.37197" lon="-4.59048">
        <ele>89.146</ele>
        <time>2010-07-26T15:17:52Z</time>
      </trkpt>
      <trkpt lat="48.3719" lon="-4.59014">
        <ele>89.93</ele>
        <time>2010-07-26T15:17:56Z</time>
      </trkpt>
      <trkpt lat="48.37221" lon="-4.58929">
        <ele>88.615</ele>
        <time>2010-07-26T15:18:05Z</time>
      </trkpt>
      <trkpt lat="48.37218" lon="-4.58905">
        <ele>89.851</ele>
        <time>2010-07-26T15:18:08Z</time>
      </trkpt>
      <trkpt lat="48.37207" lon="-4.58897">
        <ele>89.148</ele>
        <time>2010-07-26T15:18:10Z</time>
      </trkpt>
      <trkpt lat="48.37236" lon="-4.58888">
        <ele>87.987</ele>
        <time>2010-07-26T15:18:15Z</time>
      </trkpt>
      <trkpt lat="48.37247" lon="-4.58858">
        <ele>88.242</ele>
        <time>2010-07-26T15:18:20Z</time>
      </trkpt>
      <trkpt lat="48.37227" lon="-4.58726">
        <ele>87.219</ele>
        <time>2010-07-26T15:18:27Z</time>
      </trkpt>
      <trkpt lat="48.37202" lon="-4.58709">
        <ele>86.973</ele>
        <time>2010-07-26T15:18:31Z</time>
      </trkpt>
      <trkpt lat="48.37175" lon="-4.58691">
        <ele>86.675</ele>
        <time>2010-07-26T15:18:35Z</time>
      </trkpt>
      <trkpt lat="48.37171" lon="-4.58644">
        <ele>83.765</ele>
        <time>2010-07-26T15:18:41Z</time>
      </trkpt>
      <trkpt lat="48.37197" lon="-4.58609">
        <ele>83.683</ele>
        <time>2010-07-26T15:18:46Z</time>
      </trkpt>
      <trkpt lat="48.37211" lon="-4.58586">
        <ele>83.372</ele>
        <time>2010-07-26T15:18:49Z</time>
      </trkpt>
      <trkpt lat="48.37226" lon="-4.58572">
        <ele>85.223</ele>
        <time>2010-07-26T15:18:52Z</time>
      </trkpt>
      <trkpt lat="48.37238" lon="-4.58558">
        <ele>85.179</ele>
        <time>2010-07-26T15:18:55Z</time>
      </trkpt>
      <trkpt lat="48.37259" lon="-4.58556">
        <ele>85.23</ele>
        <time>2010-07-26T15:18:59Z</time>
      </trkpt>
      <trkpt lat="48.37349" lon="-4.58529">
        <ele>86.496</ele>
        <time>2010-07-26T15:19:13Z</time>
      </trkpt>
      <trkpt lat="48.37371" lon="-4.58535">
        <ele>87.248</ele>
        <time>2010-07-26T15:19:19Z</time>
      </trkpt>
      <trkpt lat="48.37373" lon="-4.58605">
        <ele>90.109</ele>
        <time>2010-07-26T15:19:22Z</time>
      </trkpt>
      <trkpt lat="48.37374" lon="-4.58588">
        <ele>90.16</ele>
        <time>2010-07-26T15:19:25Z</time>
      </trkpt>
      <trkpt lat="48.37387" lon="-4.58426">
        <ele>87.27</ele>
        <time>2010-07-26T15:19:43Z</time>
      </trkpt>
      <trkpt lat="48.37411" lon="-4.58268">
        <ele>87.039</ele>
        <time>2010-07-26T15:19:59Z</time>
      </trkpt>
      <trkpt lat="48.37436" lon="-4.58118">
        <ele>88.371</ele>
        <time>2010-07-26T15:20:14Z</time>
      </trkpt>
      <trkpt lat="48.37438" lon="-4.58098">
        <ele>88.613</ele>
        <time>2010-07-26T15:20:16Z</time>
      </trkpt>
      <trkpt lat="48.37443" lon="-4.58024">
        <ele>89.872</ele>
        <time>2010-07-26T15:20:26Z</time>
      </trkpt>
      <trkpt lat="48.37443" lon="-4.58014">
        <ele>88.656</ele>
        <time>2010-07-26T15:20:32Z</time>
      </trkpt>
      <trkpt lat="48.37443" lon="-4.58014">
        <ele>88.772</ele>
        <time>2010-07-26T15:20:34Z</time>
      </trkpt>
      <trkpt lat="48.37455" lon="-4.57896">
        <ele>89.144</ele>
        <time>2010-07-26T15:20:46Z</time>
      </trkpt>
      <trkpt lat="48.37501" lon="-4.57729">
        <ele>89.837</ele>
        <time>2010-07-26T15:21:03Z</time>
      </trkpt>
      <trkpt lat="48.37562" lon="-4.57504">
        <ele>89.972</ele>
        <time>2010-07-26T15:21:26Z</time>
      </trkpt>
      <trkpt lat="48.37547" lon="-4.57454">
        <ele>89.743</ele>
        <time>2010-07-26T15:21:32Z</time>
      </trkpt>
      <trkpt lat="48.37467" lon="-4.5741">
        <ele>86.311</ele>
        <time>2010-07-26T15:21:43Z</time>
      </trkpt>
      <trkpt lat="48.37429" lon="-4.57389">
        <ele>83.154</ele>
        <time>2010-07-26T15:21:48Z</time>
      </trkpt>
      <trkpt lat="48.37409" lon="-4.57377">
        <ele>81.843</ele>
        <time>2010-07-26T15:21:51Z</time>
      </trkpt>
      <trkpt lat="48.37391" lon="-4.57368">
        <ele>79.968</ele>
        <time>2010-07-26T15:21:55Z</time>
      </trkpt>
      <trkpt lat="48.37386" lon="-4.57365">
        <ele>79.574</ele>
        <time>2010-07-26T15:21:56Z</time>
      </trkpt>
      <trkpt lat="48.37387" lon="-4.5724">
        <ele>76.174</ele>
        <time>2010-07-26T15:22:05Z</time>
      </trkpt>
      <trkpt lat="48.37391" lon="-4.57181">
        <ele>78.144</ele>
        <time>2010-07-26T15:22:10Z</time>
      </trkpt>
      <trkpt lat="48.37398" lon="-4.57083">
        <ele>81.274</ele>
        <time>2010-07-26T15:22:18Z</time>
      </trkpt>
      <trkpt lat="48.37399" lon="-4.57059">
        <ele>82.128</ele>
        <time>2010-07-26T15:22:20Z</time>
      </trkpt>
      <trkpt lat="48.374" lon="-4.56887">
        <ele>82.846</ele>
        <time>2010-07-26T15:22:37Z</time>
      </trkpt>
      <trkpt lat="48.374" lon="-4.56878">
        <ele>82.762</ele>
        <time>2010-07-26T15:22:38Z</time>
      </trkpt>
      <trkpt lat="48.37403" lon="-4.56827">
        <ele>84.149</ele>
        <time>2010-07-26T15:22:47Z</time>
      </trkpt>
      <trkpt lat="48.37403" lon="-4.56821">
        <ele>84.075</ele>
        <time>2010-07-26T15:22:48Z</time>
      </trkpt>
      <trkpt lat="48.37416" lon="-4.567">
        <ele>83.221</ele>
        <time>2010-07-26T15:23:01Z</time>
      </trkpt>
      <trkpt lat="48.37439" lon="-4.56594">
        <ele>83.983</ele>
        <time>2010-07-26T15:23:13Z</time>
      </trkpt>
      <trkpt lat="48.37447" lon="-4.56556">
        <ele>85.581</ele>
        <time>2010-07-26T15:23:17Z</time>
      </trkpt>
      <trkpt lat="48.37457" lon="-4.56484">
        <ele>85.994</ele>
        <time>2010-07-26T15:23:26Z</time>
      </trkpt>
      <trkpt lat="48.37486" lon="-4.56455">
        <ele>85.351</ele>
        <time>2010-07-26T15:23:34Z</time>
      </trkpt>
      <trkpt lat="48.37517" lon="-4.56463">
        <ele>86.368</ele>
        <time>2010-07-26T15:23:40Z</time>
      </trkpt>
      <trkpt lat="48.37553" lon="-4.56444">
        <ele>86.365</ele>
        <time>2010-07-26T15:23:46Z</time>
      </trkpt>
      <trkpt lat="48.37602" lon="-4.56315">
        <ele>83.768</ele>
        <time>2010-07-26T15:24:00Z</time>
      </trkpt>
      <trkpt lat="48.37642" lon="-4.56177">
        <ele>81.948</ele>
        <time>2010-07-26T15:24:14Z</time>
      </trkpt>
      <trkpt lat="48.37657" lon="-4.56111">
        <ele>79.403</ele>
        <time>2010-07-26T15:24:19Z</time>
      </trkpt>
      <trkpt lat="48.37679" lon="-4.56023">
        <ele>77.144</ele>
        <time>2010-07-26T15:24:27Z</time>
      </trkpt>
      <trkpt lat="48.37687" lon="-4.5597">
        <ele>77.851</ele>
        <time>2010-07-26T15:24:31Z</time>
      </trkpt>
      <trkpt lat="48.37697" lon="-4.5586">
        <ele>82.029</ele>
        <time>2010-07-26T15:24:43Z</time>
      </trkpt>
      <trkpt lat="48.3769" lon="-4.55817">
        <ele>83.735</ele>
        <time>2010-07-26T15:24:48Z</time>
      </trkpt>
      <trkpt lat="48.37687" lon="-4.55798">
        <ele>84.018</ele>
        <time>2010-07-26T15:24:50Z</time>
      </trkpt>
      <trkpt lat="48.37679" lon="-4.55748">
        <ele>83.457</ele>
        <time>2010-07-26T15:24:55Z</time>
      </trkpt>
      <trkpt lat="48.3771" lon="-4.55688">
        <ele>81.979</ele>
        <time>2010-07-26T15:25:04Z</time>
      </trkpt>
      <trkpt lat="48.37714" lon="-4.55685">
        <ele>82.201</ele>
        <time>2010-07-26T15:25:05Z</time>
      </trkpt>
      <trkpt lat="48.37733" lon="-4.55673">
        <ele>83.222</ele>
        <time>2010-07-26T15:25:09Z</time>
      </trkpt>
      <trkpt lat="48.37741" lon="-4.55641">
        <ele>83.295</ele>
        <time>2010-07-26T15:25:15Z</time>
      </trkpt>
      <trkpt lat="48.37768" lon="-4.55497">
        <ele>81.655</ele>
        <time>2010-07-26T15:25:29Z</time>
      </trkpt>
      <trkpt lat="48.37785" lon="-4.55448">
        <ele>81.433</ele>
        <time>2010-07-26T15:25:34Z</time>
      </trkpt>
      <trkpt lat="48.37798" lon="-4.5542">
        <ele>80.033</ele>
        <time>2010-07-26T15:25:37Z</time>
      </trkpt>
      <trkpt lat="48.37843" lon="-4.55276">
        <ele>79.983</ele>
        <time>2010-07-26T15:25:52Z</time>
      </trkpt>
      <trkpt lat="48.37889" lon="-4.5517">
        <ele>78.106</ele>
        <time>2010-07-26T15:26:04Z</time>
      </trkpt>
      <trkpt lat="48.37919" lon="-4.55115">
        <ele>76.589</ele>
        <time>2010-07-26T15:26:10Z</time>
      </trkpt>
      <trkpt lat="48.37988" lon="-4.54989">
        <ele>74.807</ele>
        <time>2010-07-26T15:26:26Z</time>
      </trkpt>
      <trkpt lat="48.38043" lon="-4.54863">
        <ele>76.371</ele>
        <time>2010-07-26T15:26:39Z</time>
      </trkpt>
      <trkpt lat="48.3806" lon="-4.54829">
        <ele>77.158</ele>
        <time>2010-07-26T15:26:44Z</time>
      </trkpt>
      <trkpt lat="48.38071" lon="-4.54805">
        <ele>78.745</ele>
        <time>2010-07-26T15:26:47Z</time>
      </trkpt>
      <trkpt lat="48.38057" lon="-4.54772">
        <ele>80.435</ele>
        <time>2010-07-26T15:26:54Z</time>
      </trkpt>
      <trkpt lat="48.38002" lon="-4.54728">
        <ele>82.233</ele>
        <time>2010-07-26T15:27:05Z</time>
      </trkpt>
      <trkpt lat="48.37964" lon="-4.54703">
        <ele>83.812</ele>
        <time>2010-07-26T15:27:13Z</time>
      </trkpt>
      <trkpt lat="48.37904" lon="-4.54632">
        <ele>85.628</ele>
        <time>2010-07-26T15:27:27Z</time>
      </trkpt>
      <trkpt lat="48.37886" lon="-4.54607">
        <ele>85.949</ele>
        <time>2010-07-26T15:27:32Z</time>
      </trkpt>
      <trkpt lat="48.37862" lon="-4.54593">
        <ele>86.021</ele>
        <time>2010-07-26T15:27:37Z</time>
      </trkpt>
      <trkpt lat="48.37849" lon="-4.54585">
        <ele>85.981</ele>
        <time>2010-07-26T15:27:40Z</time>
      </trkpt>
      <trkpt lat="48.37834" lon="-4.54552">
        <ele>84.944</ele>
        <time>2010-07-26T15:27:46Z</time>
      </trkpt>
      <trkpt lat="48.37802" lon="-4.54535">
        <ele>84.745</ele>
        <time>2010-07-26T15:27:51Z</time>
      </trkpt>
      <trkpt lat="48.37797" lon="-4.54455">
        <ele>85.996</ele>
        <time>2010-07-26T15:27:58Z</time>
      </trkpt>
      <trkpt lat="48.37826" lon="-4.54444">
        <ele>84.655</ele>
        <time>2010-07-26T15:28:02Z</time>
      </trkpt>
      <trkpt lat="48.37857" lon="-4.54414">
        <ele>86.818</ele>
        <time>2010-07-26T15:28:07Z</time>
      </trkpt>
      <trkpt lat="48.37875" lon="-4.54395">
        <ele>87.992</ele>
        <time>2010-07-26T15:28:11Z</time>
      </trkpt>
      <trkpt lat="48.37903" lon="-4.54375">
        <ele>90.155</ele>
        <time>2010-07-26T15:28:24Z</time>
      </trkpt>
      <trkpt lat="48.37927" lon="-4.54345">
        <ele>89.438</ele>
        <time>2010-07-26T15:28:40Z</time>
      </trkpt>
      <trkpt lat="48.37948" lon="-4.54318">
        <ele>88.348</ele>
        <time>2010-07-26T15:28:45Z</time>
      </trkpt>
      <trkpt lat="48.38068" lon="-4.54166">
        <ele>90.084</ele>
        <time>2010-07-26T15:29:09Z</time>
      </trkpt>
      <trkpt lat="48.38199" lon="-4.54002">
        <ele>91.441</ele>
        <time>2010-07-26T15:29:35Z</time>
      </trkpt>
      <trkpt lat="48.38209" lon="-4.53987">
        <ele>92.247</ele>
        <time>2010-07-26T15:29:37Z</time>
      </trkpt>
      <trkpt lat="48.38272" lon="-4.5389">
        <ele>92.289</ele>
        <time>2010-07-26T15:29:54Z</time>
      </trkpt>
      <trkpt lat="48.38272" lon="-4.5389">
        <ele>92.166</ele>
        <time>2010-07-26T15:29:55Z</time>
      </trkpt>
      <trkpt lat="48.38293" lon="-4.53823">
        <ele>93.33</ele>
        <time>2010-07-26T15:30:01Z</time>
      </trkpt>
      <trkpt lat="48.38293" lon="-4.53787">
        <ele>92.592</ele>
        <time>2010-07-26T15:30:06Z</time>
      </trkpt>
      <trkpt lat="48.38305" lon="-4.53689">
        <ele>93.765</ele>
        <time>2010-07-26T15:30:23Z</time>
      </trkpt>
      <trkpt lat="48.38313" lon="-4.53641">
        <ele>92.469</ele>
        <time>2010-07-26T15:30:29Z</time>
      </trkpt>
      <trkpt lat="48.38318" lon="-4.53606">
        <ele>93.097</ele>
        <time>2010-07-26T15:30:33Z</time>
      </trkpt>
      <trkpt lat="48.38323" lon="-4.53441">
        <ele>92.125</ele>
        <time>2010-07-26T15:30:48Z</time>
      </trkpt>
      <trkpt lat="48.38323" lon="-4.53226">
        <ele>93.51</ele>
        <time>2010-07-26T15:31:07Z</time>
      </trkpt>
      <trkpt lat="48.38323" lon="-4.53157">
        <ele>93.594</ele>
        <time>2010-07-26T15:31:14Z</time>
      </trkpt>
      <trkpt lat="48.38323" lon="-4.53139">
        <ele>92.959</ele>
        <time>2010-07-26T15:31:18Z</time>
      </trkpt>
      <trkpt lat="48.38302" lon="-4.53113">
        <ele>93.821</ele>
        <time>2010-07-26T15:31:20Z</time>
      </trkpt>
      <trkpt lat="48.38302" lon="-4.53031">
        <ele>95.023</ele>
        <time>2010-07-26T15:31:29Z</time>
      </trkpt>
      <trkpt lat="48.38306" lon="-4.52899">
        <ele>95.128</ele>
        <time>2010-07-26T15:31:42Z</time>
      </trkpt>
      <trkpt lat="48.38306" lon="-4.52871">
        <ele>96.774</ele>
        <time>2010-07-26T15:31:45Z</time>
      </trkpt>
      <trkpt lat="48.38307" lon="-4.52823">
        <ele>95.128</ele>
        <time>2010-07-26T15:31:50Z</time>
      </trkpt>
      <trkpt lat="48.3831" lon="-4.52772">
        <ele>95.761</ele>
        <time>2010-07-26T15:31:58Z</time>
      </trkpt>
      <trkpt lat="48.38312" lon="-4.52743">
        <ele>94.325</ele>
        <time>2010-07-26T15:32:02Z</time>
      </trkpt>
      <trkpt lat="48.38321" lon="-4.52636">
        <ele>90.774</ele>
        <time>2010-07-26T15:32:12Z</time>
      </trkpt>
      <trkpt lat="48.38332" lon="-4.52526">
        <ele>88.748</ele>
        <time>2010-07-26T15:32:22Z</time>
      </trkpt>
      <trkpt lat="48.38351" lon="-4.5243">
        <ele>85.853</ele>
        <time>2010-07-26T15:32:30Z</time>
      </trkpt>
      <trkpt lat="48.38358" lon="-4.52398">
        <ele>85.485</ele>
        <time>2010-07-26T15:32:33Z</time>
      </trkpt>
      <trkpt lat="48.38345" lon="-4.52373">
        <ele>85.243</ele>
        <time>2010-07-26T15:32:37Z</time>
      </trkpt>
      <trkpt lat="48.38333" lon="-4.5234">
        <ele>85.258</ele>
        <time>2010-07-26T15:32:43Z</time>
      </trkpt>
      <trkpt lat="48.3835" lon="-4.52253">
        <ele>88.371</ele>
        <time>2010-07-26T15:32:55Z</time>
      </trkpt>
      <trkpt lat="48.38358" lon="-4.52215">
        <ele>89.512</ele>
        <time>2010-07-26T15:33:00Z</time>
      </trkpt>
      <trkpt lat="48.38381" lon="-4.52094">
        <ele>87.762</ele>
        <time>2010-07-26T15:33:14Z</time>
      </trkpt>
      <trkpt lat="48.38403" lon="-4.51978">
        <ele>87.326</ele>
        <time>2010-07-26T15:33:28Z</time>
      </trkpt>
      <trkpt lat="48.3839" lon="-4.51971">
        <ele>87.348</ele>
        <time>2010-07-26T15:33:33Z</time>
      </trkpt>
      <trkpt lat="48.3835" lon="-4.51981">
        <ele>84.586</ele>
        <time>2010-07-26T15:33:39Z</time>
      </trkpt>
      <trkpt lat="48.3831" lon="-4.51991">
        <ele>82.768</ele>
        <time>2010-07-26T15:33:48Z</time>
      </trkpt>
      <trkpt lat="48.3831" lon="-4.51991">
        <ele>82.786</ele>
        <time>2010-07-26T15:33:57Z</time>
      </trkpt>
      <trkpt lat="48.38304" lon="-4.51953">
        <ele>82.064</ele>
        <time>2010-07-26T15:34:02Z</time>
      </trkpt>
      <trkpt lat="48.38273" lon="-4.51929">
        <ele>80.586</ele>
        <time>2010-07-26T15:34:11Z</time>
      </trkpt>
      <trkpt lat="48.38268" lon="-4.51931">
        <ele>80.486</ele>
        <time>2010-07-26T15:34:12Z</time>
      </trkpt>
      <trkpt lat="48.38223" lon="-4.51943">
        <ele>78.727</ele>
        <time>2010-07-26T15:34:18Z</time>
      </trkpt>
      <trkpt lat="48.38205" lon="-4.51917">
        <ele>75.434</ele>
        <time>2010-07-26T15:34:22Z</time>
      </trkpt>
      <trkpt lat="48.38191" lon="-4.51856">
        <ele>71.973</ele>
        <time>2010-07-26T15:34:27Z</time>
      </trkpt>
      <trkpt lat="48.3818" lon="-4.51811">
        <ele>68.753</ele>
        <time>2010-07-26T15:34:30Z</time>
      </trkpt>
      <trkpt lat="48.38173" lon="-4.5178">
        <ele>65.463</ele>
        <time>2010-07-26T15:34:32Z</time>
      </trkpt>
      <trkpt lat="48.3817" lon="-4.51765">
        <ele>65.321</ele>
        <time>2010-07-26T15:34:33Z</time>
      </trkpt>
      <trkpt lat="48.38166" lon="-4.51749">
        <ele>65.076</ele>
        <time>2010-07-26T15:34:34Z</time>
      </trkpt>
      <trkpt lat="48.38153" lon="-4.51673">
        <ele>65.448</ele>
        <time>2010-07-26T15:34:39Z</time>
      </trkpt>
      <trkpt lat="48.38134" lon="-4.51527">
        <ele>62.109</ele>
        <time>2010-07-26T15:34:49Z</time>
      </trkpt>
      <trkpt lat="48.38134" lon="-4.51512">
        <ele>62.564</ele>
        <time>2010-07-26T15:34:50Z</time>
      </trkpt>
      <trkpt lat="48.38134" lon="-4.51354">
        <ele>57.697</ele>
        <time>2010-07-26T15:35:00Z</time>
      </trkpt>
      <trkpt lat="48.38134" lon="-4.51337">
        <ele>57.791</ele>
        <time>2010-07-26T15:35:01Z</time>
      </trkpt>
      <trkpt lat="48.38139" lon="-4.51147">
        <ele>59.195</ele>
        <time>2010-07-26T15:35:13Z</time>
      </trkpt>
      <trkpt lat="48.38138" lon="-4.51108">
        <ele>59.702</ele>
        <time>2010-07-26T15:35:16Z</time>
      </trkpt>
      <trkpt lat="48.38122" lon="-4.51002">
        <ele>60.651</ele>
        <time>2010-07-26T15:35:26Z</time>
      </trkpt>
      <trkpt lat="48.38149" lon="-4.5092">
        <ele>59.671</ele>
        <time>2010-07-26T15:35:36Z</time>
      </trkpt>
      <trkpt lat="48.38157" lon="-4.50908">
        <ele>58.826</ele>
        <time>2010-07-26T15:35:38Z</time>
      </trkpt>
      <trkpt lat="48.38206" lon="-4.50875">
        <ele>58.511</ele>
        <time>2010-07-26T15:35:49Z</time>
      </trkpt>
      <trkpt lat="48.38223" lon="-4.50868">
        <ele>59.145</ele>
        <time>2010-07-26T15:35:52Z</time>
      </trkpt>
      <trkpt lat="48.38266" lon="-4.50863">
        <ele>58.936</ele>
        <time>2010-07-26T15:36:01Z</time>
      </trkpt>
      <trkpt lat="48.38271" lon="-4.50863">
        <ele>60.314</ele>
        <time>2010-07-26T15:36:10Z</time>
      </trkpt>
      <trkpt lat="48.38284" lon="-4.50861">
        <ele>60.461</ele>
        <time>2010-07-26T15:36:20Z</time>
      </trkpt>
      <trkpt lat="48.3829" lon="-4.50831">
        <ele>58.89</ele>
        <time>2010-07-26T15:36:27Z</time>
      </trkpt>
      <trkpt lat="48.38286" lon="-4.50801">
        <ele>57.219</ele>
        <time>2010-07-26T15:36:31Z</time>
      </trkpt>
      <trkpt lat="48.38285" lon="-4.50765">
        <ele>55.014</ele>
        <time>2010-07-26T15:36:35Z</time>
      </trkpt>
      <trkpt lat="48.38283" lon="-4.50745">
        <ele>53.331</ele>
        <time>2010-07-26T15:36:37Z</time>
      </trkpt>
      <trkpt lat="48.38278" lon="-4.50702">
        <ele>37.526</ele>
        <time>2010-07-26T15:36:42Z</time>
      </trkpt>
      <trkpt lat="48.38277" lon="-4.50693">
        <ele>50.953</ele>
        <time>2010-07-26T15:36:43Z</time>
      </trkpt>
      <trkpt lat="48.38275" lon="-4.50677">
        <ele>52.876</ele>
        <time>2010-07-26T15:36:45Z</time>
      </trkpt>
      <trkpt lat="48.38273" lon="-4.50654">
        <ele>49.928</ele>
        <time>2010-07-26T15:36:49Z</time>
      </trkpt>
      <trkpt lat="48.38273" lon="-4.50654">
        <ele>48.671</ele>
        <time>2010-07-26T15:36:53Z</time>
      </trkpt>
      <trkpt lat="48.38273" lon="-4.50654">
        <ele>48.727</ele>
        <time>2010-07-26T15:36:54Z</time>
      </trkpt>
      <trkpt lat="48.38273" lon="-4.50651">
        <ele>48.836</ele>
        <time>2010-07-26T15:37:06Z</time>
      </trkpt>
      <trkpt lat="48.38273" lon="-4.50651">
        <ele>48.425</ele>
        <time>2010-07-26T15:37:10Z</time>
      </trkpt>
      <trkpt lat="48.38249" lon="-4.50572">
        <ele>49.113</ele>
        <time>2010-07-26T15:37:14Z</time>
      </trkpt>
      <trkpt lat="48.38232" lon="-4.50577">
        <ele>48.913</ele>
        <time>2010-07-26T15:37:27Z</time>
      </trkpt>
      <trkpt lat="48.38232" lon="-4.50577">
        <ele>48.913</ele>
        <time>2010-07-26T15:37:28Z</time>
      </trkpt>
      <trkpt lat="48.38232" lon="-4.50577">
        <ele>48.939</ele>
        <time>2010-07-26T15:37:46Z</time>
      </trkpt>
    </trkseg>
  </trk>
  <trk>
    <name><![CDATA[ACTIVE LOG173757]]></name>
    <trkseg>
      <trkpt lat="48.38232" lon="-4.50577">
        <ele>48.326</ele>
        <time>2010-07-26T15:37:57Z</time>
      </trkpt>
    </trkseg>
  </trk>
  <trk>
    <name><![CDATA[ACTIVE LOG193811]]></name>
    <trkseg>
      <trkpt lat="48.38248" lon="-4.50641">
        <ele>46.584</ele>
        <time>2010-07-26T17:38:11Z</time>
      </trkpt>
      <trkpt lat="48.38248" lon="-4.50641">
        <ele>46.584</ele>
        <time>2010-07-26T17:38:12Z</time>
      </trkpt>
    </trkseg>
  </trk>
</gpx>